<?xml version="1.0" encoding="utf-8"?>
<gpx xmlns:xsi="http://www.w3.org/2001/XMLSchema-instance" xmlns:xsd="http://www.w3.org/2001/XMLSchema" version="1.1" creator="Shapelink.com" xmlns="http://www.topografix.com/GPX/1/1" xmlns:gpxtpx="http://www.garmin.com/xmlschemas/TrackPointExtension/v1">
  <metadata>
    <name>Promenad 13.30 km, 2016-04-16</name>
    <desc></desc>
    <author><name>Stefan Östlund</name></author> 
    <time>2016-04-16T11:26:04Z</time>
  </metadata>
  <trk>
    <name>Promenad 13.30 km, 2016-04-16</name>
    <trkseg>
      <trkpt lat="28.230003333334" lon="-13.98753534734">
        <ele>0</ele>
        <time>2016-04-16T11:26:04Z</time>
      </trkpt>
      <trkpt lat="28.230006350818" lon="-13.987640288728">
        <ele>0</ele>
        <time>2016-04-16T11:26:13Z</time>
      </trkpt>
      <trkpt lat="28.229995873443" lon="-13.987800634475">
        <ele>0</ele>
        <time>2016-04-16T11:26:28Z</time>
      </trkpt>
      <trkpt lat="28.229962262024" lon="-13.987759898441">
        <ele>0</ele>
        <time>2016-04-16T11:26:35Z</time>
      </trkpt>
      <trkpt lat="28.229941055817" lon="-13.987731902895">
        <ele>0</ele>
        <time>2016-04-16T11:26:40Z</time>
      </trkpt>
      <trkpt lat="28.229924627293" lon="-13.987725281194">
        <ele>0</ele>
        <time>2016-04-16T11:26:44Z</time>
      </trkpt>
      <trkpt lat="28.229901241792" lon="-13.98774489484">
        <ele>0</ele>
        <time>2016-04-16T11:26:50Z</time>
      </trkpt>
      <trkpt lat="28.229865199622" lon="-13.987790660014">
        <ele>0</ele>
        <time>2016-04-16T11:26:59Z</time>
      </trkpt>
      <trkpt lat="28.229833767497" lon="-13.98780943547">
        <ele>0</ele>
        <time>2016-04-16T11:27:03Z</time>
      </trkpt>
      <trkpt lat="28.229819350629" lon="-13.987826618365">
        <ele>0</ele>
        <time>2016-04-16T11:27:06Z</time>
      </trkpt>
      <trkpt lat="28.229820859371" lon="-13.987850339142">
        <ele>0</ele>
        <time>2016-04-16T11:27:11Z</time>
      </trkpt>
      <trkpt lat="28.229823709217" lon="-13.987860732698">
        <ele>0</ele>
        <time>2016-04-16T11:27:12Z</time>
      </trkpt>
      <trkpt lat="28.229845166881" lon="-13.987904570035">
        <ele>0</ele>
        <time>2016-04-16T11:27:16Z</time>
      </trkpt>
      <trkpt lat="28.229925046388" lon="-13.987974391262">
        <ele>0</ele>
        <time>2016-04-16T11:27:24Z</time>
      </trkpt>
      <trkpt lat="28.229935859039" lon="-13.988076398985">
        <ele>0</ele>
        <time>2016-04-16T11:27:31Z</time>
      </trkpt>
      <trkpt lat="28.229918089411" lon="-13.988118308485">
        <ele>0</ele>
        <time>2016-04-16T11:27:34Z</time>
      </trkpt>
      <trkpt lat="28.229905432742" lon="-13.988149824429">
        <ele>0</ele>
        <time>2016-04-16T11:27:37Z</time>
      </trkpt>
      <trkpt lat="28.229864780527" lon="-13.988221322036">
        <ele>0</ele>
        <time>2016-04-16T11:27:43Z</time>
      </trkpt>
      <trkpt lat="28.229822451932" lon="-13.988310002538">
        <ele>0</ele>
        <time>2016-04-16T11:27:52Z</time>
      </trkpt>
      <trkpt lat="28.229823541579" lon="-13.988314277307">
        <ele>0</ele>
        <time>2016-04-16T11:27:53Z</time>
      </trkpt>
      <trkpt lat="28.229821949018" lon="-13.988317965343">
        <ele>0</ele>
        <time>2016-04-16T11:27:57Z</time>
      </trkpt>
      <trkpt lat="28.229844328691" lon="-13.988336405523">
        <ele>0</ele>
        <time>2016-04-16T11:28:01Z</time>
      </trkpt>
      <trkpt lat="28.229887076381" lon="-13.988353923694">
        <ele>0</ele>
        <time>2016-04-16T11:28:05Z</time>
      </trkpt>
      <trkpt lat="28.229924459655" lon="-13.988373788797">
        <ele>0</ele>
        <time>2016-04-16T11:28:08Z</time>
      </trkpt>
      <trkpt lat="28.229940301446" lon="-13.988389714407">
        <ele>0</ele>
        <time>2016-04-16T11:28:10Z</time>
      </trkpt>
      <trkpt lat="28.229959998911" lon="-13.988455177046">
        <ele>0</ele>
        <time>2016-04-16T11:28:17Z</time>
      </trkpt>
      <trkpt lat="28.229976511254" lon="-13.988479065461">
        <ele>0</ele>
        <time>2016-04-16T11:28:20Z</time>
      </trkpt>
      <trkpt lat="28.229983300593" lon="-13.988481580031">
        <ele>0</ele>
        <time>2016-04-16T11:28:21Z</time>
      </trkpt>
      <trkpt lat="28.230032334708" lon="-13.988507396283">
        <ele>0</ele>
        <time>2016-04-16T11:28:28Z</time>
      </trkpt>
      <trkpt lat="28.229989251742" lon="-13.988580067356">
        <ele>0</ele>
        <time>2016-04-16T11:28:51Z</time>
      </trkpt>
      <trkpt lat="28.229969889553" lon="-13.98863756719">
        <ele>0</ele>
        <time>2016-04-16T11:29:07Z</time>
      </trkpt>
      <trkpt lat="28.229959915092" lon="-13.988681236889">
        <ele>0</ele>
        <time>2016-04-16T11:29:12Z</time>
      </trkpt>
      <trkpt lat="28.229935859039" lon="-13.988894388606">
        <ele>0</ele>
        <time>2016-04-16T11:29:27Z</time>
      </trkpt>
      <trkpt lat="28.229858577921" lon="-13.989085915021">
        <ele>0</ele>
        <time>2016-04-16T11:29:43Z</time>
      </trkpt>
      <trkpt lat="28.229847597632" lon="-13.989106031581">
        <ele>0</ele>
        <time>2016-04-16T11:29:45Z</time>
      </trkpt>
      <trkpt lat="28.229820105" lon="-13.989136038783">
        <ele>0</ele>
        <time>2016-04-16T11:29:49Z</time>
      </trkpt>
      <trkpt lat="28.229654730113" lon="-13.989119191164">
        <ele>0</ele>
        <time>2016-04-16T11:30:02Z</time>
      </trkpt>
      <trkpt lat="28.229633356268" lon="-13.989116760413">
        <ele>0</ele>
        <time>2016-04-16T11:30:04Z</time>
      </trkpt>
      <trkpt lat="28.229464460983" lon="-13.989042580598">
        <ele>0</ele>
        <time>2016-04-16T11:30:17Z</time>
      </trkpt>
      <trkpt lat="28.229365303106" lon="-13.988997066881">
        <ele>0</ele>
        <time>2016-04-16T11:30:25Z</time>
      </trkpt>
      <trkpt lat="28.22919230069" lon="-13.988990696637">
        <ele>0</ele>
        <time>2016-04-16T11:30:42Z</time>
      </trkpt>
      <trkpt lat="28.229171932673" lon="-13.98898960699">
        <ele>0</ele>
        <time>2016-04-16T11:30:45Z</time>
      </trkpt>
      <trkpt lat="28.22907998323" lon="-13.989098990785">
        <ele>0</ele>
        <time>2016-04-16T11:30:55Z</time>
      </trkpt>
      <trkpt lat="28.228954757644" lon="-13.989198232481">
        <ele>0</ele>
        <time>2016-04-16T11:31:06Z</time>
      </trkpt>
      <trkpt lat="28.228810421326" lon="-13.989326810827">
        <ele>0</ele>
        <time>2016-04-16T11:31:21Z</time>
      </trkpt>
      <trkpt lat="28.228837578682" lon="-13.989434769699">
        <ele>0</ele>
        <time>2016-04-16T11:31:30Z</time>
      </trkpt>
      <trkpt lat="28.228774379156" lon="-13.989554966145">
        <ele>0</ele>
        <time>2016-04-16T11:31:41Z</time>
      </trkpt>
      <trkpt lat="28.228752753854" lon="-13.989591008315">
        <ele>0</ele>
        <time>2016-04-16T11:31:45Z</time>
      </trkpt>
      <trkpt lat="28.228743114669" lon="-13.989618920042">
        <ele>0</ele>
        <time>2016-04-16T11:31:50Z</time>
      </trkpt>
      <trkpt lat="28.228732553475" lon="-13.989742469248">
        <ele>0</ele>
        <time>2016-04-16T11:32:05Z</time>
      </trkpt>
      <trkpt lat="28.228744455773" lon="-13.989849422292">
        <ele>0</ele>
        <time>2016-04-16T11:32:16Z</time>
      </trkpt>
      <trkpt lat="28.228706485766" lon="-13.989845901894">
        <ele>0</ele>
        <time>2016-04-16T11:33:40Z</time>
      </trkpt>
      <trkpt lat="28.228531974608" lon="-13.989767866405">
        <ele>0</ele>
        <time>2016-04-16T11:33:54Z</time>
      </trkpt>
      <trkpt lat="28.228406329927" lon="-13.989805417317">
        <ele>0</ele>
        <time>2016-04-16T11:34:05Z</time>
      </trkpt>
      <trkpt lat="28.228387470652" lon="-13.989803573299">
        <ele>0</ele>
        <time>2016-04-16T11:34:07Z</time>
      </trkpt>
      <trkpt lat="28.228332988302" lon="-13.989716066263">
        <ele>0</ele>
        <time>2016-04-16T11:34:18Z</time>
      </trkpt>
      <trkpt lat="28.228312871742" lon="-13.989599474034">
        <ele>0</ele>
        <time>2016-04-16T11:34:30Z</time>
      </trkpt>
      <trkpt lat="28.228165434121" lon="-13.98941708389">
        <ele>0</ele>
        <time>2016-04-16T11:35:41Z</time>
      </trkpt>
      <trkpt lat="28.228013218817" lon="-13.989341814428">
        <ele>0</ele>
        <time>2016-04-16T11:35:54Z</time>
      </trkpt>
      <trkpt lat="28.227850190862" lon="-13.989228407321">
        <ele>0</ele>
        <time>2016-04-16T11:36:09Z</time>
      </trkpt>
      <trkpt lat="28.227727815122" lon="-13.989098152595">
        <ele>0</ele>
        <time>2016-04-16T11:36:24Z</time>
      </trkpt>
      <trkpt lat="28.227659754094" lon="-13.98915389223">
        <ele>0</ele>
        <time>2016-04-16T11:36:31Z</time>
      </trkpt>
      <trkpt lat="28.227540144381" lon="-13.989325302085">
        <ele>0</ele>
        <time>2016-04-16T11:36:45Z</time>
      </trkpt>
      <trkpt lat="28.22742623436" lon="-13.989488581497">
        <ele>0</ele>
        <time>2016-04-16T11:37:00Z</time>
      </trkpt>
      <trkpt lat="28.227288352105" lon="-13.989640377706">
        <ele>0</ele>
        <time>2016-04-16T11:37:15Z</time>
      </trkpt>
      <trkpt lat="28.227177040473" lon="-13.989799047073">
        <ele>0</ele>
        <time>2016-04-16T11:37:28Z</time>
      </trkpt>
      <trkpt lat="28.227059358597" lon="-13.98995855463">
        <ele>0</ele>
        <time>2016-04-16T11:37:44Z</time>
      </trkpt>
      <trkpt lat="28.22702222678" lon="-13.990013958989">
        <ele>0</ele>
        <time>2016-04-16T11:37:50Z</time>
      </trkpt>
      <trkpt lat="28.226928181862" lon="-13.990107920088">
        <ele>0</ele>
        <time>2016-04-16T11:38:00Z</time>
      </trkpt>
      <trkpt lat="28.226887613466" lon="-13.990106578984">
        <ele>0</ele>
        <time>2016-04-16T11:38:03Z</time>
      </trkpt>
      <trkpt lat="28.226705558598" lon="-13.990104651147">
        <ele>0</ele>
        <time>2016-04-16T11:38:16Z</time>
      </trkpt>
      <trkpt lat="28.226584607781" lon="-13.990094425229">
        <ele>0</ele>
        <time>2016-04-16T11:38:25Z</time>
      </trkpt>
      <trkpt lat="28.226562982479" lon="-13.990093251763">
        <ele>0</ele>
        <time>2016-04-16T11:38:27Z</time>
      </trkpt>
      <trkpt lat="28.226458376367" lon="-13.990098448541">
        <ele>0</ele>
        <time>2016-04-16T11:38:36Z</time>
      </trkpt>
      <trkpt lat="28.226279758078" lon="-13.990118900377">
        <ele>0</ele>
        <time>2016-04-16T11:38:51Z</time>
      </trkpt>
      <trkpt lat="28.22613709814" lon="-13.990098364722">
        <ele>0</ele>
        <time>2016-04-16T11:39:01Z</time>
      </trkpt>
      <trkpt lat="28.226082951066" lon="-13.990091910659">
        <ele>0</ele>
        <time>2016-04-16T11:39:06Z</time>
      </trkpt>
      <trkpt lat="28.226062834506" lon="-13.990094006134">
        <ele>0</ele>
        <time>2016-04-16T11:39:09Z</time>
      </trkpt>
      <trkpt lat="28.226044226688" lon="-13.990090401917">
        <ele>0</ele>
        <time>2016-04-16T11:39:11Z</time>
      </trkpt>
      <trkpt lat="28.225857394137" lon="-13.990127366096">
        <ele>0</ele>
        <time>2016-04-16T11:39:28Z</time>
      </trkpt>
      <trkpt lat="28.225713896009" lon="-13.990257369365">
        <ele>0</ele>
        <time>2016-04-16T11:39:42Z</time>
      </trkpt>
      <trkpt lat="28.225564279094" lon="-13.990374883603">
        <ele>0</ele>
        <time>2016-04-16T11:39:57Z</time>
      </trkpt>
      <trkpt lat="28.225426396839" lon="-13.990511089478">
        <ele>0</ele>
        <time>2016-04-16T11:40:11Z</time>
      </trkpt>
      <trkpt lat="28.225294381914" lon="-13.990660287298">
        <ele>0</ele>
        <time>2016-04-16T11:40:27Z</time>
      </trkpt>
      <trkpt lat="28.225155158555" lon="-13.990770593102">
        <ele>0</ele>
        <time>2016-04-16T11:40:53Z</time>
      </trkpt>
      <trkpt lat="28.225135293452" lon="-13.990782998314">
        <ele>0</ele>
        <time>2016-04-16T11:40:55Z</time>
      </trkpt>
      <trkpt lat="28.224983161967" lon="-13.990895399593">
        <ele>0</ele>
        <time>2016-04-16T11:41:12Z</time>
      </trkpt>
      <trkpt lat="28.224916525862" lon="-13.990915683791">
        <ele>0</ele>
        <time>2016-04-16T11:41:19Z</time>
      </trkpt>
      <trkpt lat="28.224897331311" lon="-13.990911660479">
        <ele>0</ele>
        <time>2016-04-16T11:41:21Z</time>
      </trkpt>
      <trkpt lat="28.224710666398" lon="-13.990911409022">
        <ele>0</ele>
        <time>2016-04-16T11:41:36Z</time>
      </trkpt>
      <trkpt lat="28.224537999258" lon="-13.990966478105">
        <ele>0</ele>
        <time>2016-04-16T11:41:52Z</time>
      </trkpt>
      <trkpt lat="28.224401625745" lon="-13.99110268398">
        <ele>0</ele>
        <time>2016-04-16T11:42:07Z</time>
      </trkpt>
      <trkpt lat="28.224350412336" lon="-13.99113956434">
        <ele>0</ele>
        <time>2016-04-16T11:42:12Z</time>
      </trkpt>
      <trkpt lat="28.224196939747" lon="-13.991256994759">
        <ele>0</ele>
        <time>2016-04-16T11:42:28Z</time>
      </trkpt>
      <trkpt lat="28.224161065215" lon="-13.991286666685">
        <ele>0</ele>
        <time>2016-04-16T11:42:33Z</time>
      </trkpt>
      <trkpt lat="28.224128208167" lon="-13.991433852849">
        <ele>0</ele>
        <time>2016-04-16T11:42:50Z</time>
      </trkpt>
      <trkpt lat="28.224130303642" lon="-13.991525383197">
        <ele>0</ele>
        <time>2016-04-16T11:42:58Z</time>
      </trkpt>
      <trkpt lat="28.224179421576" lon="-13.991626217454">
        <ele>0</ele>
        <time>2016-04-16T11:43:07Z</time>
      </trkpt>
      <trkpt lat="28.224215547565" lon="-13.991809529607">
        <ele>0</ele>
        <time>2016-04-16T11:43:24Z</time>
      </trkpt>
      <trkpt lat="28.224212781538" lon="-13.991812211815">
        <ele>0</ele>
        <time>2016-04-16T11:43:25Z</time>
      </trkpt>
      <trkpt lat="28.224179002481" lon="-13.991862670853">
        <ele>0</ele>
        <time>2016-04-16T11:43:32Z</time>
      </trkpt>
      <trkpt lat="28.224163663604" lon="-13.9918721424">
        <ele>0</ele>
        <time>2016-04-16T11:43:34Z</time>
      </trkpt>
      <trkpt lat="28.22411706024" lon="-13.991974066304">
        <ele>0</ele>
        <time>2016-04-16T11:43:46Z</time>
      </trkpt>
      <trkpt lat="28.224098703879" lon="-13.992018406555">
        <ele>0</ele>
        <time>2016-04-16T11:43:50Z</time>
      </trkpt>
      <trkpt lat="28.224071127428" lon="-13.99205235325">
        <ele>0</ele>
        <time>2016-04-16T11:43:54Z</time>
      </trkpt>
      <trkpt lat="28.224043550977" lon="-13.992067105394">
        <ele>0</ele>
        <time>2016-04-16T11:43:57Z</time>
      </trkpt>
      <trkpt lat="28.224034582344" lon="-13.992070458154">
        <ele>0</ele>
        <time>2016-04-16T11:43:58Z</time>
      </trkpt>
      <trkpt lat="28.224015974526" lon="-13.99208504266">
        <ele>0</ele>
        <time>2016-04-16T11:44:00Z</time>
      </trkpt>
      <trkpt lat="28.223980183813" lon="-13.992122258296">
        <ele>0</ele>
        <time>2016-04-16T11:44:05Z</time>
      </trkpt>
      <trkpt lat="28.223959312882" lon="-13.992180680139">
        <ele>0</ele>
        <time>2016-04-16T11:44:11Z</time>
      </trkpt>
      <trkpt lat="28.223931317336" lon="-13.992232396462">
        <ele>0</ele>
        <time>2016-04-16T11:44:16Z</time>
      </trkpt>
      <trkpt lat="28.223884630153" lon="-13.992309509942">
        <ele>0</ele>
        <time>2016-04-16T11:44:24Z</time>
      </trkpt>
      <trkpt lat="28.22380106261" lon="-13.992383773576">
        <ele>0</ele>
        <time>2016-04-16T11:44:34Z</time>
      </trkpt>
      <trkpt lat="28.223703329656" lon="-13.992513860664">
        <ele>0</ele>
        <time>2016-04-16T11:44:47Z</time>
      </trkpt>
      <trkpt lat="28.223647338564" lon="-13.992617628586">
        <ele>0</ele>
        <time>2016-04-16T11:44:58Z</time>
      </trkpt>
      <trkpt lat="28.223646919469" lon="-13.992632799825">
        <ele>0</ele>
        <time>2016-04-16T11:44:59Z</time>
      </trkpt>
      <trkpt lat="28.223605093788" lon="-13.992730951874">
        <ele>0</ele>
        <time>2016-04-16T11:45:09Z</time>
      </trkpt>
      <trkpt lat="28.22356469303" lon="-13.992855003994">
        <ele>0</ele>
        <time>2016-04-16T11:45:22Z</time>
      </trkpt>
      <trkpt lat="28.223529740507" lon="-13.992938403899">
        <ele>0</ele>
        <time>2016-04-16T11:45:32Z</time>
      </trkpt>
      <trkpt lat="28.223523370263" lon="-13.992950473835">
        <ele>0</ele>
        <time>2016-04-16T11:45:33Z</time>
      </trkpt>
      <trkpt lat="28.223493865975" lon="-13.99299950795">
        <ele>0</ele>
        <time>2016-04-16T11:47:36Z</time>
      </trkpt>
      <trkpt lat="28.223460589832" lon="-13.993033454645">
        <ele>0</ele>
        <time>2016-04-16T11:47:41Z</time>
      </trkpt>
      <trkpt lat="28.223357241005" lon="-13.993162871181">
        <ele>0</ele>
        <time>2016-04-16T11:47:56Z</time>
      </trkpt>
      <trkpt lat="28.223269398693" lon="-13.993233111503">
        <ele>0</ele>
        <time>2016-04-16T11:48:07Z</time>
      </trkpt>
      <trkpt lat="28.223248360124" lon="-13.993294886106">
        <ele>0</ele>
        <time>2016-04-16T11:48:13Z</time>
      </trkpt>
      <trkpt lat="28.223235619636" lon="-13.993310727897">
        <ele>0</ele>
        <time>2016-04-16T11:48:16Z</time>
      </trkpt>
      <trkpt lat="28.223226231908" lon="-13.993326066774">
        <ele>0</ele>
        <time>2016-04-16T11:48:18Z</time>
      </trkpt>
      <trkpt lat="28.223199996561" lon="-13.993358169451">
        <ele>0</ele>
        <time>2016-04-16T11:48:22Z</time>
      </trkpt>
      <trkpt lat="28.223158589975" lon="-13.993397312924">
        <ele>0</ele>
        <time>2016-04-16T11:48:28Z</time>
      </trkpt>
      <trkpt lat="28.223101341598" lon="-13.993412065068">
        <ele>0</ele>
        <time>2016-04-16T11:48:35Z</time>
      </trkpt>
      <trkpt lat="28.223069238921" lon="-13.993444670659">
        <ele>0</ele>
        <time>2016-04-16T11:48:40Z</time>
      </trkpt>
      <trkpt lat="28.223055995519" lon="-13.993464535762">
        <ele>0</ele>
        <time>2016-04-16T11:48:43Z</time>
      </trkpt>
      <trkpt lat="28.223051972207" lon="-13.993477779164">
        <ele>0</ele>
        <time>2016-04-16T11:48:45Z</time>
      </trkpt>
      <trkpt lat="28.223024144299" lon="-13.993482221571">
        <ele>0</ele>
        <time>2016-04-16T11:48:50Z</time>
      </trkpt>
      <trkpt lat="28.222978043849" lon="-13.9935066129">
        <ele>0</ele>
        <time>2016-04-16T11:48:56Z</time>
      </trkpt>
      <trkpt lat="28.22295784347" lon="-13.993545924011">
        <ele>0</ele>
        <time>2016-04-16T11:49:01Z</time>
      </trkpt>
      <trkpt lat="28.222953233425" lon="-13.993553216264">
        <ele>0</ele>
        <time>2016-04-16T11:49:02Z</time>
      </trkpt>
      <trkpt lat="28.222927752449" lon="-13.993582972009">
        <ele>0</ele>
        <time>2016-04-16T11:49:07Z</time>
      </trkpt>
      <trkpt lat="28.222887100234" lon="-13.993579451611">
        <ele>0</ele>
        <time>2016-04-16T11:49:13Z</time>
      </trkpt>
      <trkpt lat="28.222842592345" lon="-13.993601663646">
        <ele>0</ele>
        <time>2016-04-16T11:49:19Z</time>
      </trkpt>
      <trkpt lat="28.22279942556" lon="-13.993644998069">
        <ele>0</ele>
        <time>2016-04-16T11:49:26Z</time>
      </trkpt>
      <trkpt lat="28.222791295117" lon="-13.993650446304">
        <ele>0</ele>
        <time>2016-04-16T11:49:27Z</time>
      </trkpt>
      <trkpt lat="28.222776626792" lon="-13.99365832529">
        <ele>0</ele>
        <time>2016-04-16T11:49:29Z</time>
      </trkpt>
      <trkpt lat="28.222771513833" lon="-13.993660588403">
        <ele>0</ele>
        <time>2016-04-16T11:49:30Z</time>
      </trkpt>
      <trkpt lat="28.222737483319" lon="-13.9936826328">
        <ele>0</ele>
        <time>2016-04-16T11:50:52Z</time>
      </trkpt>
      <trkpt lat="28.222673864698" lon="-13.993707359405">
        <ele>0</ele>
        <time>2016-04-16T11:51:03Z</time>
      </trkpt>
      <trkpt lat="28.222624411488" lon="-13.993728565612">
        <ele>0</ele>
        <time>2016-04-16T11:51:09Z</time>
      </trkpt>
      <trkpt lat="28.222570264414" lon="-13.993743569213">
        <ele>0</ele>
        <time>2016-04-16T11:51:15Z</time>
      </trkpt>
      <trkpt lat="28.222560792867" lon="-13.993752454027">
        <ele>0</ele>
        <time>2016-04-16T11:51:16Z</time>
      </trkpt>
      <trkpt lat="28.22254293942" lon="-13.993768463456">
        <ele>0</ele>
        <time>2016-04-16T11:51:18Z</time>
      </trkpt>
      <trkpt lat="28.22251779372" lon="-13.993786149265">
        <ele>0</ele>
        <time>2016-04-16T11:51:21Z</time>
      </trkpt>
      <trkpt lat="28.222450989977" lon="-13.993833842276">
        <ele>0</ele>
        <time>2016-04-16T11:51:29Z</time>
      </trkpt>
      <trkpt lat="28.22243648929" lon="-13.9938418889">
        <ele>0</ele>
        <time>2016-04-16T11:51:31Z</time>
      </trkpt>
      <trkpt lat="28.222403632242" lon="-13.993865274401">
        <ele>0</ele>
        <time>2016-04-16T11:51:37Z</time>
      </trkpt>
      <trkpt lat="28.222396591446" lon="-13.99388547478">
        <ele>0</ele>
        <time>2016-04-16T11:51:40Z</time>
      </trkpt>
      <trkpt lat="28.222343617838" lon="-13.993911207213">
        <ele>0</ele>
        <time>2016-04-16T11:51:47Z</time>
      </trkpt>
      <trkpt lat="28.222304390546" lon="-13.993929395936">
        <ele>0</ele>
        <time>2016-04-16T11:51:53Z</time>
      </trkpt>
      <trkpt lat="28.222253260956" lon="-13.993980525526">
        <ele>0</ele>
        <time>2016-04-16T11:52:02Z</time>
      </trkpt>
      <trkpt lat="28.222221661193" lon="-13.994003575751">
        <ele>0</ele>
        <time>2016-04-16T11:52:07Z</time>
      </trkpt>
      <trkpt lat="28.222199113882" lon="-13.994037270989">
        <ele>0</ele>
        <time>2016-04-16T11:52:12Z</time>
      </trkpt>
      <trkpt lat="28.222195425846" lon="-13.994078090842">
        <ele>0</ele>
        <time>2016-04-16T11:52:17Z</time>
      </trkpt>
      <trkpt lat="28.222193330371" lon="-13.994106840759">
        <ele>0</ele>
        <time>2016-04-16T11:52:22Z</time>
      </trkpt>
      <trkpt lat="28.222196096398" lon="-13.994147492974">
        <ele>0</ele>
        <time>2016-04-16T11:52:28Z</time>
      </trkpt>
      <trkpt lat="28.22214899012" lon="-13.994163083308">
        <ele>0</ele>
        <time>2016-04-16T11:52:37Z</time>
      </trkpt>
      <trkpt lat="28.222071792821" lon="-13.994179176556">
        <ele>0</ele>
        <time>2016-04-16T11:52:45Z</time>
      </trkpt>
      <trkpt lat="28.222056202487" lon="-13.994192000863">
        <ele>0</ele>
        <time>2016-04-16T11:52:47Z</time>
      </trkpt>
      <trkpt lat="28.22205092189" lon="-13.994224271178">
        <ele>0</ele>
        <time>2016-04-16T11:52:52Z</time>
      </trkpt>
      <trkpt lat="28.222054777564" lon="-13.994246064118">
        <ele>0</ele>
        <time>2016-04-16T11:52:56Z</time>
      </trkpt>
      <trkpt lat="28.222000462852" lon="-13.994317561725">
        <ele>0</ele>
        <time>2016-04-16T11:53:12Z</time>
      </trkpt>
      <trkpt lat="28.221991913314" lon="-13.994350334954">
        <ele>0</ele>
        <time>2016-04-16T11:53:18Z</time>
      </trkpt>
      <trkpt lat="28.221975400971" lon="-13.99438335964">
        <ele>0</ele>
        <time>2016-04-16T11:53:25Z</time>
      </trkpt>
      <trkpt lat="28.221925277209" lon="-13.994436836162">
        <ele>0</ele>
        <time>2016-04-16T11:53:52Z</time>
      </trkpt>
      <trkpt lat="28.221924103743" lon="-13.994470866676">
        <ele>0</ele>
        <time>2016-04-16T11:53:58Z</time>
      </trkpt>
      <trkpt lat="28.221922008268" lon="-13.99449735348">
        <ele>0</ele>
        <time>2016-04-16T11:54:03Z</time>
      </trkpt>
      <trkpt lat="28.221890576143" lon="-13.994527863596">
        <ele>0</ele>
        <time>2016-04-16T11:54:09Z</time>
      </trkpt>
      <trkpt lat="28.221881439872" lon="-13.99456859963">
        <ele>0</ele>
        <time>2016-04-16T11:54:15Z</time>
      </trkpt>
      <trkpt lat="28.221846571168" lon="-13.99459123076">
        <ele>0</ele>
        <time>2016-04-16T11:54:21Z</time>
      </trkpt>
      <trkpt lat="28.221811953921" lon="-13.994600534669">
        <ele>0</ele>
        <time>2016-04-16T11:54:41Z</time>
      </trkpt>
      <trkpt lat="28.221723021962" lon="-13.994661806358">
        <ele>0</ele>
        <time>2016-04-16T11:55:04Z</time>
      </trkpt>
      <trkpt lat="28.22170055847" lon="-13.994664404747">
        <ele>0</ele>
        <time>2016-04-16T11:55:06Z</time>
      </trkpt>
      <trkpt lat="28.221682537385" lon="-13.994671194086">
        <ele>0</ele>
        <time>2016-04-16T11:55:08Z</time>
      </trkpt>
      <trkpt lat="28.221668623431" lon="-13.994713774138">
        <ele>0</ele>
        <time>2016-04-16T11:55:13Z</time>
      </trkpt>
      <trkpt lat="28.221656553495" lon="-13.994749816308">
        <ele>0</ele>
        <time>2016-04-16T11:55:17Z</time>
      </trkpt>
      <trkpt lat="28.221651440536" lon="-13.994768340307">
        <ele>0</ele>
        <time>2016-04-16T11:55:19Z</time>
      </trkpt>
      <trkpt lat="28.221614141081" lon="-13.99480077826">
        <ele>0</ele>
        <time>2016-04-16T11:55:25Z</time>
      </trkpt>
      <trkpt lat="28.221587570458" lon="-13.994820224268">
        <ele>0</ele>
        <time>2016-04-16T11:55:30Z</time>
      </trkpt>
      <trkpt lat="28.221583379508" lon="-13.994834641136">
        <ele>0</ele>
        <time>2016-04-16T11:55:35Z</time>
      </trkpt>
      <trkpt lat="28.221597377281" lon="-13.994848219814">
        <ele>0</ele>
        <time>2016-04-16T11:55:38Z</time>
      </trkpt>
      <trkpt lat="28.221604585715" lon="-13.994873784609">
        <ele>0</ele>
        <time>2016-04-16T11:55:42Z</time>
      </trkpt>
      <trkpt lat="28.221633000356" lon="-13.994943941112">
        <ele>0</ele>
        <time>2016-04-16T11:55:54Z</time>
      </trkpt>
      <trkpt lat="28.22162344499" lon="-13.995010996312">
        <ele>0</ele>
        <time>2016-04-16T11:56:02Z</time>
      </trkpt>
      <trkpt lat="28.221600730041" lon="-13.995056007115">
        <ele>0</ele>
        <time>2016-04-16T11:56:08Z</time>
      </trkpt>
      <trkpt lat="28.221574913789" lon="-13.99512599598">
        <ele>0</ele>
        <time>2016-04-16T11:56:22Z</time>
      </trkpt>
      <trkpt lat="28.221631910709" lon="-13.995376028057">
        <ele>0</ele>
        <time>2016-04-16T11:57:08Z</time>
      </trkpt>
      <trkpt lat="28.221669210164" lon="-13.995422547602">
        <ele>0</ele>
        <time>2016-04-16T11:57:21Z</time>
      </trkpt>
      <trkpt lat="28.221749089671" lon="-13.995415422987">
        <ele>0</ele>
        <time>2016-04-16T11:57:26Z</time>
      </trkpt>
      <trkpt lat="28.22175420263" lon="-13.995421793231">
        <ele>0</ele>
        <time>2016-04-16T11:57:27Z</time>
      </trkpt>
      <trkpt lat="28.221753196802" lon="-13.995425816543">
        <ele>0</ele>
        <time>2016-04-16T11:57:28Z</time>
      </trkpt>
      <trkpt lat="28.221696702796" lon="-13.99560963161">
        <ele>7.8</ele>
        <time>2016-04-16T11:59:23Z</time>
      </trkpt>
      <trkpt lat="28.221687734163" lon="-13.99561298437">
        <ele>8</ele>
        <time>2016-04-16T11:59:24Z</time>
      </trkpt>
      <trkpt lat="28.221614141081" lon="-13.995739048146">
        <ele>12.2</ele>
        <time>2016-04-16T11:59:54Z</time>
      </trkpt>
      <trkpt lat="28.221629899053" lon="-13.99578816608">
        <ele>13.2</ele>
        <time>2016-04-16T12:00:02Z</time>
      </trkpt>
      <trkpt lat="28.221633167994" lon="-13.995809288468">
        <ele>14.4</ele>
        <time>2016-04-16T12:00:08Z</time>
      </trkpt>
      <trkpt lat="28.221645740844" lon="-13.995852874348">
        <ele>15.4</ele>
        <time>2016-04-16T12:00:14Z</time>
      </trkpt>
      <trkpt lat="28.221651189079" lon="-13.995894448572">
        <ele>16.6</ele>
        <time>2016-04-16T12:00:20Z</time>
      </trkpt>
      <trkpt lat="28.221664600119" lon="-13.995945997257">
        <ele>17.4</ele>
        <time>2016-04-16T12:00:25Z</time>
      </trkpt>
      <trkpt lat="28.221665605947" lon="-13.995954295338">
        <ele>17.6</ele>
        <time>2016-04-16T12:00:26Z</time>
      </trkpt>
      <trkpt lat="28.221667366146" lon="-13.995982877617">
        <ele>18</ele>
        <time>2016-04-16T12:00:29Z</time>
      </trkpt>
      <trkpt lat="28.221668120517" lon="-13.996013387733">
        <ele>18.6</ele>
        <time>2016-04-16T12:00:33Z</time>
      </trkpt>
      <trkpt lat="28.221644902654" lon="-13.996051860654">
        <ele>19.4</ele>
        <time>2016-04-16T12:00:39Z</time>
      </trkpt>
      <trkpt lat="28.221646411396" lon="-13.99606560697">
        <ele>19.8</ele>
        <time>2016-04-16T12:00:41Z</time>
      </trkpt>
      <trkpt lat="28.221545074225" lon="-13.996196699886">
        <ele>19.6</ele>
        <time>2016-04-16T12:01:04Z</time>
      </trkpt>
      <trkpt lat="28.221535015945" lon="-13.996199885008">
        <ele>19.6</ele>
        <time>2016-04-16T12:01:05Z</time>
      </trkpt>
      <trkpt lat="28.221517162498" lon="-13.99621229022">
        <ele>19.6</ele>
        <time>2016-04-16T12:01:07Z</time>
      </trkpt>
      <trkpt lat="28.221585558802" lon="-13.996183456484">
        <ele>19.6</ele>
        <time>2016-04-16T12:02:02Z</time>
      </trkpt>
      <trkpt lat="28.221614811633" lon="-13.996168788159">
        <ele>19.6</ele>
        <time>2016-04-16T12:02:05Z</time>
      </trkpt>
      <trkpt lat="28.221640292609" lon="-13.996167111779">
        <ele>19.8</ele>
        <time>2016-04-16T12:02:07Z</time>
      </trkpt>
      <trkpt lat="28.221529400072" lon="-13.996043311116">
        <ele>20.4</ele>
        <time>2016-04-16T12:02:55Z</time>
      </trkpt>
      <trkpt lat="28.221507858589" lon="-13.996017494864">
        <ele>20.8</ele>
        <time>2016-04-16T12:02:58Z</time>
      </trkpt>
      <trkpt lat="28.22148933459" lon="-13.996002994177">
        <ele>21.2</ele>
        <time>2016-04-16T12:03:00Z</time>
      </trkpt>
      <trkpt lat="28.221463183062" lon="-13.996014980294">
        <ele>21.8</ele>
        <time>2016-04-16T12:03:04Z</time>
      </trkpt>
      <trkpt lat="28.221461339044" lon="-13.996009783516">
        <ele>21.8</ele>
        <time>2016-04-16T12:03:06Z</time>
      </trkpt>
      <trkpt lat="28.221592096684" lon="-13.996068540635">
        <ele>20.8</ele>
        <time>2016-04-16T12:04:16Z</time>
      </trkpt>
      <trkpt lat="28.22163685603" lon="-13.996130734333">
        <ele>19.8</ele>
        <time>2016-04-16T12:04:24Z</time>
      </trkpt>
      <trkpt lat="28.221643813007" lon="-13.996154036015">
        <ele>19.6</ele>
        <time>2016-04-16T12:04:27Z</time>
      </trkpt>
      <trkpt lat="28.221682621204" lon="-13.996127046297">
        <ele>20</ele>
        <time>2016-04-16T12:05:19Z</time>
      </trkpt>
      <trkpt lat="28.221843637503" lon="-13.996147498133">
        <ele>20.4</ele>
        <time>2016-04-16T12:06:02Z</time>
      </trkpt>
      <trkpt lat="28.221889737953" lon="-13.996159148974">
        <ele>20.8</ele>
        <time>2016-04-16T12:06:07Z</time>
      </trkpt>
      <trkpt lat="28.222073133925" lon="-13.996186222511">
        <ele>21.6</ele>
        <time>2016-04-16T12:06:26Z</time>
      </trkpt>
      <trkpt lat="28.222158964581" lon="-13.996210194745">
        <ele>21.4</ele>
        <time>2016-04-16T12:06:36Z</time>
      </trkpt>
      <trkpt lat="28.222171537431" lon="-13.996217151722">
        <ele>21.2</ele>
        <time>2016-04-16T12:06:38Z</time>
      </trkpt>
      <trkpt lat="28.222288213479" lon="-13.996265180009">
        <ele>20.6</ele>
        <time>2016-04-16T12:06:55Z</time>
      </trkpt>
      <trkpt lat="28.222375552877" lon="-13.996294181383">
        <ele>20.6</ele>
        <time>2016-04-16T12:07:05Z</time>
      </trkpt>
      <trkpt lat="28.222462054085" lon="-13.996299713437">
        <ele>22</ele>
        <time>2016-04-16T12:07:14Z</time>
      </trkpt>
      <trkpt lat="28.222511423476" lon="-13.996340700928">
        <ele>23</ele>
        <time>2016-04-16T12:07:21Z</time>
      </trkpt>
      <trkpt lat="28.22258820168" lon="-13.996384454446">
        <ele>24.2</ele>
        <time>2016-04-16T12:07:30Z</time>
      </trkpt>
      <trkpt lat="28.222634888863" lon="-13.996409348689">
        <ele>25.2</ele>
        <time>2016-04-16T12:07:35Z</time>
      </trkpt>
      <trkpt lat="28.222684844987" lon="-13.996433907656">
        <ele>26.2</ele>
        <time>2016-04-16T12:07:40Z</time>
      </trkpt>
      <trkpt lat="28.222742344821" lon="-13.996472296758">
        <ele>27.2</ele>
        <time>2016-04-16T12:07:47Z</time>
      </trkpt>
      <trkpt lat="28.222796743352" lon="-13.99649811301">
        <ele>28.2</ele>
        <time>2016-04-16T12:07:54Z</time>
      </trkpt>
      <trkpt lat="28.222804789976" lon="-13.996503477426">
        <ele>28.4</ele>
        <time>2016-04-16T12:07:55Z</time>
      </trkpt>
      <trkpt lat="28.222820045034" lon="-13.996540776881">
        <ele>29.4</ele>
        <time>2016-04-16T12:08:00Z</time>
      </trkpt>
      <trkpt lat="28.22282457126" lon="-13.996607664443">
        <ele>30.4</ele>
        <time>2016-04-16T12:08:07Z</time>
      </trkpt>
      <trkpt lat="28.222825074174" lon="-13.996616549257">
        <ele>30.8</ele>
        <time>2016-04-16T12:08:08Z</time>
      </trkpt>
      <trkpt lat="28.222845023096" lon="-13.996663655535">
        <ele>32</ele>
        <time>2016-04-16T12:08:13Z</time>
      </trkpt>
      <trkpt lat="28.222853153539" lon="-13.996671283064">
        <ele>32.4</ele>
        <time>2016-04-16T12:08:16Z</time>
      </trkpt>
      <trkpt lat="28.222854913738" lon="-13.996686202846">
        <ele>33</ele>
        <time>2016-04-16T12:08:19Z</time>
      </trkpt>
      <trkpt lat="28.22291593397" lon="-13.996812769536">
        <ele>34.8</ele>
        <time>2016-04-16T12:08:39Z</time>
      </trkpt>
      <trkpt lat="28.222919622006" lon="-13.996834730114">
        <ele>35</ele>
        <time>2016-04-16T12:08:42Z</time>
      </trkpt>
      <trkpt lat="28.222974355813" lon="-13.996937408389">
        <ele>36</ele>
        <time>2016-04-16T12:08:56Z</time>
      </trkpt>
      <trkpt lat="28.222995310563" lon="-13.997067746934">
        <ele>37.2</ele>
        <time>2016-04-16T12:09:11Z</time>
      </trkpt>
      <trkpt lat="28.223007883413" lon="-13.997094233738">
        <ele>37.4</ele>
        <time>2016-04-16T12:09:13Z</time>
      </trkpt>
      <trkpt lat="28.223053983863" lon="-13.997164390241">
        <ele>38.2</ele>
        <time>2016-04-16T12:09:20Z</time>
      </trkpt>
      <trkpt lat="28.223054905872" lon="-13.997172520684">
        <ele>38.2</ele>
        <time>2016-04-16T12:09:21Z</time>
      </trkpt>
      <trkpt lat="28.223078375192" lon="-13.9972197946">
        <ele>38.8</ele>
        <time>2016-04-16T12:09:26Z</time>
      </trkpt>
      <trkpt lat="28.223102263607" lon="-13.99724829306">
        <ele>38.8</ele>
        <time>2016-04-16T12:09:33Z</time>
      </trkpt>
      <trkpt lat="28.22329563404" lon="-13.997435544706">
        <ele>34.8</ele>
        <time>2016-04-16T12:10:22Z</time>
      </trkpt>
      <trkpt lat="28.2233408963" lon="-13.99751064653">
        <ele>36</ele>
        <time>2016-04-16T12:10:32Z</time>
      </trkpt>
      <trkpt lat="28.223344584336" lon="-13.997515508032">
        <ele>36.2</ele>
        <time>2016-04-16T12:10:33Z</time>
      </trkpt>
      <trkpt lat="28.22337190933" lon="-13.997543168302">
        <ele>37.2</ele>
        <time>2016-04-16T12:10:39Z</time>
      </trkpt>
      <trkpt lat="28.22337526209" lon="-13.997578204644">
        <ele>38.4</ele>
        <time>2016-04-16T12:10:45Z</time>
      </trkpt>
      <trkpt lat="28.223375597366" lon="-13.997607206018">
        <ele>39.6</ele>
        <time>2016-04-16T12:10:50Z</time>
      </trkpt>
      <trkpt lat="28.223394372822" lon="-13.997642829093">
        <ele>40.6</ele>
        <time>2016-04-16T12:10:55Z</time>
      </trkpt>
      <trkpt lat="28.223401581256" lon="-13.997665124947">
        <ele>41.6</ele>
        <time>2016-04-16T12:11:00Z</time>
      </trkpt>
      <trkpt lat="28.223440557091" lon="-13.99769085738">
        <ele>42.8</ele>
        <time>2016-04-16T12:11:05Z</time>
      </trkpt>
      <trkpt lat="28.223482634229" lon="-13.997712985596">
        <ele>43.8</ele>
        <time>2016-04-16T12:11:10Z</time>
      </trkpt>
      <trkpt lat="28.223500571495" lon="-13.997729917034">
        <ele>44.6</ele>
        <time>2016-04-16T12:11:14Z</time>
      </trkpt>
      <trkpt lat="28.2235755895" lon="-13.99777216181">
        <ele>45.8</ele>
        <time>2016-04-16T12:11:32Z</time>
      </trkpt>
      <trkpt lat="28.223579948088" lon="-13.99777635276">
        <ele>46</ele>
        <time>2016-04-16T12:11:33Z</time>
      </trkpt>
      <trkpt lat="28.223605093788" lon="-13.997810886188">
        <ele>47</ele>
        <time>2016-04-16T12:11:39Z</time>
      </trkpt>
      <trkpt lat="28.223652619161" lon="-13.997852208955">
        <ele>48</ele>
        <time>2016-04-16T12:11:48Z</time>
      </trkpt>
      <trkpt lat="28.223735180876" lon="-13.997863189244">
        <ele>49.2</ele>
        <time>2016-04-16T12:12:00Z</time>
      </trkpt>
      <trkpt lat="28.223714812859" lon="-13.997963520587">
        <ele>51.6</ele>
        <time>2016-04-16T12:12:19Z</time>
      </trkpt>
      <trkpt lat="28.223678603051" lon="-13.998018338213">
        <ele>52.8</ele>
        <time>2016-04-16T12:12:27Z</time>
      </trkpt>
      <trkpt lat="28.223741132025" lon="-13.998250684481">
        <ele>51.6</ele>
        <time>2016-04-16T12:12:56Z</time>
      </trkpt>
      <trkpt lat="28.223805505017" lon="-13.998307932858">
        <ele>50.6</ele>
        <time>2016-04-16T12:13:04Z</time>
      </trkpt>
      <trkpt lat="28.223860155005" lon="-13.998369372185">
        <ele>49.4</ele>
        <time>2016-04-16T12:13:12Z</time>
      </trkpt>
      <trkpt lat="28.223877505538" lon="-13.998415807911">
        <ele>48.2</ele>
        <time>2016-04-16T12:13:18Z</time>
      </trkpt>
      <trkpt lat="28.223912122785" lon="-13.998431146788">
        <ele>47.4</ele>
        <time>2016-04-16T12:13:23Z</time>
      </trkpt>
      <trkpt lat="28.223931317336" lon="-13.998431984978">
        <ele>47.2</ele>
        <time>2016-04-16T12:13:25Z</time>
      </trkpt>
      <trkpt lat="28.223944225462" lon="-13.998455370479">
        <ele>46.2</ele>
        <time>2016-04-16T12:13:30Z</time>
      </trkpt>
      <trkpt lat="28.223986805514" lon="-13.998512954132">
        <ele>45</ele>
        <time>2016-04-16T12:13:39Z</time>
      </trkpt>
      <trkpt lat="28.223965599307" lon="-13.998572381803">
        <ele>43.8</ele>
        <time>2016-04-16T12:13:46Z</time>
      </trkpt>
      <trkpt lat="28.223921845789" lon="-13.998641448659">
        <ele>42.6</ele>
        <time>2016-04-16T12:13:54Z</time>
      </trkpt>
      <trkpt lat="28.223898460288" lon="-13.998712527171">
        <ele>41.8</ele>
        <time>2016-04-16T12:14:01Z</time>
      </trkpt>
      <trkpt lat="28.223894604614" lon="-13.998719987062">
        <ele>41.6</ele>
        <time>2016-04-16T12:14:02Z</time>
      </trkpt>
      <trkpt lat="28.223874907149" lon="-13.998773044489">
        <ele>40.4</ele>
        <time>2016-04-16T12:14:08Z</time>
      </trkpt>
      <trkpt lat="28.223870129466" lon="-13.998781426389">
        <ele>40</ele>
        <time>2016-04-16T12:14:09Z</time>
      </trkpt>
      <trkpt lat="28.223865435602" lon="-13.998799698931">
        <ele>39.2</ele>
        <time>2016-04-16T12:14:11Z</time>
      </trkpt>
      <trkpt lat="28.223867698715" lon="-13.99886683795">
        <ele>38.2</ele>
        <time>2016-04-16T12:14:19Z</time>
      </trkpt>
      <trkpt lat="28.223925030911" lon="-13.998991979717">
        <ele>35</ele>
        <time>2016-04-16T12:15:01Z</time>
      </trkpt>
      <trkpt lat="28.223945482747" lon="-13.999056855623">
        <ele>30.6</ele>
        <time>2016-04-16T12:15:21Z</time>
      </trkpt>
      <trkpt lat="28.223980602908" lon="-13.999085437902">
        <ele>29.4</ele>
        <time>2016-04-16T12:15:27Z</time>
      </trkpt>
      <trkpt lat="28.223983620392" lon="-13.999123743185">
        <ele>28.4</ele>
        <time>2016-04-16T12:15:32Z</time>
      </trkpt>
      <trkpt lat="28.223983452754" lon="-13.999164060124">
        <ele>27.4</ele>
        <time>2016-04-16T12:15:38Z</time>
      </trkpt>
      <trkpt lat="28.223968281515" lon="-13.99929766761">
        <ele>25</ele>
        <time>2016-04-16T12:15:56Z</time>
      </trkpt>
      <trkpt lat="28.223999043088" lon="-13.999505035816">
        <ele>25</ele>
        <time>2016-04-16T12:16:14Z</time>
      </trkpt>
      <trkpt lat="28.224020249295" lon="-13.999567313333">
        <ele>25.2</ele>
        <time>2016-04-16T12:16:19Z</time>
      </trkpt>
      <trkpt lat="28.224062410252" lon="-13.999661525889">
        <ele>26</ele>
        <time>2016-04-16T12:16:30Z</time>
      </trkpt>
      <trkpt lat="28.2240785035" lon="-13.999712655479">
        <ele>25.8</ele>
        <time>2016-04-16T12:16:38Z</time>
      </trkpt>
      <trkpt lat="28.224117395516" lon="-13.999806616578">
        <ele>26.2</ele>
        <time>2016-04-16T12:16:45Z</time>
      </trkpt>
      <trkpt lat="28.224139775189" lon="-13.999835366495">
        <ele>26.4</ele>
        <time>2016-04-16T12:16:48Z</time>
      </trkpt>
      <trkpt lat="28.224158802102" lon="-13.999845173318">
        <ele>26.6</ele>
        <time>2016-04-16T12:16:50Z</time>
      </trkpt>
      <trkpt lat="28.224225605845" lon="-14.000001244296">
        <ele>25.6</ele>
        <time>2016-04-16T12:17:06Z</time>
      </trkpt>
      <trkpt lat="28.224237843419" lon="-14.00005203861">
        <ele>25.6</ele>
        <time>2016-04-16T12:17:11Z</time>
      </trkpt>
      <trkpt lat="28.224172296961" lon="-14.000154800704">
        <ele>25</ele>
        <time>2016-04-16T12:17:22Z</time>
      </trkpt>
      <trkpt lat="28.224163663604" lon="-14.000162176776">
        <ele>25</ele>
        <time>2016-04-16T12:17:23Z</time>
      </trkpt>
      <trkpt lat="28.224106415227" lon="-14.000201068792">
        <ele>24</ele>
        <time>2016-04-16T12:17:30Z</time>
      </trkpt>
      <trkpt lat="28.224092249816" lon="-14.000220430981">
        <ele>24</ele>
        <time>2016-04-16T12:17:32Z</time>
      </trkpt>
      <trkpt lat="28.224097446594" lon="-14.00034205235">
        <ele>25</ele>
        <time>2016-04-16T12:17:44Z</time>
      </trkpt>
      <trkpt lat="28.224101637544" lon="-14.000413382319">
        <ele>26</ele>
        <time>2016-04-16T12:17:52Z</time>
      </trkpt>
      <trkpt lat="28.224098536241" lon="-14.000626282579">
        <ele>27.2</ele>
        <time>2016-04-16T12:18:18Z</time>
      </trkpt>
      <trkpt lat="28.224031229584" lon="-14.00071839966">
        <ele>27.4</ele>
        <time>2016-04-16T12:18:30Z</time>
      </trkpt>
      <trkpt lat="28.224024943159" lon="-14.000746227568">
        <ele>28.4</ele>
        <time>2016-04-16T12:18:33Z</time>
      </trkpt>
      <trkpt lat="28.224009604282" lon="-14.000764583929">
        <ele>29</ele>
        <time>2016-04-16T12:18:36Z</time>
      </trkpt>
      <trkpt lat="28.223986637876" lon="-14.000789478172">
        <ele>29.4</ele>
        <time>2016-04-16T12:18:39Z</time>
      </trkpt>
      <trkpt lat="28.223978172157" lon="-14.000799033538">
        <ele>29.6</ele>
        <time>2016-04-16T12:18:40Z</time>
      </trkpt>
      <trkpt lat="28.223921342875" lon="-14.00092710897">
        <ele>30.6</ele>
        <time>2016-04-16T12:18:52Z</time>
      </trkpt>
      <trkpt lat="28.223943219634" lon="-14.001041773362">
        <ele>31.6</ele>
        <time>2016-04-16T12:19:09Z</time>
      </trkpt>
      <trkpt lat="28.223956463036" lon="-14.001091226572">
        <ele>32.6</ele>
        <time>2016-04-16T12:19:15Z</time>
      </trkpt>
      <trkpt lat="28.223949254602" lon="-14.001109582933">
        <ele>33.6</ele>
        <time>2016-04-16T12:19:21Z</time>
      </trkpt>
      <trkpt lat="28.223931987888" lon="-14.001147050026">
        <ele>34.6</ele>
        <time>2016-04-16T12:19:27Z</time>
      </trkpt>
      <trkpt lat="28.223918157753" lon="-14.001229360284">
        <ele>35.8</ele>
        <time>2016-04-16T12:19:38Z</time>
      </trkpt>
      <trkpt lat="28.223928970404" lon="-14.001322231736">
        <ele>39.2</ele>
        <time>2016-04-16T12:20:05Z</time>
      </trkpt>
      <trkpt lat="28.223858478625" lon="-14.001518787291">
        <ele>44.4</ele>
        <time>2016-04-16T12:21:19Z</time>
      </trkpt>
      <trkpt lat="28.223766026268" lon="-14.001653149148">
        <ele>43.6</ele>
        <time>2016-04-16T12:21:40Z</time>
      </trkpt>
      <trkpt lat="28.22373400741" lon="-14.001679384495">
        <ele>42.4</ele>
        <time>2016-04-16T12:21:45Z</time>
      </trkpt>
      <trkpt lat="28.223682207268" lon="-14.001698411408">
        <ele>41.2</ele>
        <time>2016-04-16T12:21:50Z</time>
      </trkpt>
      <trkpt lat="28.223542397176" lon="-14.001795557629">
        <ele>40.2</ele>
        <time>2016-04-16T12:22:05Z</time>
      </trkpt>
      <trkpt lat="28.223527561213" lon="-14.001812405248">
        <ele>39.2</ele>
        <time>2016-04-16T12:22:09Z</time>
      </trkpt>
      <trkpt lat="28.223400994523" lon="-14.00191784955">
        <ele>39.2</ele>
        <time>2016-04-16T12:22:24Z</time>
      </trkpt>
      <trkpt lat="28.223282474457" lon="-14.002085822826">
        <ele>38.4</ele>
        <time>2016-04-16T12:22:41Z</time>
      </trkpt>
      <trkpt lat="28.223147944962" lon="-14.002232506076">
        <ele>38.4</ele>
        <time>2016-04-16T12:22:58Z</time>
      </trkpt>
      <trkpt lat="28.223088936386" lon="-14.002353959807">
        <ele>38</ele>
        <time>2016-04-16T12:23:09Z</time>
      </trkpt>
      <trkpt lat="28.223002602816" lon="-14.002524531472">
        <ele>38</ele>
        <time>2016-04-16T12:23:25Z</time>
      </trkpt>
      <trkpt lat="28.222997825133" lon="-14.002592760138">
        <ele>38</ele>
        <time>2016-04-16T12:23:30Z</time>
      </trkpt>
      <trkpt lat="28.222990365242" lon="-14.002647577764">
        <ele>38.2</ele>
        <time>2016-04-16T12:23:38Z</time>
      </trkpt>
      <trkpt lat="28.22298298917" lon="-14.002729133651">
        <ele>38</ele>
        <time>2016-04-16T12:23:47Z</time>
      </trkpt>
      <trkpt lat="28.222935463797" lon="-14.002923845188">
        <ele>37.8</ele>
        <time>2016-04-16T12:24:03Z</time>
      </trkpt>
      <trkpt lat="28.222847453847" lon="-14.003108414626">
        <ele>37.4</ele>
        <time>2016-04-16T12:24:22Z</time>
      </trkpt>
      <trkpt lat="28.22284049687" lon="-14.003118556725">
        <ele>37.4</ele>
        <time>2016-04-16T12:24:23Z</time>
      </trkpt>
      <trkpt lat="28.222815770265" lon="-14.003134230878">
        <ele>37</ele>
        <time>2016-04-16T12:24:26Z</time>
      </trkpt>
      <trkpt lat="28.222796324257" lon="-14.003147893375">
        <ele>36.8</ele>
        <time>2016-04-16T12:24:29Z</time>
      </trkpt>
      <trkpt lat="28.222723485546" lon="-14.003194999653">
        <ele>36</ele>
        <time>2016-04-16T12:24:42Z</time>
      </trkpt>
      <trkpt lat="28.222704039538" lon="-14.003202208087">
        <ele>35.4</ele>
        <time>2016-04-16T12:24:44Z</time>
      </trkpt>
      <trkpt lat="28.222669673748" lon="-14.00319944206">
        <ele>35</ele>
        <time>2016-04-16T12:24:47Z</time>
      </trkpt>
      <trkpt lat="28.222519721557" lon="-14.003246548338">
        <ele>34.8</ele>
        <time>2016-04-16T12:25:02Z</time>
      </trkpt>
      <trkpt lat="28.222491977468" lon="-14.003261049025">
        <ele>34.6</ele>
        <time>2016-04-16T12:25:05Z</time>
      </trkpt>
      <trkpt lat="28.222448643045" lon="-14.003274124789">
        <ele>34</ele>
        <time>2016-04-16T12:25:09Z</time>
      </trkpt>
      <trkpt lat="28.222425425182" lon="-14.00329331934">
        <ele>33.8</ele>
        <time>2016-04-16T12:25:12Z</time>
      </trkpt>
      <trkpt lat="28.222303887632" lon="-14.003451401974">
        <ele>33.2</ele>
        <time>2016-04-16T12:25:30Z</time>
      </trkpt>
      <trkpt lat="28.22228812966" lon="-14.003459448598">
        <ele>33.2</ele>
        <time>2016-04-16T12:25:32Z</time>
      </trkpt>
      <trkpt lat="28.222266839634" lon="-14.003470093611">
        <ele>33</ele>
        <time>2016-04-16T12:25:34Z</time>
      </trkpt>
      <trkpt lat="28.22226214577" lon="-14.003478056416">
        <ele>32.6</ele>
        <time>2016-04-16T12:25:35Z</time>
      </trkpt>
      <trkpt lat="28.222213698388" lon="-14.003521223201">
        <ele>32</ele>
        <time>2016-04-16T12:25:42Z</time>
      </trkpt>
      <trkpt lat="28.222209423619" lon="-14.003532622585">
        <ele>32</ele>
        <time>2016-04-16T12:25:44Z</time>
      </trkpt>
      <trkpt lat="28.222088724259" lon="-14.003590625333">
        <ele>28.4</ele>
        <time>2016-04-16T12:26:18Z</time>
      </trkpt>
      <trkpt lat="28.222062321274" lon="-14.003577968664">
        <ele>28</ele>
        <time>2016-04-16T12:26:21Z</time>
      </trkpt>
      <trkpt lat="28.222065422577" lon="-14.003591631161">
        <ele>27.8</ele>
        <time>2016-04-16T12:26:25Z</time>
      </trkpt>
      <trkpt lat="28.222069445889" lon="-14.00359674412">
        <ele>27.8</ele>
        <time>2016-04-16T12:26:26Z</time>
      </trkpt>
      <trkpt lat="28.222085203861" lon="-14.00361350792">
        <ele>27.4</ele>
        <time>2016-04-16T12:26:29Z</time>
      </trkpt>
      <trkpt lat="28.222097189978" lon="-14.003619123793">
        <ele>27.2</ele>
        <time>2016-04-16T12:26:31Z</time>
      </trkpt>
      <trkpt lat="28.222107667353" lon="-14.003639240353">
        <ele>26.4</ele>
        <time>2016-04-16T12:26:35Z</time>
      </trkpt>
      <trkpt lat="28.221995014617" lon="-14.003694225617">
        <ele>22</ele>
        <time>2016-04-16T12:27:46Z</time>
      </trkpt>
      <trkpt lat="28.221948243615" lon="-14.003709648313">
        <ele>20.8</ele>
        <time>2016-04-16T12:27:55Z</time>
      </trkpt>
      <trkpt lat="28.221858305828" lon="-14.003702020784">
        <ele>17.6</ele>
        <time>2016-04-16T12:28:18Z</time>
      </trkpt>
      <trkpt lat="28.221830813196" lon="-14.003709983589">
        <ele>17</ele>
        <time>2016-04-16T12:28:21Z</time>
      </trkpt>
      <trkpt lat="28.221804577849" lon="-14.003706044096">
        <ele>16.4</ele>
        <time>2016-04-16T12:28:24Z</time>
      </trkpt>
      <trkpt lat="28.221766943118" lon="-14.003711827607">
        <ele>15.6</ele>
        <time>2016-04-16T12:28:28Z</time>
      </trkpt>
      <trkpt lat="28.221757136295" lon="-14.003712665797">
        <ele>15.4</ele>
        <time>2016-04-16T12:28:29Z</time>
      </trkpt>
      <trkpt lat="28.221749592585" lon="-14.003714342177">
        <ele>15.2</ele>
        <time>2016-04-16T12:28:30Z</time>
      </trkpt>
      <trkpt lat="28.221730900948" lon="-14.003721802068">
        <ele>14.4</ele>
        <time>2016-04-16T12:28:33Z</time>
      </trkpt>
      <trkpt lat="28.221729811301" lon="-14.003738482049">
        <ele>14</ele>
        <time>2016-04-16T12:28:34Z</time>
      </trkpt>
      <trkpt lat="28.221722435229" lon="-14.003749462338">
        <ele>13.2</ele>
        <time>2016-04-16T12:28:36Z</time>
      </trkpt>
      <trkpt lat="28.221705671429" lon="-14.003772009649">
        <ele>12.6</ele>
        <time>2016-04-16T12:28:40Z</time>
      </trkpt>
      <trkpt lat="28.221644986473" lon="-14.003799167005">
        <ele>11.2</ele>
        <time>2016-04-16T12:28:55Z</time>
      </trkpt>
      <trkpt lat="28.221642974817" lon="-14.003823977429">
        <ele>10</ele>
        <time>2016-04-16T12:28:59Z</time>
      </trkpt>
      <trkpt lat="28.221573572685" lon="-14.003880722892">
        <ele>6.8</ele>
        <time>2016-04-16T12:29:17Z</time>
      </trkpt>
      <trkpt lat="28.221563011491" lon="-14.003878040684">
        <ele>5.6</ele>
        <time>2016-04-16T12:29:21Z</time>
      </trkpt>
      <trkpt lat="28.221546499148" lon="-14.003883656557">
        <ele>4.6</ele>
        <time>2016-04-16T12:29:27Z</time>
      </trkpt>
      <trkpt lat="28.221502997087" lon="-14.00396638591">
        <ele>2.4</ele>
        <time>2016-04-16T12:29:41Z</time>
      </trkpt>
      <trkpt lat="28.221468212202" lon="-14.003943251866">
        <ele>1.2</ele>
        <time>2016-04-16T12:29:46Z</time>
      </trkpt>
      <trkpt lat="28.221465446175" lon="-14.003958590743">
        <ele>0.2</ele>
        <time>2016-04-16T12:29:49Z</time>
      </trkpt>
      <trkpt lat="28.221441222484" lon="-14.003972420878">
        <ele>0</ele>
        <time>2016-04-16T12:29:54Z</time>
      </trkpt>
      <trkpt lat="28.221373329094" lon="-14.004009720333">
        <ele>0</ele>
        <time>2016-04-16T12:30:02Z</time>
      </trkpt>
      <trkpt lat="28.221332006327" lon="-14.004027657599">
        <ele>0</ele>
        <time>2016-04-16T12:30:07Z</time>
      </trkpt>
      <trkpt lat="28.221322115685" lon="-14.004041655372">
        <ele>0</ele>
        <time>2016-04-16T12:30:09Z</time>
      </trkpt>
      <trkpt lat="28.221294371596" lon="-14.004040817182">
        <ele>0</ele>
        <time>2016-04-16T12:30:14Z</time>
      </trkpt>
      <trkpt lat="28.221282720755" lon="-14.004044253761">
        <ele>0</ele>
        <time>2016-04-16T12:30:16Z</time>
      </trkpt>
      <trkpt lat="28.221263107109" lon="-14.004055485507">
        <ele>0</ele>
        <time>2016-04-16T12:30:18Z</time>
      </trkpt>
      <trkpt lat="28.221239470151" lon="-14.004074596239">
        <ele>0</ele>
        <time>2016-04-16T12:30:21Z</time>
      </trkpt>
      <trkpt lat="28.221207283655" lon="-14.004098065559">
        <ele>0</ele>
        <time>2016-04-16T12:30:25Z</time>
      </trkpt>
      <trkpt lat="28.221201332506" lon="-14.004108291477">
        <ele>0</ele>
        <time>2016-04-16T12:30:26Z</time>
      </trkpt>
      <trkpt lat="28.221129499623" lon="-14.004178867075">
        <ele>0</ele>
        <time>2016-04-16T12:30:34Z</time>
      </trkpt>
      <trkpt lat="28.221069652857" lon="-14.004262350799">
        <ele>0</ele>
        <time>2016-04-16T12:30:44Z</time>
      </trkpt>
      <trkpt lat="28.221041573492" lon="-14.004340302469">
        <ele>0</ele>
        <time>2016-04-16T12:30:55Z</time>
      </trkpt>
      <trkpt lat="28.221041322035" lon="-14.004355473708">
        <ele>0</ele>
        <time>2016-04-16T12:30:57Z</time>
      </trkpt>
      <trkpt lat="28.221042160225" lon="-14.004363185056">
        <ele>0</ele>
        <time>2016-04-16T12:30:58Z</time>
      </trkpt>
      <trkpt lat="28.220993461386" lon="-14.004394701">
        <ele>0</ele>
        <time>2016-04-16T12:31:09Z</time>
      </trkpt>
      <trkpt lat="28.220942667072" lon="-14.004437783966">
        <ele>0</ele>
        <time>2016-04-16T12:31:17Z</time>
      </trkpt>
      <trkpt lat="28.220937973208" lon="-14.004442226373">
        <ele>0</ele>
        <time>2016-04-16T12:31:18Z</time>
      </trkpt>
      <trkpt lat="28.22083135544" lon="-14.004443232201">
        <ele>0</ele>
        <time>2016-04-16T12:31:34Z</time>
      </trkpt>
      <trkpt lat="28.22079615146" lon="-14.004441304364">
        <ele>0</ele>
        <time>2016-04-16T12:31:38Z</time>
      </trkpt>
      <trkpt lat="28.220746446793" lon="-14.004452368472">
        <ele>0</ele>
        <time>2016-04-16T12:31:43Z</time>
      </trkpt>
      <trkpt lat="28.220642008319" lon="-14.004485476977">
        <ele>0</ele>
        <time>2016-04-16T12:31:54Z</time>
      </trkpt>
      <trkpt lat="28.220647037459" lon="-14.004510035944">
        <ele>0</ele>
        <time>2016-04-16T12:31:58Z</time>
      </trkpt>
      <trkpt lat="28.220622813768" lon="-14.004606176337">
        <ele>0</ele>
        <time>2016-04-16T12:32:20Z</time>
      </trkpt>
      <trkpt lat="28.22062683708" lon="-14.004641883231">
        <ele>0</ele>
        <time>2016-04-16T12:32:28Z</time>
      </trkpt>
      <trkpt lat="28.220653575341" lon="-14.004679434143">
        <ele>0</ele>
        <time>2016-04-16T12:32:34Z</time>
      </trkpt>
      <trkpt lat="28.220670506779" lon="-14.004707932603">
        <ele>0</ele>
        <time>2016-04-16T12:32:39Z</time>
      </trkpt>
      <trkpt lat="28.220683917819" lon="-14.004723774394">
        <ele>0</ele>
        <time>2016-04-16T12:32:44Z</time>
      </trkpt>
      <trkpt lat="28.220701100714" lon="-14.004763420781">
        <ele>0</ele>
        <time>2016-04-16T12:32:52Z</time>
      </trkpt>
      <trkpt lat="28.220700346343" lon="-14.00481463419">
        <ele>0</ele>
        <time>2016-04-16T12:32:59Z</time>
      </trkpt>
      <trkpt lat="28.220704704931" lon="-14.004902308864">
        <ele>0</ele>
        <time>2016-04-16T12:33:16Z</time>
      </trkpt>
      <trkpt lat="28.220714260297" lon="-14.004983194199">
        <ele>0</ele>
        <time>2016-04-16T12:33:23Z</time>
      </trkpt>
      <trkpt lat="28.22071568522" lon="-14.004992917203">
        <ele>0</ele>
        <time>2016-04-16T12:33:24Z</time>
      </trkpt>
      <trkpt lat="28.220718032152" lon="-14.005004400406">
        <ele>0</ele>
        <time>2016-04-16T12:33:26Z</time>
      </trkpt>
      <trkpt lat="28.22071233246" lon="-14.005023678776">
        <ele>0</ele>
        <time>2016-04-16T12:33:28Z</time>
      </trkpt>
      <trkpt lat="28.220695317203" lon="-14.005040610214">
        <ele>0</ele>
        <time>2016-04-16T12:33:31Z</time>
      </trkpt>
      <trkpt lat="28.220672686073" lon="-14.005062319335">
        <ele>0</ele>
        <time>2016-04-16T12:33:34Z</time>
      </trkpt>
      <trkpt lat="28.220646283088" lon="-14.005092410356">
        <ele>0</ele>
        <time>2016-04-16T12:33:38Z</time>
      </trkpt>
      <trkpt lat="28.22057906025" lon="-14.005139432815">
        <ele>0</ele>
        <time>2016-04-16T12:33:45Z</time>
      </trkpt>
      <trkpt lat="28.2205329598" lon="-14.005155358425">
        <ele>0</ele>
        <time>2016-04-16T12:33:49Z</time>
      </trkpt>
      <trkpt lat="28.220525080814" lon="-14.005158543547">
        <ele>0</ele>
        <time>2016-04-16T12:33:50Z</time>
      </trkpt>
      <trkpt lat="28.220531451058" lon="-14.005288630635">
        <ele>0</ele>
        <time>2016-04-16T12:34:02Z</time>
      </trkpt>
      <trkpt lat="28.220530696687" lon="-14.005305645892">
        <ele>0</ele>
        <time>2016-04-16T12:34:04Z</time>
      </trkpt>
      <trkpt lat="28.220494570698" lon="-14.005394074937">
        <ele>0</ele>
        <time>2016-04-16T12:34:12Z</time>
      </trkpt>
      <trkpt lat="28.220502282046" lon="-14.005415029687">
        <ele>0</ele>
        <time>2016-04-16T12:34:14Z</time>
      </trkpt>
      <trkpt lat="28.220536564017" lon="-14.00552039017">
        <ele>0</ele>
        <time>2016-04-16T12:34:23Z</time>
      </trkpt>
      <trkpt lat="28.220555255654" lon="-14.005564395145">
        <ele>0</ele>
        <time>2016-04-16T12:34:28Z</time>
      </trkpt>
      <trkpt lat="28.220582245372" lon="-14.00563773677">
        <ele>0</ele>
        <time>2016-04-16T12:34:39Z</time>
      </trkpt>
      <trkpt lat="28.220606804339" lon="-14.005706635988">
        <ele>0</ele>
        <time>2016-04-16T12:34:45Z</time>
      </trkpt>
      <trkpt lat="28.220602613389" lon="-14.005907382493">
        <ele>0</ele>
        <time>2016-04-16T12:35:04Z</time>
      </trkpt>
      <trkpt lat="28.220552992541" lon="-14.005989441294">
        <ele>0</ele>
        <time>2016-04-16T12:35:13Z</time>
      </trkpt>
      <trkpt lat="28.220529942316" lon="-14.006027327482">
        <ele>0</ele>
        <time>2016-04-16T12:35:17Z</time>
      </trkpt>
      <trkpt lat="28.220531618696" lon="-14.006093879768">
        <ele>0</ele>
        <time>2016-04-16T12:35:23Z</time>
      </trkpt>
      <trkpt lat="28.220527511565" lon="-14.006112068491">
        <ele>0</ele>
        <time>2016-04-16T12:35:25Z</time>
      </trkpt>
      <trkpt lat="28.220498091096" lon="-14.006258667922">
        <ele>0</ele>
        <time>2016-04-16T12:35:41Z</time>
      </trkpt>
      <trkpt lat="28.2204910503" lon="-14.006293620445">
        <ele>0</ele>
        <time>2016-04-16T12:35:45Z</time>
      </trkpt>
      <trkpt lat="28.220485769703" lon="-14.006305690381">
        <ele>0</ele>
        <time>2016-04-16T12:35:47Z</time>
      </trkpt>
      <trkpt lat="28.220492642861" lon="-14.006355646505">
        <ele>0</ele>
        <time>2016-04-16T12:35:52Z</time>
      </trkpt>
      <trkpt lat="28.220540168234" lon="-14.006398897109">
        <ele>0</ele>
        <time>2016-04-16T12:35:57Z</time>
      </trkpt>
      <trkpt lat="28.220571265083" lon="-14.006432089433">
        <ele>0</ele>
        <time>2016-04-16T12:36:01Z</time>
      </trkpt>
      <trkpt lat="28.220582999743" lon="-14.006452038355">
        <ele>0</ele>
        <time>2016-04-16T12:36:03Z</time>
      </trkpt>
      <trkpt lat="28.22061594061" lon="-14.006498893176">
        <ele>0</ele>
        <time>2016-04-16T12:36:09Z</time>
      </trkpt>
      <trkpt lat="28.220624657786" lon="-14.006524457971">
        <ele>0</ele>
        <time>2016-04-16T12:36:12Z</time>
      </trkpt>
      <trkpt lat="28.220646786002" lon="-14.006577263941">
        <ele>0</ele>
        <time>2016-04-16T12:36:19Z</time>
      </trkpt>
      <trkpt lat="28.220650138762" lon="-14.006586316393">
        <ele>0</ele>
        <time>2016-04-16T12:36:20Z</time>
      </trkpt>
      <trkpt lat="28.22062851346" lon="-14.006682624424">
        <ele>0</ele>
        <time>2016-04-16T12:36:30Z</time>
      </trkpt>
      <trkpt lat="28.22062013156" lon="-14.006777172256">
        <ele>0</ele>
        <time>2016-04-16T12:36:39Z</time>
      </trkpt>
      <trkpt lat="28.22063018984" lon="-14.006806844182">
        <ele>0</ele>
        <time>2016-04-16T12:36:43Z</time>
      </trkpt>
      <trkpt lat="28.220645193441" lon="-14.00684473037">
        <ele>0</ele>
        <time>2016-04-16T12:36:46Z</time>
      </trkpt>
      <trkpt lat="28.220653156246" lon="-14.006889070621">
        <ele>0</ele>
        <time>2016-04-16T12:36:49Z</time>
      </trkpt>
      <trkpt lat="28.220665561458" lon="-14.007022091374">
        <ele>0</ele>
        <time>2016-04-16T12:37:00Z</time>
      </trkpt>
      <trkpt lat="28.220565481572" lon="-14.007193333591">
        <ele>0</ele>
        <time>2016-04-16T12:37:20Z</time>
      </trkpt>
      <trkpt lat="28.22054804722" lon="-14.007208756287">
        <ele>0</ele>
        <time>2016-04-16T12:37:22Z</time>
      </trkpt>
      <trkpt lat="28.22051535781" lon="-14.007219568938">
        <ele>0</ele>
        <time>2016-04-16T12:37:25Z</time>
      </trkpt>
      <trkpt lat="28.220482752219" lon="-14.007244295543">
        <ele>0</ele>
        <time>2016-04-16T12:37:30Z</time>
      </trkpt>
      <trkpt lat="28.220463641487" lon="-14.007269022148">
        <ele>0</ele>
        <time>2016-04-16T12:37:33Z</time>
      </trkpt>
      <trkpt lat="28.220444195479" lon="-14.007275140935">
        <ele>0</ele>
        <time>2016-04-16T12:37:35Z</time>
      </trkpt>
      <trkpt lat="28.22042567148" lon="-14.007290815088">
        <ele>0</ele>
        <time>2016-04-16T12:37:37Z</time>
      </trkpt>
      <trkpt lat="28.220442770556" lon="-14.007346387085">
        <ele>0</ele>
        <time>2016-04-16T12:37:42Z</time>
      </trkpt>
      <trkpt lat="28.220452745017" lon="-14.007367593292">
        <ele>0</ele>
        <time>2016-04-16T12:37:45Z</time>
      </trkpt>
      <trkpt lat="28.220483003676" lon="-14.007505140271">
        <ele>0</ele>
        <time>2016-04-16T12:37:59Z</time>
      </trkpt>
      <trkpt lat="28.220531702515" lon="-14.007629108572">
        <ele>0</ele>
        <time>2016-04-16T12:38:09Z</time>
      </trkpt>
      <trkpt lat="28.220531786334" lon="-14.007648219304">
        <ele>0</ele>
        <time>2016-04-16T12:38:11Z</time>
      </trkpt>
      <trkpt lat="28.220503287874" lon="-14.007698762161">
        <ele>0</ele>
        <time>2016-04-16T12:38:16Z</time>
      </trkpt>
      <trkpt lat="28.22042064234" lon="-14.007782078247">
        <ele>0</ele>
        <time>2016-04-16T12:38:27Z</time>
      </trkpt>
      <trkpt lat="28.220416032295" lon="-14.007782832618">
        <ele>0</ele>
        <time>2016-04-16T12:38:28Z</time>
      </trkpt>
      <trkpt lat="28.220364651248" lon="-14.007822479005">
        <ele>0</ele>
        <time>2016-04-16T12:38:36Z</time>
      </trkpt>
      <trkpt lat="28.220329698725" lon="-14.00786396941">
        <ele>0</ele>
        <time>2016-04-16T12:38:41Z</time>
      </trkpt>
      <trkpt lat="28.220326178327" lon="-14.0078731895">
        <ele>0</ele>
        <time>2016-04-16T12:38:42Z</time>
      </trkpt>
      <trkpt lat="28.220316455323" lon="-14.007894647164">
        <ele>0</ele>
        <time>2016-04-16T12:38:45Z</time>
      </trkpt>
      <trkpt lat="28.220274964918" lon="-14.007949129514">
        <ele>0</ele>
        <time>2016-04-16T12:38:52Z</time>
      </trkpt>
      <trkpt lat="28.220233139237" lon="-14.008020543302">
        <ele>0</ele>
        <time>2016-04-16T12:39:01Z</time>
      </trkpt>
      <trkpt lat="28.220185446226" lon="-14.008049125581">
        <ele>0</ele>
        <time>2016-04-16T12:39:07Z</time>
      </trkpt>
      <trkpt lat="28.220162060725" lon="-14.008067817218">
        <ele>0</ele>
        <time>2016-04-16T12:39:10Z</time>
      </trkpt>
      <trkpt lat="28.220150074608" lon="-14.00810201537">
        <ele>0</ele>
        <time>2016-04-16T12:39:13Z</time>
      </trkpt>
      <trkpt lat="28.220120737958" lon="-14.008197066116">
        <ele>0</ele>
        <time>2016-04-16T12:39:23Z</time>
      </trkpt>
      <trkpt lat="28.220087126539" lon="-14.008280466021">
        <ele>0</ele>
        <time>2016-04-16T12:39:31Z</time>
      </trkpt>
      <trkpt lat="28.22003507494" lon="-14.008343665547">
        <ele>0</ele>
        <time>2016-04-16T12:39:39Z</time>
      </trkpt>
      <trkpt lat="28.220005822109" lon="-14.008369146523">
        <ele>0</ele>
        <time>2016-04-16T12:39:44Z</time>
      </trkpt>
      <trkpt lat="28.219925439688" lon="-14.008436872275">
        <ele>0</ele>
        <time>2016-04-16T12:39:53Z</time>
      </trkpt>
      <trkpt lat="28.219890570984" lon="-14.008505352398">
        <ele>0</ele>
        <time>2016-04-16T12:40:00Z</time>
      </trkpt>
      <trkpt lat="28.219869280958" lon="-14.008605935198">
        <ele>0</ele>
        <time>2016-04-16T12:40:08Z</time>
      </trkpt>
      <trkpt lat="28.219867604578" lon="-14.008659746996">
        <ele>0</ele>
        <time>2016-04-16T12:40:12Z</time>
      </trkpt>
      <trkpt lat="28.219841788326" lon="-14.008725796368">
        <ele>0</ele>
        <time>2016-04-16T12:40:18Z</time>
      </trkpt>
      <trkpt lat="28.219762244095" lon="-14.008914640575">
        <ele>0</ele>
        <time>2016-04-16T12:40:36Z</time>
      </trkpt>
      <trkpt lat="28.219685298253" lon="-14.009062497291">
        <ele>0</ele>
        <time>2016-04-16T12:40:53Z</time>
      </trkpt>
      <trkpt lat="28.219681777855" lon="-14.00906844844">
        <ele>0</ele>
        <time>2016-04-16T12:40:54Z</time>
      </trkpt>
      <trkpt lat="28.219664427322" lon="-14.009096276348">
        <ele>0</ele>
        <time>2016-04-16T12:40:58Z</time>
      </trkpt>
      <trkpt lat="28.219611537533" lon="-14.009184705393">
        <ele>0</ele>
        <time>2016-04-16T12:41:06Z</time>
      </trkpt>
      <trkpt lat="28.219579351037" lon="-14.009260980683">
        <ele>0</ele>
        <time>2016-04-16T12:41:12Z</time>
      </trkpt>
      <trkpt lat="28.219561329952" lon="-14.009344296769">
        <ele>0</ele>
        <time>2016-04-16T12:41:19Z</time>
      </trkpt>
      <trkpt lat="28.219514139855" lon="-14.009494081322">
        <ele>0</ele>
        <time>2016-04-16T12:41:32Z</time>
      </trkpt>
      <trkpt lat="28.219491844001" lon="-14.009530710225">
        <ele>0</ele>
        <time>2016-04-16T12:41:36Z</time>
      </trkpt>
      <trkpt lat="28.21945337108" lon="-14.009580331073">
        <ele>0</ele>
        <time>2016-04-16T12:41:42Z</time>
      </trkpt>
      <trkpt lat="28.219427471009" lon="-14.009596089045">
        <ele>0</ele>
        <time>2016-04-16T12:41:44Z</time>
      </trkpt>
      <trkpt lat="28.21937122846" lon="-14.009736904965">
        <ele>0</ele>
        <time>2016-04-16T12:41:58Z</time>
      </trkpt>
      <trkpt lat="28.219348010597" lon="-14.009827345666">
        <ele>0</ele>
        <time>2016-04-16T12:42:06Z</time>
      </trkpt>
      <trkpt lat="28.219338874326" lon="-14.009853329556">
        <ele>0</ele>
        <time>2016-04-16T12:42:08Z</time>
      </trkpt>
      <trkpt lat="28.219318338671" lon="-14.009905213517">
        <ele>0</ele>
        <time>2016-04-16T12:42:14Z</time>
      </trkpt>
      <trkpt lat="28.219280620121" lon="-14.009932873787">
        <ele>0</ele>
        <time>2016-04-16T12:42:20Z</time>
      </trkpt>
      <trkpt lat="28.219257486077" lon="-14.009939914583">
        <ele>0</ele>
        <time>2016-04-16T12:42:23Z</time>
      </trkpt>
      <trkpt lat="28.219139971839" lon="-14.010049298378">
        <ele>0</ele>
        <time>2016-04-16T12:42:38Z</time>
      </trkpt>
      <trkpt lat="28.21909546395" lon="-14.010071342775">
        <ele>0</ele>
        <time>2016-04-16T12:42:43Z</time>
      </trkpt>
      <trkpt lat="28.218952384917" lon="-14.010163459856">
        <ele>0</ele>
        <time>2016-04-16T12:43:00Z</time>
      </trkpt>
      <trkpt lat="28.218876863998" lon="-14.010236969119">
        <ele>0</ele>
        <time>2016-04-16T12:43:12Z</time>
      </trkpt>
      <trkpt lat="28.21881802306" lon="-14.010330930218">
        <ele>0</ele>
        <time>2016-04-16T12:43:21Z</time>
      </trkpt>
      <trkpt lat="28.218711656749" lon="-14.010406702594">
        <ele>0</ele>
        <time>2016-04-16T12:43:33Z</time>
      </trkpt>
      <trkpt lat="28.218675866036" lon="-14.010447522447">
        <ele>0</ele>
        <time>2016-04-16T12:43:39Z</time>
      </trkpt>
      <trkpt lat="28.218630855233" lon="-14.010500160779">
        <ele>0</ele>
        <time>2016-04-16T12:43:46Z</time>
      </trkpt>
      <trkpt lat="28.218618198564" lon="-14.010509464688">
        <ele>0</ele>
        <time>2016-04-16T12:43:48Z</time>
      </trkpt>
      <trkpt lat="28.21854225855" lon="-14.010535951492">
        <ele>0</ele>
        <time>2016-04-16T12:43:56Z</time>
      </trkpt>
      <trkpt lat="28.218518705411" lon="-14.010534694207">
        <ele>0</ele>
        <time>2016-04-16T12:43:58Z</time>
      </trkpt>
      <trkpt lat="28.218400939716" lon="-14.010535867673">
        <ele>0</ele>
        <time>2016-04-16T12:44:12Z</time>
      </trkpt>
      <trkpt lat="28.218350815954" lon="-14.010506279566">
        <ele>0</ele>
        <time>2016-04-16T12:44:23Z</time>
      </trkpt>
      <trkpt lat="28.218184016144" lon="-14.01056629397">
        <ele>0</ele>
        <time>2016-04-16T12:44:42Z</time>
      </trkpt>
      <trkpt lat="28.218155433865" lon="-14.010583393046">
        <ele>0</ele>
        <time>2016-04-16T12:44:45Z</time>
      </trkpt>
      <trkpt lat="28.21809634147" lon="-14.010587583996">
        <ele>0</ele>
        <time>2016-04-16T12:44:52Z</time>
      </trkpt>
      <trkpt lat="28.21805694654" lon="-14.010590014747">
        <ele>0</ele>
        <time>2016-04-16T12:44:56Z</time>
      </trkpt>
      <trkpt lat="28.217926105081" lon="-14.010610885678">
        <ele>0</ele>
        <time>2016-04-16T12:45:10Z</time>
      </trkpt>
      <trkpt lat="28.217825857557" lon="-14.010619267578">
        <ele>0</ele>
        <time>2016-04-16T12:45:20Z</time>
      </trkpt>
      <trkpt lat="28.217720161798" lon="-14.010658662508">
        <ele>0</ele>
        <time>2016-04-16T12:45:31Z</time>
      </trkpt>
      <trkpt lat="28.217552942893" lon="-14.01066520039">
        <ele>0</ele>
        <time>2016-04-16T12:45:58Z</time>
      </trkpt>
      <trkpt lat="28.217554954549" lon="-14.01064592202">
        <ele>0</ele>
        <time>2016-04-16T12:47:28Z</time>
      </trkpt>
      <trkpt lat="28.217456970138" lon="-14.010675091032">
        <ele>0</ele>
        <time>2016-04-16T12:47:46Z</time>
      </trkpt>
      <trkpt lat="28.217424029271" lon="-14.010682048009">
        <ele>0</ele>
        <time>2016-04-16T12:47:50Z</time>
      </trkpt>
      <trkpt lat="28.217383963789" lon="-14.010686909511">
        <ele>0</ele>
        <time>2016-04-16T12:47:54Z</time>
      </trkpt>
      <trkpt lat="28.217097638085" lon="-14.010956387596">
        <ele>0</ele>
        <time>2016-04-16T12:48:35Z</time>
      </trkpt>
      <trkpt lat="28.217057404965" lon="-14.011046995935">
        <ele>0</ele>
        <time>2016-04-16T12:48:45Z</time>
      </trkpt>
      <trkpt lat="28.216920779995" lon="-14.011190242606">
        <ele>0</ele>
        <time>2016-04-16T12:49:05Z</time>
      </trkpt>
      <trkpt lat="28.216787591604" lon="-14.011338686055">
        <ele>0</ele>
        <time>2016-04-16T12:49:24Z</time>
      </trkpt>
      <trkpt lat="28.216678878361" lon="-14.011377578071">
        <ele>0</ele>
        <time>2016-04-16T12:49:34Z</time>
      </trkpt>
      <trkpt lat="28.216499170425" lon="-14.011427366557">
        <ele>0</ele>
        <time>2016-04-16T12:49:49Z</time>
      </trkpt>
      <trkpt lat="28.216470169051" lon="-14.011427618014">
        <ele>0</ele>
        <time>2016-04-16T12:49:52Z</time>
      </trkpt>
      <trkpt lat="28.216461535694" lon="-14.011424097616">
        <ele>0</ele>
        <time>2016-04-16T12:49:53Z</time>
      </trkpt>
      <trkpt lat="28.21642918156" lon="-14.011423427064">
        <ele>0</ele>
        <time>2016-04-16T12:49:57Z</time>
      </trkpt>
      <trkpt lat="28.216365227663" lon="-14.011443124529">
        <ele>0</ele>
        <time>2016-04-16T12:50:03Z</time>
      </trkpt>
      <trkpt lat="28.216317199376" lon="-14.01146315727">
        <ele>0</ele>
        <time>2016-04-16T12:50:09Z</time>
      </trkpt>
      <trkpt lat="28.216283587957" lon="-14.011476400672">
        <ele>0</ele>
        <time>2016-04-16T12:50:13Z</time>
      </trkpt>
      <trkpt lat="28.216209743418" lon="-14.011509760634">
        <ele>0</ele>
        <time>2016-04-16T12:50:20Z</time>
      </trkpt>
      <trkpt lat="28.216118464527" lon="-14.011516047059">
        <ele>0</ele>
        <time>2016-04-16T12:50:28Z</time>
      </trkpt>
      <trkpt lat="28.216032885328" lon="-14.011485117848">
        <ele>0</ele>
        <time>2016-04-16T12:50:36Z</time>
      </trkpt>
      <trkpt lat="28.216021653582" lon="-14.011477741776">
        <ele>0</ele>
        <time>2016-04-16T12:50:37Z</time>
      </trkpt>
      <trkpt lat="28.215991227285" lon="-14.011467096763">
        <ele>0</ele>
        <time>2016-04-16T12:50:40Z</time>
      </trkpt>
      <trkpt lat="28.215948395776" lon="-14.011458798682">
        <ele>0</ele>
        <time>2016-04-16T12:50:44Z</time>
      </trkpt>
      <trkpt lat="28.215890979761" lon="-14.011452512257">
        <ele>0</ele>
        <time>2016-04-16T12:50:49Z</time>
      </trkpt>
      <trkpt lat="28.215714959861" lon="-14.011510431186">
        <ele>0</ele>
        <time>2016-04-16T12:51:06Z</time>
      </trkpt>
      <trkpt lat="28.215530055147" lon="-14.011548987926">
        <ele>0</ele>
        <time>2016-04-16T12:51:23Z</time>
      </trkpt>
      <trkpt lat="28.215461575024" lon="-14.01152518333">
        <ele>0</ele>
        <time>2016-04-16T12:51:30Z</time>
      </trkpt>
      <trkpt lat="28.215274658654" lon="-14.011483106192">
        <ele>0</ele>
        <time>2016-04-16T12:51:45Z</time>
      </trkpt>
      <trkpt lat="28.215217242639" lon="-14.011505737322">
        <ele>0</ele>
        <time>2016-04-16T12:51:50Z</time>
      </trkpt>
      <trkpt lat="28.2151182524" lon="-14.011682343955">
        <ele>0</ele>
        <time>2016-04-16T12:52:07Z</time>
      </trkpt>
      <trkpt lat="28.215101740057" lon="-14.011734479373">
        <ele>0</ele>
        <time>2016-04-16T12:52:11Z</time>
      </trkpt>
      <trkpt lat="28.215080869126" lon="-14.011838917847">
        <ele>0</ele>
        <time>2016-04-16T12:52:20Z</time>
      </trkpt>
      <trkpt lat="28.215035020133" lon="-14.012012926091">
        <ele>0</ele>
        <time>2016-04-16T12:52:33Z</time>
      </trkpt>
      <trkpt lat="28.21500258218" lon="-14.012109317941">
        <ele>0</ele>
        <time>2016-04-16T12:52:41Z</time>
      </trkpt>
      <trkpt lat="28.214949273296" lon="-14.012279721968">
        <ele>0</ele>
        <time>2016-04-16T12:52:54Z</time>
      </trkpt>
      <trkpt lat="28.214924546691" lon="-14.012370665583">
        <ele>0</ele>
        <time>2016-04-16T12:53:02Z</time>
      </trkpt>
      <trkpt lat="28.214883056286" lon="-14.012502009956">
        <ele>0</ele>
        <time>2016-04-16T12:53:14Z</time>
      </trkpt>
      <trkpt lat="28.214824299167" lon="-14.012673000716">
        <ele>0</ele>
        <time>2016-04-16T12:53:28Z</time>
      </trkpt>
      <trkpt lat="28.214774259224" lon="-14.012836699223">
        <ele>0</ele>
        <time>2016-04-16T12:53:40Z</time>
      </trkpt>
      <trkpt lat="28.214752047189" lon="-14.012942227344">
        <ele>0</ele>
        <time>2016-04-16T12:53:49Z</time>
      </trkpt>
      <trkpt lat="28.214721117978" lon="-14.013084049092">
        <ele>0</ele>
        <time>2016-04-16T12:54:00Z</time>
      </trkpt>
      <trkpt lat="28.214708461309" lon="-14.013234420378">
        <ele>0</ele>
        <time>2016-04-16T12:54:10Z</time>
      </trkpt>
      <trkpt lat="28.2146991574" lon="-14.013439860747">
        <ele>0</ele>
        <time>2016-04-16T12:54:25Z</time>
      </trkpt>
      <trkpt lat="28.214694295898" lon="-14.013464000619">
        <ele>0</ele>
        <time>2016-04-16T12:54:27Z</time>
      </trkpt>
      <trkpt lat="28.214662779954" lon="-14.013654353568">
        <ele>0</ele>
        <time>2016-04-16T12:54:42Z</time>
      </trkpt>
      <trkpt lat="28.214682058324" lon="-14.01383858773">
        <ele>0</ele>
        <time>2016-04-16T12:54:58Z</time>
      </trkpt>
      <trkpt lat="28.214723967824" lon="-14.014041178253">
        <ele>0</ele>
        <time>2016-04-16T12:55:14Z</time>
      </trkpt>
      <trkpt lat="28.214743078556" lon="-14.014166236201">
        <ele>0</ele>
        <time>2016-04-16T12:55:25Z</time>
      </trkpt>
      <trkpt lat="28.214660516841" lon="-14.014325492301">
        <ele>0</ele>
        <time>2016-04-16T12:55:40Z</time>
      </trkpt>
      <trkpt lat="28.214465805304" lon="-14.014683986164">
        <ele>0</ele>
        <time>2016-04-16T12:56:17Z</time>
      </trkpt>
      <trkpt lat="28.214454573558" lon="-14.014701671973">
        <ele>0</ele>
        <time>2016-04-16T12:56:19Z</time>
      </trkpt>
      <trkpt lat="28.214313925276" lon="-14.01484106297">
        <ele>0</ele>
        <time>2016-04-16T12:56:37Z</time>
      </trkpt>
      <trkpt lat="28.214306800661" lon="-14.014848271404">
        <ele>0</ele>
        <time>2016-04-16T12:56:38Z</time>
      </trkpt>
      <trkpt lat="28.214146874009" lon="-14.014962432882">
        <ele>0</ele>
        <time>2016-04-16T12:56:54Z</time>
      </trkpt>
      <trkpt lat="28.214052326177" lon="-14.015013897748">
        <ele>0</ele>
        <time>2016-04-16T12:57:02Z</time>
      </trkpt>
      <trkpt lat="28.213890723145" lon="-14.015110624874">
        <ele>0</ele>
        <time>2016-04-16T12:57:18Z</time>
      </trkpt>
      <trkpt lat="28.213843868324" lon="-14.015163933758">
        <ele>0</ele>
        <time>2016-04-16T12:57:23Z</time>
      </trkpt>
      <trkpt lat="28.213700956929" lon="-14.015231994786">
        <ele>0</ele>
        <time>2016-04-16T12:57:36Z</time>
      </trkpt>
      <trkpt lat="28.213561565932" lon="-14.015309192085">
        <ele>0</ele>
        <time>2016-04-16T12:57:51Z</time>
      </trkpt>
      <trkpt lat="28.213401890737" lon="-14.015312712483">
        <ele>0</ele>
        <time>2016-04-16T12:58:05Z</time>
      </trkpt>
      <trkpt lat="28.213220422602" lon="-14.015316400519">
        <ele>0</ele>
        <time>2016-04-16T12:58:21Z</time>
      </trkpt>
      <trkpt lat="28.213093101541" lon="-14.01533643326">
        <ele>0</ele>
        <time>2016-04-16T12:58:32Z</time>
      </trkpt>
      <trkpt lat="28.212910711397" lon="-14.015371972516">
        <ele>0</ele>
        <time>2016-04-16T12:58:47Z</time>
      </trkpt>
      <trkpt lat="28.21273863099" lon="-14.01542695778">
        <ele>0</ele>
        <time>2016-04-16T12:59:04Z</time>
      </trkpt>
      <trkpt lat="28.212557414312" lon="-14.015418659699">
        <ele>0</ele>
        <time>2016-04-16T12:59:19Z</time>
      </trkpt>
      <trkpt lat="28.212410647243" lon="-14.015501305233">
        <ele>0</ele>
        <time>2016-04-16T12:59:33Z</time>
      </trkpt>
      <trkpt lat="28.212403522628" lon="-14.015510944418">
        <ele>0</ele>
        <time>2016-04-16T12:59:34Z</time>
      </trkpt>
      <trkpt lat="28.212264718364" lon="-14.015649161949">
        <ele>0</ele>
        <time>2016-04-16T12:59:51Z</time>
      </trkpt>
      <trkpt lat="28.212136223837" lon="-14.015792743896">
        <ele>0</ele>
        <time>2016-04-16T13:00:08Z</time>
      </trkpt>
      <trkpt lat="28.21210244478" lon="-14.015830210989">
        <ele>0</ele>
        <time>2016-04-16T13:00:12Z</time>
      </trkpt>
      <trkpt lat="28.212044861127" lon="-14.01589802056">
        <ele>0</ele>
        <time>2016-04-16T13:00:23Z</time>
      </trkpt>
      <trkpt lat="28.211995407917" lon="-14.015950239797">
        <ele>0</ele>
        <time>2016-04-16T13:00:32Z</time>
      </trkpt>
      <trkpt lat="28.211861381336" lon="-14.016007907269">
        <ele>0</ele>
        <time>2016-04-16T13:00:49Z</time>
      </trkpt>
      <trkpt lat="28.21180991647" lon="-14.016034896987">
        <ele>0</ele>
        <time>2016-04-16T13:00:56Z</time>
      </trkpt>
      <trkpt lat="28.211798684724" lon="-14.016045458181">
        <ele>0</ele>
        <time>2016-04-16T13:00:58Z</time>
      </trkpt>
      <trkpt lat="28.211749902066" lon="-14.016076974125">
        <ele>0</ele>
        <time>2016-04-16T13:01:04Z</time>
      </trkpt>
      <trkpt lat="28.211726768022" lon="-14.016088457328">
        <ele>0</ele>
        <time>2016-04-16T13:01:07Z</time>
      </trkpt>
      <trkpt lat="28.211629454163" lon="-14.016147633542">
        <ele>0</ele>
        <time>2016-04-16T13:01:17Z</time>
      </trkpt>
      <trkpt lat="28.211507413699" lon="-14.016221226624">
        <ele>0</ele>
        <time>2016-04-16T13:01:40Z</time>
      </trkpt>
      <trkpt lat="28.211501127274" lon="-14.016238493338">
        <ele>0</ele>
        <time>2016-04-16T13:01:42Z</time>
      </trkpt>
      <trkpt lat="28.211452512254" lon="-14.016416943989">
        <ele>0</ele>
        <time>2016-04-16T13:02:04Z</time>
      </trkpt>
      <trkpt lat="28.211449075675" lon="-14.016566141809">
        <ele>0</ele>
        <time>2016-04-16T13:02:19Z</time>
      </trkpt>
      <trkpt lat="28.211448740399" lon="-14.016593634441">
        <ele>0</ele>
        <time>2016-04-16T13:02:22Z</time>
      </trkpt>
      <trkpt lat="28.211444884725" lon="-14.016621797625">
        <ele>0</ele>
        <time>2016-04-16T13:02:24Z</time>
      </trkpt>
      <trkpt lat="28.211449830046" lon="-14.016635208665">
        <ele>0</ele>
        <time>2016-04-16T13:02:26Z</time>
      </trkpt>
      <trkpt lat="28.211441531965" lon="-14.016708466471">
        <ele>0</ele>
        <time>2016-04-16T13:02:35Z</time>
      </trkpt>
      <trkpt lat="28.21143356916" lon="-14.016772923282">
        <ele>0</ele>
        <time>2016-04-16T13:02:39Z</time>
      </trkpt>
      <trkpt lat="28.211457792851" lon="-14.01698682937">
        <ele>0</ele>
        <time>2016-04-16T13:03:02Z</time>
      </trkpt>
      <trkpt lat="28.211476568307" lon="-14.017188749341">
        <ele>0</ele>
        <time>2016-04-16T13:03:20Z</time>
      </trkpt>
      <trkpt lat="28.211512694296" lon="-14.017383041783">
        <ele>0</ele>
        <time>2016-04-16T13:03:40Z</time>
      </trkpt>
      <trkpt lat="28.211520657101" lon="-14.017592589283">
        <ele>0</ele>
        <time>2016-04-16T13:03:59Z</time>
      </trkpt>
      <trkpt lat="28.211534068141" lon="-14.017800544222">
        <ele>0</ele>
        <time>2016-04-16T13:04:21Z</time>
      </trkpt>
      <trkpt lat="28.211509257717" lon="-14.017887967439">
        <ele>0</ele>
        <time>2016-04-16T13:04:30Z</time>
      </trkpt>
      <trkpt lat="28.211460223602" lon="-14.017927027093">
        <ele>0</ele>
        <time>2016-04-16T13:04:36Z</time>
      </trkpt>
      <trkpt lat="28.211412111496" lon="-14.017976145027">
        <ele>0</ele>
        <time>2016-04-16T13:04:43Z</time>
      </trkpt>
      <trkpt lat="28.211403226682" lon="-14.018015707595">
        <ele>0</ele>
        <time>2016-04-16T13:04:47Z</time>
      </trkpt>
      <trkpt lat="28.211308595031" lon="-14.018150907642">
        <ele>0</ele>
        <time>2016-04-16T13:05:03Z</time>
      </trkpt>
      <trkpt lat="28.211298788208" lon="-14.018169599279">
        <ele>0</ele>
        <time>2016-04-16T13:05:05Z</time>
      </trkpt>
      <trkpt lat="28.211248580627" lon="-14.018368501766">
        <ele>0</ele>
        <time>2016-04-16T13:05:23Z</time>
      </trkpt>
      <trkpt lat="28.211214885389" lon="-14.018578803637">
        <ele>0</ele>
        <time>2016-04-16T13:05:40Z</time>
      </trkpt>
      <trkpt lat="28.211190996974" lon="-14.018781813255">
        <ele>0</ele>
        <time>2016-04-16T13:05:59Z</time>
      </trkpt>
      <trkpt lat="28.211155038623" lon="-14.018948110151">
        <ele>0</ele>
        <time>2016-04-16T13:06:17Z</time>
      </trkpt>
      <trkpt lat="28.211132407493" lon="-14.019109545545">
        <ele>0</ele>
        <time>2016-04-16T13:06:33Z</time>
      </trkpt>
      <trkpt lat="28.211077757505" lon="-14.0192139002">
        <ele>0</ele>
        <time>2016-04-16T13:06:43Z</time>
      </trkpt>
      <trkpt lat="28.211018329834" lon="-14.01940584571">
        <ele>0</ele>
        <time>2016-04-16T13:07:02Z</time>
      </trkpt>
      <trkpt lat="28.211001146939" lon="-14.019611369898">
        <ele>0</ele>
        <time>2016-04-16T13:07:26Z</time>
      </trkpt>
      <trkpt lat="28.211026711734" lon="-14.019675072338">
        <ele>0</ele>
        <time>2016-04-16T13:07:34Z</time>
      </trkpt>
      <trkpt lat="28.211151350587" lon="-14.019833154972">
        <ele>0</ele>
        <time>2016-04-16T13:07:57Z</time>
      </trkpt>
      <trkpt lat="28.211284036064" lon="-14.019972797426">
        <ele>0</ele>
        <time>2016-04-16T13:08:16Z</time>
      </trkpt>
      <trkpt lat="28.211416637722" lon="-14.020114786812">
        <ele>0</ele>
        <time>2016-04-16T13:08:35Z</time>
      </trkpt>
      <trkpt lat="28.211568182474" lon="-14.02023565381">
        <ele>0</ele>
        <time>2016-04-16T13:08:56Z</time>
      </trkpt>
      <trkpt lat="28.211724085814" lon="-14.020342439216">
        <ele>0</ele>
        <time>2016-04-16T13:09:17Z</time>
      </trkpt>
      <trkpt lat="28.211734982284" lon="-14.02035551498">
        <ele>0</ele>
        <time>2016-04-16T13:09:19Z</time>
      </trkpt>
      <trkpt lat="28.211767504056" lon="-14.020384432535">
        <ele>0</ele>
        <time>2016-04-16T13:09:24Z</time>
      </trkpt>
      <trkpt lat="28.211794326136" lon="-14.020398765584">
        <ele>0</ele>
        <time>2016-04-16T13:09:28Z</time>
      </trkpt>
      <trkpt lat="28.21179985819" lon="-14.020411757529">
        <ele>0</ele>
        <time>2016-04-16T13:09:30Z</time>
      </trkpt>
      <trkpt lat="28.211780412182" lon="-14.020607055799">
        <ele>0</ele>
        <time>2016-04-16T13:09:53Z</time>
      </trkpt>
      <trkpt lat="28.211858363852" lon="-14.020805958286">
        <ele>0</ele>
        <time>2016-04-16T13:10:19Z</time>
      </trkpt>
      <trkpt lat="28.212047794792" lon="-14.021027994817">
        <ele>0</ele>
        <time>2016-04-16T13:16:25Z</time>
      </trkpt>
      <trkpt lat="28.212025582757" lon="-14.021101001166">
        <ele>0</ele>
        <time>2016-04-16T13:16:30Z</time>
      </trkpt>
      <trkpt lat="28.211975375176" lon="-14.021204349993">
        <ele>0</ele>
        <time>2016-04-16T13:16:43Z</time>
      </trkpt>
      <trkpt lat="28.211946709078" lon="-14.021237374679">
        <ele>0</ele>
        <time>2016-04-16T13:16:47Z</time>
      </trkpt>
      <trkpt lat="28.211804384416" lon="-14.021381291902">
        <ele>0</ele>
        <time>2016-04-16T13:17:09Z</time>
      </trkpt>
      <trkpt lat="28.211778735802" lon="-14.02140660524">
        <ele>0</ele>
        <time>2016-04-16T13:17:12Z</time>
      </trkpt>
      <trkpt lat="28.211650911827" lon="-14.02153401012">
        <ele>0</ele>
        <time>2016-04-16T13:17:28Z</time>
      </trkpt>
      <trkpt lat="28.211567092827" lon="-14.021588157194">
        <ele>0</ele>
        <time>2016-04-16T13:17:39Z</time>
      </trkpt>
      <trkpt lat="28.211417224455" lon="-14.021701564301">
        <ele>0</ele>
        <time>2016-04-16T13:17:55Z</time>
      </trkpt>
      <trkpt lat="28.211285544806" lon="-14.021847912275">
        <ele>0</ele>
        <time>2016-04-16T13:18:09Z</time>
      </trkpt>
      <trkpt lat="28.211199546512" lon="-14.021954110948">
        <ele>0</ele>
        <time>2016-04-16T13:18:32Z</time>
      </trkpt>
      <trkpt lat="28.21115780465" lon="-14.022037343215">
        <ele>0</ele>
        <time>2016-04-16T13:18:39Z</time>
      </trkpt>
      <trkpt lat="28.21114439361" lon="-14.022052346816">
        <ele>0</ele>
        <time>2016-04-16T13:18:41Z</time>
      </trkpt>
      <trkpt lat="28.211115978969" lon="-14.022119150559">
        <ele>0</ele>
        <time>2016-04-16T13:18:46Z</time>
      </trkpt>
      <trkpt lat="28.211059987877" lon="-14.02215929986">
        <ele>0</ele>
        <time>2016-04-16T13:18:52Z</time>
      </trkpt>
      <trkpt lat="28.210981700931" lon="-14.022170783063">
        <ele>0</ele>
        <time>2016-04-16T13:19:00Z</time>
      </trkpt>
      <trkpt lat="28.21099938674" lon="-14.022206825233">
        <ele>0</ele>
        <time>2016-04-16T13:19:07Z</time>
      </trkpt>
      <trkpt lat="28.210986981528" lon="-14.022190564347">
        <ele>0</ele>
        <time>2016-04-16T13:19:11Z</time>
      </trkpt>
      <trkpt lat="28.210966445873" lon="-14.022223086119">
        <ele>0</ele>
        <time>2016-04-16T13:19:25Z</time>
      </trkpt>
      <trkpt lat="28.210956387593" lon="-14.022175644565">
        <ele>0</ele>
        <time>2016-04-16T13:19:30Z</time>
      </trkpt>
      <trkpt lat="28.210919674871" lon="-14.022131220495">
        <ele>0</ele>
        <time>2016-04-16T13:19:32Z</time>
      </trkpt>
      <trkpt lat="28.211000644025" lon="-14.021627552124">
        <ele>0</ele>
        <time>2016-04-16T13:19:54Z</time>
      </trkpt>
      <trkpt lat="28.210727729361" lon="-14.021111227084">
        <ele>0</ele>
        <time>2016-04-16T13:20:09Z</time>
      </trkpt>
      <trkpt lat="28.210419275441" lon="-14.021296299436">
        <ele>0</ele>
        <time>2016-04-16T13:21:30Z</time>
      </trkpt>
      <trkpt lat="28.210323973238" lon="-14.021188759659">
        <ele>0</ele>
        <time>2016-04-16T13:21:40Z</time>
      </trkpt>
      <trkpt lat="28.210333360966" lon="-14.02122052706">
        <ele>0</ele>
        <time>2016-04-16T13:21:42Z</time>
      </trkpt>
      <trkpt lat="28.210371247154" lon="-14.021322870059">
        <ele>0</ele>
        <time>2016-04-16T13:21:47Z</time>
      </trkpt>
      <trkpt lat="28.210808866153" lon="-14.021856545632">
        <ele>0</ele>
        <time>2016-04-16T13:22:03Z</time>
      </trkpt>
      <trkpt lat="28.211006259898" lon="-14.022095932696">
        <ele>0</ele>
        <time>2016-04-16T13:22:06Z</time>
      </trkpt>
      <trkpt lat="28.210988574089" lon="-14.022130717581">
        <ele>0</ele>
        <time>2016-04-16T13:22:08Z</time>
      </trkpt>
      <trkpt lat="28.210939539974" lon="-14.022175309289">
        <ele>0</ele>
        <time>2016-04-16T13:22:15Z</time>
      </trkpt>
      <trkpt lat="28.210829317989" lon="-14.022366500428">
        <ele>0</ele>
        <time>2016-04-16T13:22:33Z</time>
      </trkpt>
      <trkpt lat="28.210797215312" lon="-14.022401704408">
        <ele>0</ele>
        <time>2016-04-16T13:22:35Z</time>
      </trkpt>
      <trkpt lat="28.21070853481" lon="-14.022483763209">
        <ele>0</ele>
        <time>2016-04-16T13:22:40Z</time>
      </trkpt>
      <trkpt lat="28.210677605599" lon="-14.022542855604">
        <ele>0</ele>
        <time>2016-04-16T13:22:45Z</time>
      </trkpt>
      <trkpt lat="28.210612813512" lon="-14.022557943024">
        <ele>0</ele>
        <time>2016-04-16T13:22:53Z</time>
      </trkpt>
      <trkpt lat="28.210460849665" lon="-14.022444703555">
        <ele>0</ele>
        <time>2016-04-16T13:23:10Z</time>
      </trkpt>
      <trkpt lat="28.210422963477" lon="-14.02238980211">
        <ele>0</ele>
        <time>2016-04-16T13:23:15Z</time>
      </trkpt>
      <trkpt lat="28.210417012328" lon="-14.022374630871">
        <ele>0</ele>
        <time>2016-04-16T13:23:17Z</time>
      </trkpt>
      <trkpt lat="28.210392788637" lon="-14.022407571738">
        <ele>0</ele>
        <time>2016-04-16T13:23:28Z</time>
      </trkpt>
      <trkpt lat="28.210361691788" lon="-14.022431879248">
        <ele>0</ele>
        <time>2016-04-16T13:23:31Z</time>
      </trkpt>
      <trkpt lat="28.210215427633" lon="-14.022561379603">
        <ele>0</ele>
        <time>2016-04-16T13:23:49Z</time>
      </trkpt>
      <trkpt lat="28.209986601763" lon="-14.022801856314">
        <ele>0</ele>
        <time>2016-04-16T13:24:31Z</time>
      </trkpt>
      <trkpt lat="28.209829105862" lon="-14.022917945629">
        <ele>0</ele>
        <time>2016-04-16T13:24:50Z</time>
      </trkpt>
      <trkpt lat="28.209725505578" lon="-14.022986761028">
        <ele>0</ele>
        <time>2016-04-16T13:25:02Z</time>
      </trkpt>
      <trkpt lat="28.209574715197" lon="-14.022993634186">
        <ele>0</ele>
        <time>2016-04-16T13:25:18Z</time>
      </trkpt>
      <trkpt lat="28.209469941447" lon="-14.023031352736">
        <ele>0</ele>
        <time>2016-04-16T13:26:54Z</time>
      </trkpt>
      <trkpt lat="28.209296436117" lon="-14.023090948045">
        <ele>0</ele>
        <time>2016-04-16T13:27:12Z</time>
      </trkpt>
      <trkpt lat="28.209241367034" lon="-14.023131767898">
        <ele>0</ele>
        <time>2016-04-16T13:27:17Z</time>
      </trkpt>
      <trkpt lat="28.209209431995" lon="-14.023173425941">
        <ele>0</ele>
        <time>2016-04-16T13:27:20Z</time>
      </trkpt>
      <trkpt lat="28.209206665968" lon="-14.02325229962">
        <ele>0</ele>
        <time>2016-04-16T13:27:27Z</time>
      </trkpt>
      <trkpt lat="28.209202475018" lon="-14.023300495545">
        <ele>0</ele>
        <time>2016-04-16T13:27:30Z</time>
      </trkpt>
      <trkpt lat="28.209193254928" lon="-14.023511467968">
        <ele>0</ele>
        <time>2016-04-16T13:27:50Z</time>
      </trkpt>
      <trkpt lat="28.209152518894" lon="-14.023575086589">
        <ele>0</ele>
        <time>2016-04-16T13:27:57Z</time>
      </trkpt>
      <trkpt lat="28.209141538605" lon="-14.023598639728">
        <ele>0</ele>
        <time>2016-04-16T13:27:59Z</time>
      </trkpt>
      <trkpt lat="28.209111112308" lon="-14.023678351597">
        <ele>0</ele>
        <time>2016-04-16T13:28:07Z</time>
      </trkpt>
      <trkpt lat="28.208988401292" lon="-14.023839954629">
        <ele>0</ele>
        <time>2016-04-16T13:28:24Z</time>
      </trkpt>
      <trkpt lat="28.208883376085" lon="-14.02396057017">
        <ele>0</ele>
        <time>2016-04-16T13:28:35Z</time>
      </trkpt>
      <trkpt lat="28.208887399397" lon="-14.024009352828">
        <ele>0</ele>
        <time>2016-04-16T13:28:57Z</time>
      </trkpt>
      <trkpt lat="28.209073058482" lon="-14.02392955714">
        <ele>0</ele>
        <time>2016-04-16T13:29:11Z</time>
      </trkpt>
      <trkpt lat="28.209175820576" lon="-14.023802571355">
        <ele>0</ele>
        <time>2016-04-16T13:29:23Z</time>
      </trkpt>
      <trkpt lat="28.20915285417" lon="-14.023783879718">
        <ele>0</ele>
        <time>2016-04-16T13:29:25Z</time>
      </trkpt>
      <trkpt lat="28.209130306859" lon="-14.023777258017">
        <ele>0</ele>
        <time>2016-04-16T13:29:27Z</time>
      </trkpt>
      <trkpt lat="28.209121589683" lon="-14.0237065986">
        <ele>0</ele>
        <time>2016-04-16T13:29:32Z</time>
      </trkpt>
      <trkpt lat="28.209124858624" lon="-14.023679357425">
        <ele>0</ele>
        <time>2016-04-16T13:29:34Z</time>
      </trkpt>
      <trkpt lat="28.209165175563" lon="-14.023573577847">
        <ele>0</ele>
        <time>2016-04-16T13:29:42Z</time>
      </trkpt>
      <trkpt lat="28.209216388972" lon="-14.023430079719">
        <ele>0</ele>
        <time>2016-04-16T13:29:58Z</time>
      </trkpt>
      <trkpt lat="28.209233571867" lon="-14.023330921842">
        <ele>0</ele>
        <time>2016-04-16T13:30:06Z</time>
      </trkpt>
      <trkpt lat="28.20924170231" lon="-14.023313571309">
        <ele>0</ele>
        <time>2016-04-16T13:30:08Z</time>
      </trkpt>
      <trkpt lat="28.209244635975" lon="-14.02328666541">
        <ele>0</ele>
        <time>2016-04-16T13:30:10Z</time>
      </trkpt>
      <trkpt lat="28.209277073928" lon="-14.023125062378">
        <ele>0</ele>
        <time>2016-04-16T13:30:22Z</time>
      </trkpt>
      <trkpt lat="28.209332813563" lon="-14.023101760696">
        <ele>0</ele>
        <time>2016-04-16T13:30:28Z</time>
      </trkpt>
      <trkpt lat="28.209358378358" lon="-14.023101928334">
        <ele>0</ele>
        <time>2016-04-16T13:30:30Z</time>
      </trkpt>
      <trkpt lat="28.209536242276" lon="-14.023043506491">
        <ele>0</ele>
        <time>2016-04-16T13:30:46Z</time>
      </trkpt>
      <trkpt lat="28.209720727895" lon="-14.023025066311">
        <ele>0</ele>
        <time>2016-04-16T13:31:03Z</time>
      </trkpt>
      <trkpt lat="28.209873446113" lon="-14.022905708055">
        <ele>0</ele>
        <time>2016-04-16T13:31:18Z</time>
      </trkpt>
      <trkpt lat="28.210033037489" lon="-14.022790121654">
        <ele>0</ele>
        <time>2016-04-16T13:31:31Z</time>
      </trkpt>
      <trkpt lat="28.210158765989" lon="-14.022641594386">
        <ele>0</ele>
        <time>2016-04-16T13:31:46Z</time>
      </trkpt>
      <trkpt lat="28.210289104534" lon="-14.022494324403">
        <ele>0</ele>
        <time>2016-04-16T13:32:02Z</time>
      </trkpt>
      <trkpt lat="28.210319195555" lon="-14.022469011065">
        <ele>0</ele>
        <time>2016-04-16T13:32:05Z</time>
      </trkpt>
      <trkpt lat="28.210460011475" lon="-14.022321741082">
        <ele>0</ele>
        <time>2016-04-16T13:32:24Z</time>
      </trkpt>
      <trkpt lat="28.210563695578" lon="-14.022198946247">
        <ele>0</ele>
        <time>2016-04-16T13:32:39Z</time>
      </trkpt>
      <trkpt lat="28.210796293303" lon="-14.021960313554">
        <ele>0</ele>
        <time>2016-04-16T13:33:18Z</time>
      </trkpt>
      <trkpt lat="28.210933672644" lon="-14.021812624476">
        <ele>0</ele>
        <time>2016-04-16T13:33:36Z</time>
      </trkpt>
      <trkpt lat="28.211042804982" lon="-14.021696451342">
        <ele>0</ele>
        <time>2016-04-16T13:33:52Z</time>
      </trkpt>
      <trkpt lat="28.211158307564" lon="-14.0219212539">
        <ele>0</ele>
        <time>2016-04-16T13:34:22Z</time>
      </trkpt>
      <trkpt lat="28.211248496808" lon="-14.021983615236">
        <ele>0</ele>
        <time>2016-04-16T13:34:33Z</time>
      </trkpt>
      <trkpt lat="28.211372884204" lon="-14.022137758377">
        <ele>0</ele>
        <time>2016-04-16T13:34:46Z</time>
      </trkpt>
      <trkpt lat="28.211500791998" lon="-14.02225736809">
        <ele>0</ele>
        <time>2016-04-16T13:35:05Z</time>
      </trkpt>
      <trkpt lat="28.211544964611" lon="-14.022451492894">
        <ele>0</ele>
        <time>2016-04-16T13:35:21Z</time>
      </trkpt>
      <trkpt lat="28.21157438508" lon="-14.022477895879">
        <ele>0</ele>
        <time>2016-04-16T13:35:23Z</time>
      </trkpt>
      <trkpt lat="28.211610930164" lon="-14.022516704076">
        <ele>0</ele>
        <time>2016-04-16T13:35:27Z</time>
      </trkpt>
      <trkpt lat="28.211619395883" lon="-14.022528271098">
        <ele>0</ele>
        <time>2016-04-16T13:35:28Z</time>
      </trkpt>
      <trkpt lat="28.211638590434" lon="-14.022536317722">
        <ele>0</ele>
        <time>2016-04-16T13:35:30Z</time>
      </trkpt>
      <trkpt lat="28.211655354234" lon="-14.022522906682">
        <ele>0</ele>
        <time>2016-04-16T13:35:33Z</time>
      </trkpt>
      <trkpt lat="28.212047208059" lon="-14.022077324878">
        <ele>0</ele>
        <time>2016-04-16T13:38:38Z</time>
      </trkpt>
      <trkpt lat="28.21211166487" lon="-14.02204446783">
        <ele>0</ele>
        <time>2016-04-16T13:38:42Z</time>
      </trkpt>
      <trkpt lat="28.212151395076" lon="-14.022022339614">
        <ele>0</ele>
        <time>2016-04-16T13:38:48Z</time>
      </trkpt>
      <trkpt lat="28.212291456625" lon="-14.021886636653">
        <ele>0</ele>
        <time>2016-04-16T13:39:11Z</time>
      </trkpt>
      <trkpt lat="28.212300844353" lon="-14.021872135966">
        <ele>0</ele>
        <time>2016-04-16T13:39:12Z</time>
      </trkpt>
      <trkpt lat="28.212310064443" lon="-14.021853779605">
        <ele>0</ele>
        <time>2016-04-16T13:39:14Z</time>
      </trkpt>
      <trkpt lat="28.212376868186" lon="-14.021790328622">
        <ele>0</ele>
        <time>2016-04-16T13:39:21Z</time>
      </trkpt>
      <trkpt lat="28.212397571479" lon="-14.021774403012">
        <ele>0</ele>
        <time>2016-04-16T13:39:24Z</time>
      </trkpt>
      <trkpt lat="28.212401259515" lon="-14.021759567049">
        <ele>0</ele>
        <time>2016-04-16T13:39:26Z</time>
      </trkpt>
      <trkpt lat="28.212518857572" lon="-14.021672982022">
        <ele>0</ele>
        <time>2016-04-16T13:39:39Z</time>
      </trkpt>
      <trkpt lat="28.212578704338" lon="-14.021624702278">
        <ele>0</ele>
        <time>2016-04-16T13:39:46Z</time>
      </trkpt>
      <trkpt lat="28.212580799813" lon="-14.02157591962">
        <ele>0</ele>
        <time>2016-04-16T13:39:49Z</time>
      </trkpt>
      <trkpt lat="28.212580799813" lon="-14.021556892707">
        <ele>0</ele>
        <time>2016-04-16T13:39:51Z</time>
      </trkpt>
      <trkpt lat="28.212637545276" lon="-14.02150132071">
        <ele>0</ele>
        <time>2016-04-16T13:39:58Z</time>
      </trkpt>
      <trkpt lat="28.212689429237" lon="-14.021449772025">
        <ele>0</ele>
        <time>2016-04-16T13:40:05Z</time>
      </trkpt>
      <trkpt lat="28.212751371478" lon="-14.021399983539">
        <ele>0</ele>
        <time>2016-04-16T13:40:09Z</time>
      </trkpt>
      <trkpt lat="28.212840135799" lon="-14.021372826183">
        <ele>0</ele>
        <time>2016-04-16T13:40:15Z</time>
      </trkpt>
      <trkpt lat="28.212855893771" lon="-14.021335023814">
        <ele>0</ele>
        <time>2016-04-16T13:40:18Z</time>
      </trkpt>
      <trkpt lat="28.212867628431" lon="-14.021303675508">
        <ele>0</ele>
        <time>2016-04-16T13:40:20Z</time>
      </trkpt>
      <trkpt lat="28.212891349208" lon="-14.021176354447">
        <ele>0</ele>
        <time>2016-04-16T13:40:29Z</time>
      </trkpt>
      <trkpt lat="28.213072482067" lon="-14.021146850159">
        <ele>0</ele>
        <time>2016-04-16T13:42:19Z</time>
      </trkpt>
      <trkpt lat="28.21312000744" lon="-14.021132433291">
        <ele>0</ele>
        <time>2016-04-16T13:42:24Z</time>
      </trkpt>
      <trkpt lat="28.213142470932" lon="-14.021091529619">
        <ele>0</ele>
        <time>2016-04-16T13:42:31Z</time>
      </trkpt>
      <trkpt lat="28.213285801422" lon="-14.021019780555">
        <ele>0</ele>
        <time>2016-04-16T13:42:50Z</time>
      </trkpt>
      <trkpt lat="28.213549747453" lon="-14.020953228269">
        <ele>0</ele>
        <time>2016-04-16T13:43:13Z</time>
      </trkpt>
      <trkpt lat="28.213729539208" lon="-14.020954737011">
        <ele>0</ele>
        <time>2016-04-16T13:43:30Z</time>
      </trkpt>
      <trkpt lat="28.213835318786" lon="-14.020943002351">
        <ele>0</ele>
        <time>2016-04-16T13:43:36Z</time>
      </trkpt>
      <trkpt lat="28.213904972375" lon="-14.020814926919">
        <ele>0</ele>
        <time>2016-04-16T13:43:49Z</time>
      </trkpt>
      <trkpt lat="28.213987617909" lon="-14.020767150089">
        <ele>0</ele>
        <time>2016-04-16T13:43:57Z</time>
      </trkpt>
      <trkpt lat="28.21404453101" lon="-14.020769832297">
        <ele>0</ele>
        <time>2016-04-16T13:44:02Z</time>
      </trkpt>
      <trkpt lat="28.214073783841" lon="-14.02074024419">
        <ele>0</ele>
        <time>2016-04-16T13:44:06Z</time>
      </trkpt>
      <trkpt lat="28.214264639704" lon="-14.020751392117">
        <ele>0</ele>
        <time>2016-04-16T13:44:20Z</time>
      </trkpt>
      <trkpt lat="28.214422051786" lon="-14.020738735448">
        <ele>0</ele>
        <time>2016-04-16T13:44:34Z</time>
      </trkpt>
      <trkpt lat="28.214574937642" lon="-14.02077209541">
        <ele>0</ele>
        <time>2016-04-16T13:44:48Z</time>
      </trkpt>
      <trkpt lat="28.214664288696" lon="-14.020725743503">
        <ele>0</ele>
        <time>2016-04-16T13:44:56Z</time>
      </trkpt>
      <trkpt lat="28.214730757163" lon="-14.020771424858">
        <ele>0</ele>
        <time>2016-04-16T13:45:18Z</time>
      </trkpt>
      <trkpt lat="28.214637215159" lon="-14.020781566957">
        <ele>0</ele>
        <time>2016-04-16T13:45:32Z</time>
      </trkpt>
      <trkpt lat="28.214617098599" lon="-14.020753068497">
        <ele>0</ele>
        <time>2016-04-16T13:45:35Z</time>
      </trkpt>
      <trkpt lat="28.21304289396" lon="-14.021071832154">
        <ele>0</ele>
        <time>2016-04-16T14:06:20Z</time>
      </trkpt>
      <trkpt lat="28.213032500404" lon="-14.021070071955">
        <ele>0</ele>
        <time>2016-04-16T14:06:21Z</time>
      </trkpt>
      <trkpt lat="28.21300349903" lon="-14.021067305928">
        <ele>0</ele>
        <time>2016-04-16T14:06:24Z</time>
      </trkpt>
      <trkpt lat="28.212961338073" lon="-14.021016679252">
        <ele>0</ele>
        <time>2016-04-16T14:06:28Z</time>
      </trkpt>
      <trkpt lat="28.212904844067" lon="-14.021063534073">
        <ele>0</ele>
        <time>2016-04-16T14:06:34Z</time>
      </trkpt>
      <trkpt lat="28.212877016159" lon="-14.021119022251">
        <ele>0</ele>
        <time>2016-04-16T14:06:40Z</time>
      </trkpt>
      <trkpt lat="28.212725052312" lon="-14.021220191784">
        <ele>0</ele>
        <time>2016-04-16T14:06:55Z</time>
      </trkpt>
      <trkpt lat="28.212716586593" lon="-14.021225053286">
        <ele>0</ele>
        <time>2016-04-16T14:06:56Z</time>
      </trkpt>
      <trkpt lat="28.212644586072" lon="-14.02124148181">
        <ele>0</ele>
        <time>2016-04-16T14:07:01Z</time>
      </trkpt>
      <trkpt lat="28.212633186688" lon="-14.021221868164">
        <ele>0</ele>
        <time>2016-04-16T14:07:03Z</time>
      </trkpt>
      <trkpt lat="28.212606532246" lon="-14.021216755205">
        <ele>0</ele>
        <time>2016-04-16T14:07:06Z</time>
      </trkpt>
      <trkpt lat="28.212421459894" lon="-14.021301077119">
        <ele>0</ele>
        <time>2016-04-16T14:07:22Z</time>
      </trkpt>
      <trkpt lat="28.212404276999" lon="-14.021308620829">
        <ele>0</ele>
        <time>2016-04-16T14:07:23Z</time>
      </trkpt>
      <trkpt lat="28.212337724713" lon="-14.021327312466">
        <ele>0</ele>
        <time>2016-04-16T14:08:18Z</time>
      </trkpt>
      <trkpt lat="28.212238483017" lon="-14.021211977522">
        <ele>0</ele>
        <time>2016-04-16T14:08:28Z</time>
      </trkpt>
      <trkpt lat="28.21221895319" lon="-14.021206194011">
        <ele>0</ele>
        <time>2016-04-16T14:08:30Z</time>
      </trkpt>
      <trkpt lat="28.212190706187" lon="-14.021088847411">
        <ele>0</ele>
        <time>2016-04-16T14:08:36Z</time>
      </trkpt>
      <trkpt lat="28.212183833029" lon="-14.020987342602">
        <ele>0</ele>
        <time>2016-04-16T14:08:42Z</time>
      </trkpt>
      <trkpt lat="28.212160531347" lon="-14.020946103654">
        <ele>0</ele>
        <time>2016-04-16T14:08:45Z</time>
      </trkpt>
      <trkpt lat="28.21206472623" lon="-14.020889106734">
        <ele>0</ele>
        <time>2016-04-16T14:08:52Z</time>
      </trkpt>
      <trkpt lat="28.212025834214" lon="-14.020881814481">
        <ele>0</ele>
        <time>2016-04-16T14:08:57Z</time>
      </trkpt>
      <trkpt lat="28.211881916991" lon="-14.020846023768">
        <ele>0</ele>
        <time>2016-04-16T14:09:13Z</time>
      </trkpt>
      <trkpt lat="28.211832882876" lon="-14.020654245896">
        <ele>0</ele>
        <time>2016-04-16T14:09:29Z</time>
      </trkpt>
      <trkpt lat="28.211870349969" lon="-14.020447380604">
        <ele>0</ele>
        <time>2016-04-16T14:09:45Z</time>
      </trkpt>
      <trkpt lat="28.211877474584" lon="-14.020421229076">
        <ele>0</ele>
        <time>2016-04-16T14:09:47Z</time>
      </trkpt>
      <trkpt lat="28.211899099886" lon="-14.020339924646">
        <ele>0</ele>
        <time>2016-04-16T14:09:55Z</time>
      </trkpt>
      <trkpt lat="28.211943523956" lon="-14.020303128105">
        <ele>0</ele>
        <time>2016-04-16T14:10:00Z</time>
      </trkpt>
      <trkpt lat="28.211964646344" lon="-14.02028845978">
        <ele>0</ele>
        <time>2016-04-16T14:10:03Z</time>
      </trkpt>
      <trkpt lat="28.21189205909" lon="-14.019430572315">
        <ele>0</ele>
        <time>2016-04-16T15:25:41Z</time>
      </trkpt>
      <trkpt lat="28.211976297185" lon="-14.019438283663">
        <ele>0</ele>
        <time>2016-04-16T15:25:49Z</time>
      </trkpt>
      <trkpt lat="28.212008316043" lon="-14.0194485934">
        <ele>0</ele>
        <time>2016-04-16T15:25:54Z</time>
      </trkpt>
      <trkpt lat="28.212008986595" lon="-14.019454712187">
        <ele>0</ele>
        <time>2016-04-16T15:25:55Z</time>
      </trkpt>
      <trkpt lat="28.212188945988" lon="-14.019490083805">
        <ele>0</ele>
        <time>2016-04-16T15:26:17Z</time>
      </trkpt>
      <trkpt lat="28.21237318015" lon="-14.019514894229">
        <ele>0</ele>
        <time>2016-04-16T15:26:33Z</time>
      </trkpt>
      <trkpt lat="28.212463872308" lon="-14.019519336636">
        <ele>0</ele>
        <time>2016-04-16T15:26:44Z</time>
      </trkpt>
      <trkpt lat="28.212563868375" lon="-14.019615560848">
        <ele>0</ele>
        <time>2016-04-16T15:31:32Z</time>
      </trkpt>
      <trkpt lat="28.212734691497" lon="-14.019499387714">
        <ele>0</ele>
        <time>2016-04-16T15:32:22Z</time>
      </trkpt>
      <trkpt lat="28.212912387777" lon="-14.019508272528">
        <ele>0</ele>
        <time>2016-04-16T15:32:36Z</time>
      </trkpt>
      <trkpt lat="28.213007606161" lon="-14.019516570609">
        <ele>0</ele>
        <time>2016-04-16T15:32:42Z</time>
      </trkpt>
      <trkpt lat="28.213016155699" lon="-14.019519252817">
        <ele>0</ele>
        <time>2016-04-16T15:32:44Z</time>
      </trkpt>
      <trkpt lat="28.213068961669" lon="-14.01953744154">
        <ele>0</ele>
        <time>2016-04-16T15:32:48Z</time>
      </trkpt>
      <trkpt lat="28.213082037433" lon="-14.01954749982">
        <ele>0</ele>
        <time>2016-04-16T15:32:50Z</time>
      </trkpt>
      <trkpt lat="28.213124114571" lon="-14.019559988851">
        <ele>0</ele>
        <time>2016-04-16T15:32:54Z</time>
      </trkpt>
      <trkpt lat="28.213184967165" lon="-14.019573818986">
        <ele>0</ele>
        <time>2016-04-16T15:33:00Z</time>
      </trkpt>
      <trkpt lat="28.21319712092" lon="-14.019589828415">
        <ele>0</ele>
        <time>2016-04-16T15:33:02Z</time>
      </trkpt>
      <trkpt lat="28.21354413158" lon="-14.019498130429">
        <ele>0</ele>
        <time>2016-04-16T15:33:32Z</time>
      </trkpt>
      <trkpt lat="28.213646055484" lon="-14.019480276982">
        <ele>0</ele>
        <time>2016-04-16T15:33:41Z</time>
      </trkpt>
      <trkpt lat="28.213926765315" lon="-14.019494777669">
        <ele>0</ele>
        <time>2016-04-16T15:33:57Z</time>
      </trkpt>
      <trkpt lat="28.214031036151" lon="-14.01952319231">
        <ele>0</ele>
        <time>2016-04-16T15:34:06Z</time>
      </trkpt>
      <trkpt lat="28.214054673109" lon="-14.019525455423">
        <ele>0</ele>
        <time>2016-04-16T15:34:09Z</time>
      </trkpt>
      <trkpt lat="28.21405626567" lon="-14.019526125975">
        <ele>0</ele>
        <time>2016-04-16T15:34:12Z</time>
      </trkpt>
      <trkpt lat="28.214130110209" lon="-14.019214067838">
        <ele>0</ele>
        <time>2016-04-16T15:35:59Z</time>
      </trkpt>
      <trkpt lat="28.214131116037" lon="-14.019085992406">
        <ele>0</ele>
        <time>2016-04-16T15:36:10Z</time>
      </trkpt>
      <trkpt lat="28.214257515089" lon="-14.018843923134">
        <ele>0</ele>
        <time>2016-04-16T15:37:33Z</time>
      </trkpt>
      <trkpt lat="28.214276961097" lon="-14.018777454667">
        <ele>0</ele>
        <time>2016-04-16T15:37:39Z</time>
      </trkpt>
      <trkpt lat="28.214272937785" lon="-14.018566566063">
        <ele>0</ele>
        <time>2016-04-16T15:37:54Z</time>
      </trkpt>
      <trkpt lat="28.214272853966" lon="-14.018507808944">
        <ele>0</ele>
        <time>2016-04-16T15:38:00Z</time>
      </trkpt>
      <trkpt lat="28.214275955269" lon="-14.018442933038">
        <ele>0</ele>
        <time>2016-04-16T15:38:07Z</time>
      </trkpt>
      <trkpt lat="28.214296742381" lon="-14.018435976061">
        <ele>0</ele>
        <time>2016-04-16T15:38:09Z</time>
      </trkpt>
      <trkpt lat="28.214387685996" lon="-14.018436143699">
        <ele>0</ele>
        <time>2016-04-16T15:38:16Z</time>
      </trkpt>
      <trkpt lat="28.214460524707" lon="-14.018439831735">
        <ele>0</ele>
        <time>2016-04-16T15:38:22Z</time>
      </trkpt>
      <trkpt lat="28.214496650696" lon="-14.018401526452">
        <ele>0</ele>
        <time>2016-04-16T15:38:26Z</time>
      </trkpt>
      <trkpt lat="28.214656912624" lon="-14.018309577009">
        <ele>0</ele>
        <time>2016-04-16T15:38:43Z</time>
      </trkpt>
      <trkpt lat="28.214668898741" lon="-14.018305888973">
        <ele>0</ele>
        <time>2016-04-16T15:38:44Z</time>
      </trkpt>
      <trkpt lat="28.214808792652" lon="-14.018325251162">
        <ele>0</ele>
        <time>2016-04-16T15:38:59Z</time>
      </trkpt>
      <trkpt lat="28.214832345791" lon="-14.018334387433">
        <ele>0</ele>
        <time>2016-04-16T15:39:02Z</time>
      </trkpt>
      <trkpt lat="28.214850785971" lon="-14.018341847324">
        <ele>0</ele>
        <time>2016-04-16T15:39:04Z</time>
      </trkpt>
      <trkpt lat="28.214885067942" lon="-14.018354923088">
        <ele>0</ele>
        <time>2016-04-16T15:39:07Z</time>
      </trkpt>
      <trkpt lat="28.215014735935" lon="-14.018418541709">
        <ele>0</ele>
        <time>2016-04-16T15:39:18Z</time>
      </trkpt>
      <trkpt lat="28.215189666188" lon="-14.018484088167">
        <ele>0</ele>
        <time>2016-04-16T15:39:34Z</time>
      </trkpt>
      <trkpt lat="28.215233838801" lon="-14.01850730603">
        <ele>0</ele>
        <time>2016-04-16T15:39:59Z</time>
      </trkpt>
      <trkpt lat="28.215393094901" lon="-14.018566482244">
        <ele>0</ele>
        <time>2016-04-16T15:40:21Z</time>
      </trkpt>
      <trkpt lat="28.215576155597" lon="-14.01862632901">
        <ele>0</ele>
        <time>2016-04-16T15:40:39Z</time>
      </trkpt>
      <trkpt lat="28.215619238563" lon="-14.018638231308">
        <ele>0</ele>
        <time>2016-04-16T15:40:43Z</time>
      </trkpt>
      <trkpt lat="28.215803556544" lon="-14.018666310673">
        <ele>0</ele>
        <time>2016-04-16T15:40:58Z</time>
      </trkpt>
      <trkpt lat="28.215934900917" lon="-14.018704196861">
        <ele>0</ele>
        <time>2016-04-16T15:41:08Z</time>
      </trkpt>
      <trkpt lat="28.216124834771" lon="-14.018735461348">
        <ele>0</ele>
        <time>2016-04-16T15:41:26Z</time>
      </trkpt>
      <trkpt lat="28.216311415865" lon="-14.018760020315">
        <ele>0</ele>
        <time>2016-04-16T15:41:41Z</time>
      </trkpt>
      <trkpt lat="28.216365060025" lon="-14.018765384731">
        <ele>0</ele>
        <time>2016-04-16T15:41:46Z</time>
      </trkpt>
      <trkpt lat="28.216552144033" lon="-14.0187780414">
        <ele>0</ele>
        <time>2016-04-16T15:42:02Z</time>
      </trkpt>
      <trkpt lat="28.216688601365" lon="-14.018798074141">
        <ele>0</ele>
        <time>2016-04-16T15:42:15Z</time>
      </trkpt>
      <trkpt lat="28.21676613394" lon="-14.018798409417">
        <ele>0</ele>
        <time>2016-04-16T15:42:31Z</time>
      </trkpt>
      <trkpt lat="28.216954056138" lon="-14.018811149905">
        <ele>0</ele>
        <time>2016-04-16T15:42:48Z</time>
      </trkpt>
      <trkpt lat="28.217135691911" lon="-14.018831182646">
        <ele>0</ele>
        <time>2016-04-16T15:43:04Z</time>
      </trkpt>
      <trkpt lat="28.217329062344" lon="-14.018841827659">
        <ele>0</ele>
        <time>2016-04-16T15:43:21Z</time>
      </trkpt>
      <trkpt lat="28.217519499112" lon="-14.018855825432">
        <ele>0</ele>
        <time>2016-04-16T15:43:37Z</time>
      </trkpt>
      <trkpt lat="28.217609101623" lon="-14.018861608943">
        <ele>0</ele>
        <time>2016-04-16T15:43:45Z</time>
      </trkpt>
      <trkpt lat="28.217637683902" lon="-14.018890861774">
        <ele>0</ele>
        <time>2016-04-16T15:43:49Z</time>
      </trkpt>
      <trkpt lat="28.217764753506" lon="-14.018903937538">
        <ele>0</ele>
        <time>2016-04-16T15:44:02Z</time>
      </trkpt>
      <trkpt lat="28.217935073714" lon="-14.018903602262">
        <ele>0</ele>
        <time>2016-04-16T15:44:23Z</time>
      </trkpt>
      <trkpt lat="28.218120229885" lon="-14.018916845664">
        <ele>0</ele>
        <time>2016-04-16T15:44:41Z</time>
      </trkpt>
      <trkpt lat="28.218301195106" lon="-14.018927071582">
        <ele>0</ele>
        <time>2016-04-16T15:44:56Z</time>
      </trkpt>
      <trkpt lat="28.218371435428" lon="-14.018927490677">
        <ele>0</ele>
        <time>2016-04-16T15:45:03Z</time>
      </trkpt>
      <trkpt lat="28.21842155919" lon="-14.018924054098">
        <ele>0</ele>
        <time>2016-04-16T15:45:08Z</time>
      </trkpt>
      <trkpt lat="28.218608810836" lon="-14.018944170658">
        <ele>0</ele>
        <time>2016-04-16T15:45:25Z</time>
      </trkpt>
      <trkpt lat="28.218712914034" lon="-14.01895238492">
        <ele>0</ele>
        <time>2016-04-16T15:45:34Z</time>
      </trkpt>
      <trkpt lat="28.21889346016" lon="-14.01897501605">
        <ele>0</ele>
        <time>2016-04-16T15:45:50Z</time>
      </trkpt>
      <trkpt lat="28.219078281055" lon="-14.018972417661">
        <ele>0</ele>
        <time>2016-04-16T15:46:07Z</time>
      </trkpt>
      <trkpt lat="28.219264526873" lon="-14.018955653861">
        <ele>0</ele>
        <time>2016-04-16T15:46:23Z</time>
      </trkpt>
      <trkpt lat="28.219452281433" lon="-14.018922545356">
        <ele>0</ele>
        <time>2016-04-16T15:46:39Z</time>
      </trkpt>
      <trkpt lat="28.219629558618" lon="-14.018879630028">
        <ele>0</ele>
        <time>2016-04-16T15:46:52Z</time>
      </trkpt>
      <trkpt lat="28.219668199177" lon="-14.018870074662">
        <ele>0</ele>
        <time>2016-04-16T15:46:55Z</time>
      </trkpt>
      <trkpt lat="28.21969225523" lon="-14.018863117685">
        <ele>0</ele>
        <time>2016-04-16T15:46:57Z</time>
      </trkpt>
      <trkpt lat="28.219731817798" lon="-14.018849958102">
        <ele>0</ele>
        <time>2016-04-16T15:47:01Z</time>
      </trkpt>
      <trkpt lat="28.219755370937" lon="-14.018841911478">
        <ele>0</ele>
        <time>2016-04-16T15:47:03Z</time>
      </trkpt>
      <trkpt lat="28.219873807184" lon="-14.01880737805">
        <ele>0</ele>
        <time>2016-04-16T15:47:13Z</time>
      </trkpt>
      <trkpt lat="28.219921584014" lon="-14.018795224295">
        <ele>0</ele>
        <time>2016-04-16T15:47:17Z</time>
      </trkpt>
      <trkpt lat="28.219957290908" lon="-14.018782399988">
        <ele>0</ele>
        <time>2016-04-16T15:47:20Z</time>
      </trkpt>
      <trkpt lat="28.219986040825" lon="-14.018776700296">
        <ele>0</ele>
        <time>2016-04-16T15:47:22Z</time>
      </trkpt>
      <trkpt lat="28.220167257503" lon="-14.018728839647">
        <ele>0</ele>
        <time>2016-04-16T15:47:37Z</time>
      </trkpt>
      <trkpt lat="28.220340092281" lon="-14.018651558529">
        <ele>0</ele>
        <time>2016-04-16T15:47:52Z</time>
      </trkpt>
      <trkpt lat="28.220463138573" lon="-14.01861375616">
        <ele>0</ele>
        <time>2016-04-16T15:48:04Z</time>
      </trkpt>
      <trkpt lat="28.220565565391" lon="-14.018445699065">
        <ele>0</ele>
        <time>2016-04-16T15:48:20Z</time>
      </trkpt>
      <trkpt lat="28.220609654185" lon="-14.018376380752">
        <ele>0</ele>
        <time>2016-04-16T15:48:27Z</time>
      </trkpt>
      <trkpt lat="28.22064527726" lon="-14.01836146097">
        <ele>0</ele>
        <time>2016-04-16T15:48:30Z</time>
      </trkpt>
      <trkpt lat="28.220817441486" lon="-14.018291555924">
        <ele>0</ele>
        <time>2016-04-16T15:48:44Z</time>
      </trkpt>
      <trkpt lat="28.220957503035" lon="-14.018162977578">
        <ele>0</ele>
        <time>2016-04-16T15:49:00Z</time>
      </trkpt>
      <trkpt lat="28.221068898486" lon="-14.017996513044">
        <ele>0</ele>
        <time>2016-04-16T15:49:16Z</time>
      </trkpt>
      <trkpt lat="28.221133355297" lon="-14.01792727855">
        <ele>0</ele>
        <time>2016-04-16T15:49:24Z</time>
      </trkpt>
      <trkpt lat="28.221170403295" lon="-14.017890146733">
        <ele>0</ele>
        <time>2016-04-16T15:49:28Z</time>
      </trkpt>
      <trkpt lat="28.221321864228" lon="-14.017761736025">
        <ele>0</ele>
        <time>2016-04-16T15:49:44Z</time>
      </trkpt>
      <trkpt lat="28.221413143119" lon="-14.01766157232">
        <ele>0</ele>
        <time>2016-04-16T15:49:55Z</time>
      </trkpt>
      <trkpt lat="28.221465529994" lon="-14.017600719726">
        <ele>0</ele>
        <time>2016-04-16T15:50:02Z</time>
      </trkpt>
      <trkpt lat="28.221605507724" lon="-14.017456048132">
        <ele>0</ele>
        <time>2016-04-16T15:50:18Z</time>
      </trkpt>
      <trkpt lat="28.221751939517" lon="-14.017321183361">
        <ele>0</ele>
        <time>2016-04-16T15:50:33Z</time>
      </trkpt>
      <trkpt lat="28.221894683274" lon="-14.01717626031">
        <ele>0</ele>
        <time>2016-04-16T15:50:49Z</time>
      </trkpt>
      <trkpt lat="28.221948327434" lon="-14.01707483932">
        <ele>0</ele>
        <time>2016-04-16T15:50:58Z</time>
      </trkpt>
      <trkpt lat="28.22196542651" lon="-14.017017339486">
        <ele>0</ele>
        <time>2016-04-16T15:51:03Z</time>
      </trkpt>
      <trkpt lat="28.222009515304" lon="-14.016979788574">
        <ele>0</ele>
        <time>2016-04-16T15:51:08Z</time>
      </trkpt>
      <trkpt lat="28.222044803103" lon="-14.016956067797">
        <ele>0</ele>
        <time>2016-04-16T15:51:12Z</time>
      </trkpt>
      <trkpt lat="28.22216407754" lon="-14.016863783078">
        <ele>0</ele>
        <time>2016-04-16T15:51:25Z</time>
      </trkpt>
      <trkpt lat="28.222174052001" lon="-14.016851377866">
        <ele>0</ele>
        <time>2016-04-16T15:51:27Z</time>
      </trkpt>
      <trkpt lat="28.222307575668" lon="-14.016707628281">
        <ele>0</ele>
        <time>2016-04-16T15:51:46Z</time>
      </trkpt>
      <trkpt lat="28.222541933592" lon="-14.016481316981">
        <ele>0</ele>
        <time>2016-04-16T15:52:19Z</time>
      </trkpt>
      <trkpt lat="28.222647964627" lon="-14.016368328969">
        <ele>0</ele>
        <time>2016-04-16T15:52:32Z</time>
      </trkpt>
      <trkpt lat="28.222787271805" lon="-14.016232961284">
        <ele>0</ele>
        <time>2016-04-16T15:52:49Z</time>
      </trkpt>
      <trkpt lat="28.22290000836" lon="-14.016127768439">
        <ele>0</ele>
        <time>2016-04-16T15:53:04Z</time>
      </trkpt>
      <trkpt lat="28.222914760504" lon="-14.016106059318">
        <ele>0</ele>
        <time>2016-04-16T15:53:07Z</time>
      </trkpt>
      <trkpt lat="28.223058845365" lon="-14.015967925606">
        <ele>0</ele>
        <time>2016-04-16T15:53:27Z</time>
      </trkpt>
      <trkpt lat="28.223125984384" lon="-14.01582425984">
        <ele>0</ele>
        <time>2016-04-16T15:53:41Z</time>
      </trkpt>
      <trkpt lat="28.223123637452" lon="-14.015737590994">
        <ele>0</ele>
        <time>2016-04-16T15:53:52Z</time>
      </trkpt>
      <trkpt lat="28.223217430913" lon="-14.015451097652">
        <ele>0</ele>
        <time>2016-04-16T15:54:23Z</time>
      </trkpt>
      <trkpt lat="28.223244588269" lon="-14.015332074672">
        <ele>0</ele>
        <time>2016-04-16T15:54:35Z</time>
      </trkpt>
      <trkpt lat="28.223290353443" lon="-14.015224534895">
        <ele>0</ele>
        <time>2016-04-16T15:54:45Z</time>
      </trkpt>
      <trkpt lat="28.223350451666" lon="-14.015018004879">
        <ele>0</ele>
        <time>2016-04-16T15:55:03Z</time>
      </trkpt>
      <trkpt lat="28.223388254035" lon="-14.014824382989">
        <ele>0</ele>
        <time>2016-04-16T15:55:23Z</time>
      </trkpt>
      <trkpt lat="28.223399988695" lon="-14.014779539824">
        <ele>0</ele>
        <time>2016-04-16T15:55:28Z</time>
      </trkpt>
      <trkpt lat="28.223403844369" lon="-14.014747353328">
        <ele>0</ele>
        <time>2016-04-16T15:55:31Z</time>
      </trkpt>
      <trkpt lat="28.223450783009" lon="-14.014537302914">
        <ele>0</ele>
        <time>2016-04-16T15:55:47Z</time>
      </trkpt>
      <trkpt lat="28.223497051097" lon="-14.014333874201">
        <ele>0</ele>
        <time>2016-04-16T15:56:03Z</time>
      </trkpt>
      <trkpt lat="28.223513060526" lon="-14.014125416348">
        <ele>0</ele>
        <time>2016-04-16T15:56:21Z</time>
      </trkpt>
      <trkpt lat="28.223503421341" lon="-14.014085686142">
        <ele>0</ele>
        <time>2016-04-16T15:56:24Z</time>
      </trkpt>
      <trkpt lat="28.223492524871" lon="-14.013873456434">
        <ele>0</ele>
        <time>2016-04-16T15:56:39Z</time>
      </trkpt>
      <trkpt lat="28.223494536527" lon="-14.013803635207">
        <ele>0</ele>
        <time>2016-04-16T15:56:44Z</time>
      </trkpt>
      <trkpt lat="28.223551198171" lon="-14.013604481263">
        <ele>0</ele>
        <time>2016-04-16T15:57:00Z</time>
      </trkpt>
      <trkpt lat="28.223614565335" lon="-14.013488559586">
        <ele>0</ele>
        <time>2016-04-16T15:57:09Z</time>
      </trkpt>
      <trkpt lat="28.22371472904" lon="-14.013310947125">
        <ele>0</ele>
        <time>2016-04-16T15:57:24Z</time>
      </trkpt>
      <trkpt lat="28.223824029016" lon="-14.013145907514">
        <ele>0</ele>
        <time>2016-04-16T15:57:40Z</time>
      </trkpt>
      <trkpt lat="28.223845654318" lon="-14.01312193528">
        <ele>0</ele>
        <time>2016-04-16T15:57:43Z</time>
      </trkpt>
      <trkpt lat="28.223880271565" lon="-14.012958739687">
        <ele>0</ele>
        <time>2016-04-16T16:03:09Z</time>
      </trkpt>
      <trkpt lat="28.223985799686" lon="-14.01295429728">
        <ele>0</ele>
        <time>2016-04-16T16:03:35Z</time>
      </trkpt>
      <trkpt lat="28.224009688101" lon="-14.012933593987">
        <ele>0</ele>
        <time>2016-04-16T16:03:39Z</time>
      </trkpt>
      <trkpt lat="28.224035085258" lon="-14.012924206259">
        <ele>0</ele>
        <time>2016-04-16T16:03:42Z</time>
      </trkpt>
      <trkpt lat="28.224070708333" lon="-14.012911130495">
        <ele>0</ele>
        <time>2016-04-16T16:03:47Z</time>
      </trkpt>
      <trkpt lat="28.22408017988" lon="-14.012909454115">
        <ele>0</ele>
        <time>2016-04-16T16:03:48Z</time>
      </trkpt>
      <trkpt lat="28.224116138231" lon="-14.012887074442">
        <ele>0</ele>
        <time>2016-04-16T16:03:52Z</time>
      </trkpt>
      <trkpt lat="28.224278411815" lon="-14.012784647624">
        <ele>0</ele>
        <time>2016-04-16T16:04:09Z</time>
      </trkpt>
      <trkpt lat="28.224328619396" lon="-14.012745755608">
        <ele>0</ele>
        <time>2016-04-16T16:04:16Z</time>
      </trkpt>
      <trkpt lat="28.224391316008" lon="-14.012723459754">
        <ele>0</ele>
        <time>2016-04-16T16:04:24Z</time>
      </trkpt>
      <trkpt lat="28.224561887673" lon="-14.012624637153">
        <ele>0</ele>
        <time>2016-04-16T16:04:39Z</time>
      </trkpt>
      <trkpt lat="28.224655597315" lon="-14.012572501735">
        <ele>0</ele>
        <time>2016-04-16T16:04:48Z</time>
      </trkpt>
      <trkpt lat="28.224827426265" lon="-14.012484994699">
        <ele>0</ele>
        <time>2016-04-16T16:05:03Z</time>
      </trkpt>
      <trkpt lat="28.224991962962" lon="-14.012396565654">
        <ele>0</ele>
        <time>2016-04-16T16:05:18Z</time>
      </trkpt>
      <trkpt lat="28.225149375044" lon="-14.012295312302">
        <ele>0</ele>
        <time>2016-04-16T16:05:30Z</time>
      </trkpt>
      <trkpt lat="28.225312151542" lon="-14.012191628199">
        <ele>0</ele>
        <time>2016-04-16T16:05:43Z</time>
      </trkpt>
      <trkpt lat="28.225476185325" lon="-14.0120892852">
        <ele>0</ele>
        <time>2016-04-16T16:05:57Z</time>
      </trkpt>
      <trkpt lat="28.225636866348" lon="-14.011978225025">
        <ele>0</ele>
        <time>2016-04-16T16:06:12Z</time>
      </trkpt>
      <trkpt lat="28.225782962865" lon="-14.011855262552">
        <ele>0</ele>
        <time>2016-04-16T16:06:27Z</time>
      </trkpt>
      <trkpt lat="28.225929394658" lon="-14.011725426921">
        <ele>0</ele>
        <time>2016-04-16T16:06:42Z</time>
      </trkpt>
      <trkpt lat="28.22603316258" lon="-14.011674716426">
        <ele>0</ele>
        <time>2016-04-16T16:06:50Z</time>
      </trkpt>
      <trkpt lat="28.226212619059" lon="-14.01160481138">
        <ele>0</ele>
        <time>2016-04-16T16:07:04Z</time>
      </trkpt>
      <trkpt lat="28.226381514344" lon="-14.011531469755">
        <ele>0</ele>
        <time>2016-04-16T16:07:22Z</time>
      </trkpt>
      <trkpt lat="28.226387465493" lon="-14.011527278805">
        <ele>0</ele>
        <time>2016-04-16T16:07:25Z</time>
      </trkpt>
      <trkpt lat="28.226399619248" lon="-14.011510682643">
        <ele>0</ele>
        <time>2016-04-16T16:07:48Z</time>
      </trkpt>
      <trkpt lat="28.226424429672" lon="-14.011496265775">
        <ele>0</ele>
        <time>2016-04-16T16:07:51Z</time>
      </trkpt>
      <trkpt lat="28.226465081887" lon="-14.011471958265">
        <ele>0</ele>
        <time>2016-04-16T16:07:56Z</time>
      </trkpt>
      <trkpt lat="28.226630121498" lon="-14.011382439573">
        <ele>0</ele>
        <time>2016-04-16T16:08:13Z</time>
      </trkpt>
      <trkpt lat="28.226796921308" lon="-14.01128294642">
        <ele>0</ele>
        <time>2016-04-16T16:08:27Z</time>
      </trkpt>
      <trkpt lat="28.226968331163" lon="-14.011201809628">
        <ele>0</ele>
        <time>2016-04-16T16:08:42Z</time>
      </trkpt>
      <trkpt lat="28.22714879347" lon="-14.011120505198">
        <ele>0</ele>
        <time>2016-04-16T16:08:56Z</time>
      </trkpt>
      <trkpt lat="28.227320035687" lon="-14.011034590723">
        <ele>0</ele>
        <time>2016-04-16T16:09:10Z</time>
      </trkpt>
      <trkpt lat="28.227505527134" lon="-14.01099628544">
        <ele>0</ele>
        <time>2016-04-16T16:09:25Z</time>
      </trkpt>
      <trkpt lat="28.227687330545" lon="-14.010970469188">
        <ele>0</ele>
        <time>2016-04-16T16:09:38Z</time>
      </trkpt>
      <trkpt lat="28.227784225309" lon="-14.010944233841">
        <ele>0</ele>
        <time>2016-04-16T16:09:47Z</time>
      </trkpt>
      <trkpt lat="28.22796602872" lon="-14.010934762294">
        <ele>0</ele>
        <time>2016-04-16T16:10:01Z</time>
      </trkpt>
      <trkpt lat="28.228327540067" lon="-14.010944904393">
        <ele>0</ele>
        <time>2016-04-16T16:10:29Z</time>
      </trkpt>
      <trkpt lat="28.228397948027" lon="-14.010942557461">
        <ele>0</ele>
        <time>2016-04-16T16:10:35Z</time>
      </trkpt>
      <trkpt lat="28.22858461294" lon="-14.01094767042">
        <ele>0</ele>
        <time>2016-04-16T16:10:50Z</time>
      </trkpt>
      <trkpt lat="28.228772032224" lon="-14.010945826402">
        <ele>0</ele>
        <time>2016-04-16T16:11:04Z</time>
      </trkpt>
      <trkpt lat="28.228844032745" lon="-14.010941719271">
        <ele>0</ele>
        <time>2016-04-16T16:11:09Z</time>
      </trkpt>
      <trkpt lat="28.228911171764" lon="-14.01093425938">
        <ele>0</ele>
        <time>2016-04-16T16:11:14Z</time>
      </trkpt>
      <trkpt lat="28.229092807537" lon="-14.010931828629">
        <ele>0</ele>
        <time>2016-04-16T16:11:29Z</time>
      </trkpt>
      <trkpt lat="28.229105548025" lon="-14.010933253552">
        <ele>0</ele>
        <time>2016-04-16T16:11:30Z</time>
      </trkpt>
      <trkpt lat="28.229258685338" lon="-14.01094515585">
        <ele>0</ele>
        <time>2016-04-16T16:11:43Z</time>
      </trkpt>
      <trkpt lat="28.229365219287" lon="-14.01093928852">
        <ele>0</ele>
        <time>2016-04-16T16:11:51Z</time>
      </trkpt>
      <trkpt lat="28.229391370815" lon="-14.01093845033">
        <ele>0</ele>
        <time>2016-04-16T16:11:53Z</time>
      </trkpt>
      <trkpt lat="28.229581472307" lon="-14.010950771723">
        <ele>0</ele>
        <time>2016-04-16T16:12:07Z</time>
      </trkpt>
      <trkpt lat="28.229775848568" lon="-14.010940797262">
        <ele>0</ele>
        <time>2016-04-16T16:12:21Z</time>
      </trkpt>
      <trkpt lat="28.2299625973" lon="-14.010946748411">
        <ele>0</ele>
        <time>2016-04-16T16:12:35Z</time>
      </trkpt>
      <trkpt lat="28.230146915281" lon="-14.01092252472">
        <ele>0</ele>
        <time>2016-04-16T16:12:49Z</time>
      </trkpt>
      <trkpt lat="28.230337016773" lon="-14.010898049572">
        <ele>0</ele>
        <time>2016-04-16T16:13:03Z</time>
      </trkpt>
      <trkpt lat="28.230527621179" lon="-14.01090995187">
        <ele>0</ele>
        <time>2016-04-16T16:13:18Z</time>
      </trkpt>
      <trkpt lat="28.230715627196" lon="-14.010892433699">
        <ele>0</ele>
        <time>2016-04-16T16:13:31Z</time>
      </trkpt>
      <trkpt lat="28.23089885553" lon="-14.010872149501">
        <ele>0</ele>
        <time>2016-04-16T16:13:46Z</time>
      </trkpt>
      <trkpt lat="28.230911596018" lon="-14.010869467293">
        <ele>0</ele>
        <time>2016-04-16T16:13:47Z</time>
      </trkpt>
      <trkpt lat="28.231098596207" lon="-14.010824121214">
        <ele>0</ele>
        <time>2016-04-16T16:14:01Z</time>
      </trkpt>
      <trkpt lat="28.231273777917" lon="-14.010768213941">
        <ele>0</ele>
        <time>2016-04-16T16:14:16Z</time>
      </trkpt>
      <trkpt lat="28.231366817007" lon="-14.010749522304">
        <ele>0</ele>
        <time>2016-04-16T16:14:23Z</time>
      </trkpt>
      <trkpt lat="28.231554068653" lon="-14.010705601148">
        <ele>0</ele>
        <time>2016-04-16T16:14:39Z</time>
      </trkpt>
      <trkpt lat="28.231728495992" lon="-14.010615998637">
        <ele>0</ele>
        <time>2016-04-16T16:14:55Z</time>
      </trkpt>
      <trkpt lat="28.231795299735" lon="-14.010596804086">
        <ele>0</ele>
        <time>2016-04-16T16:15:00Z</time>
      </trkpt>
      <trkpt lat="28.231885321341" lon="-14.010578783001">
        <ele>0</ele>
        <time>2016-04-16T16:15:08Z</time>
      </trkpt>
      <trkpt lat="28.232070393693" lon="-14.01052438447">
        <ele>0</ele>
        <time>2016-04-16T16:15:22Z</time>
      </trkpt>
      <trkpt lat="28.232174161615" lon="-14.010483983712">
        <ele>0</ele>
        <time>2016-04-16T16:15:31Z</time>
      </trkpt>
      <trkpt lat="28.232364682202" lon="-14.010436458339">
        <ele>0</ele>
        <time>2016-04-16T16:15:47Z</time>
      </trkpt>
      <trkpt lat="28.23254338431" lon="-14.010372085347">
        <ele>0</ele>
        <time>2016-04-16T16:16:03Z</time>
      </trkpt>
      <trkpt lat="28.232730635956" lon="-14.010313747323">
        <ele>0</ele>
        <time>2016-04-16T16:16:18Z</time>
      </trkpt>
      <trkpt lat="28.232906991132" lon="-14.010271083452">
        <ele>0</ele>
        <time>2016-04-16T16:16:31Z</time>
      </trkpt>
      <trkpt lat="28.233090051828" lon="-14.010209308849">
        <ele>0</ele>
        <time>2016-04-16T16:16:46Z</time>
      </trkpt>
      <trkpt lat="28.233210080636" lon="-14.010171255023">
        <ele>0</ele>
        <time>2016-04-16T16:16:55Z</time>
      </trkpt>
      <trkpt lat="28.233381071396" lon="-14.010088274213">
        <ele>0</ele>
        <time>2016-04-16T16:17:10Z</time>
      </trkpt>
      <trkpt lat="28.23351149376" lon="-14.010018285348">
        <ele>0</ele>
        <time>2016-04-16T16:17:21Z</time>
      </trkpt>
      <trkpt lat="28.233664379616" lon="-14.009903118042">
        <ele>0</ele>
        <time>2016-04-16T16:17:37Z</time>
      </trkpt>
      <trkpt lat="28.233788599374" lon="-14.009738581345">
        <ele>0</ele>
        <time>2016-04-16T16:17:54Z</time>
      </trkpt>
      <trkpt lat="28.233912819132" lon="-14.009573960829">
        <ele>0</ele>
        <time>2016-04-16T16:18:09Z</time>
      </trkpt>
      <trkpt lat="28.233941569049" lon="-14.009544456541">
        <ele>0</ele>
        <time>2016-04-16T16:18:12Z</time>
      </trkpt>
      <trkpt lat="28.234064028608" lon="-14.009386373907">
        <ele>0</ele>
        <time>2016-04-16T16:18:27Z</time>
      </trkpt>
      <trkpt lat="28.23418120757" lon="-14.009228458911">
        <ele>0</ele>
        <time>2016-04-16T16:18:42Z</time>
      </trkpt>
      <trkpt lat="28.234315401789" lon="-14.009074483408">
        <ele>0</ele>
        <time>2016-04-16T16:18:59Z</time>
      </trkpt>
      <trkpt lat="28.23443182638" lon="-14.00890332501">
        <ele>0</ele>
        <time>2016-04-16T16:19:14Z</time>
      </trkpt>
      <trkpt lat="28.234536767768" lon="-14.008735938467">
        <ele>0</ele>
        <time>2016-04-16T16:19:28Z</time>
      </trkpt>
      <trkpt lat="28.234659730241" lon="-14.008583806982">
        <ele>0</ele>
        <time>2016-04-16T16:19:42Z</time>
      </trkpt>
      <trkpt lat="28.234683618656" lon="-14.008533850858">
        <ele>0</ele>
        <time>2016-04-16T16:19:46Z</time>
      </trkpt>
      <trkpt lat="28.234716894799" lon="-14.008450870048">
        <ele>0</ele>
        <time>2016-04-16T16:19:52Z</time>
      </trkpt>
      <trkpt lat="28.234771796244" lon="-14.008264288954">
        <ele>0</ele>
        <time>2016-04-16T16:20:04Z</time>
      </trkpt>
      <trkpt lat="28.234802809274" lon="-14.008099333162">
        <ele>0</ele>
        <time>2016-04-16T16:20:15Z</time>
      </trkpt>
      <trkpt lat="28.234926945213" lon="-14.007947620772">
        <ele>0</ele>
        <time>2016-04-16T16:20:29Z</time>
      </trkpt>
      <trkpt lat="28.235059043957" lon="-14.007866148704">
        <ele>0</ele>
        <time>2016-04-16T16:20:40Z</time>
      </trkpt>
      <trkpt lat="28.235209750519" lon="-14.007747963914">
        <ele>0</ele>
        <time>2016-04-16T16:20:54Z</time>
      </trkpt>
      <trkpt lat="28.235239757721" lon="-14.007727679716">
        <ele>0</ele>
        <time>2016-04-16T16:20:57Z</time>
      </trkpt>
      <trkpt lat="28.235388117351" lon="-14.007596922076">
        <ele>0</ele>
        <time>2016-04-16T16:21:13Z</time>
      </trkpt>
      <trkpt lat="28.235527005434" lon="-14.007450657921">
        <ele>0</ele>
        <time>2016-04-16T16:21:28Z</time>
      </trkpt>
      <trkpt lat="28.235658768902" lon="-14.007300202816">
        <ele>0</ele>
        <time>2016-04-16T16:21:40Z</time>
      </trkpt>
      <trkpt lat="28.235700091669" lon="-14.00721269578">
        <ele>0</ele>
        <time>2016-04-16T16:21:47Z</time>
      </trkpt>
      <trkpt lat="28.235819198468" lon="-14.007051176567">
        <ele>0</ele>
        <time>2016-04-16T16:22:01Z</time>
      </trkpt>
      <trkpt lat="28.235903771839" lon="-14.006868534966">
        <ele>0</ele>
        <time>2016-04-16T16:22:16Z</time>
      </trkpt>
      <trkpt lat="28.235994799273" lon="-14.006679355483">
        <ele>0</ele>
        <time>2016-04-16T16:22:30Z</time>
      </trkpt>
      <trkpt lat="28.235999576956" lon="-14.006663094597">
        <ele>0</ele>
        <time>2016-04-16T16:22:31Z</time>
      </trkpt>
      <trkpt lat="28.236081551938" lon="-14.006475759132">
        <ele>0</ele>
        <time>2016-04-16T16:22:45Z</time>
      </trkpt>
      <trkpt lat="28.236093705693" lon="-14.006436280383">
        <ele>0</ele>
        <time>2016-04-16T16:22:48Z</time>
      </trkpt>
      <trkpt lat="28.236161179988" lon="-14.006269061478">
        <ele>0</ele>
        <time>2016-04-16T16:23:11Z</time>
      </trkpt>
      <trkpt lat="28.236173752838" lon="-14.006066387136">
        <ele>0</ele>
        <time>2016-04-16T16:23:23Z</time>
      </trkpt>
      <trkpt lat="28.236151959898" lon="-14.0058531516">
        <ele>0</ele>
        <time>2016-04-16T16:23:37Z</time>
      </trkpt>
      <trkpt lat="28.236152714269" lon="-14.005650980172">
        <ele>0</ele>
        <time>2016-04-16T16:23:52Z</time>
      </trkpt>
      <trkpt lat="28.236151624622" lon="-14.005638155865">
        <ele>0</ele>
        <time>2016-04-16T16:23:53Z</time>
      </trkpt>
      <trkpt lat="28.236121282144" lon="-14.005426848166">
        <ele>0</ele>
        <time>2016-04-16T16:24:07Z</time>
      </trkpt>
      <trkpt lat="28.236105356534" lon="-14.005337329474">
        <ele>0</ele>
        <time>2016-04-16T16:24:13Z</time>
      </trkpt>
      <trkpt lat="28.236092029313" lon="-14.005293911232">
        <ele>0</ele>
        <time>2016-04-16T16:24:16Z</time>
      </trkpt>
      <trkpt lat="28.236048527252" lon="-14.005149574914">
        <ele>0</ele>
        <time>2016-04-16T16:24:26Z</time>
      </trkpt>
      <trkpt lat="28.235973090152" lon="-14.004951845893">
        <ele>0</ele>
        <time>2016-04-16T16:24:42Z</time>
      </trkpt>
      <trkpt lat="28.235949620832" lon="-14.004899039923">
        <ele>0</ele>
        <time>2016-04-16T16:24:47Z</time>
      </trkpt>
      <trkpt lat="28.235886756582" lon="-14.004765600075">
        <ele>0</ele>
        <time>2016-04-16T16:24:58Z</time>
      </trkpt>
      <trkpt lat="28.235878290863" lon="-14.004753278682">
        <ele>0</ele>
        <time>2016-04-16T16:25:00Z</time>
      </trkpt>
      <trkpt lat="28.235803272858" lon="-14.004560494982">
        <ele>0</ele>
        <time>2016-04-16T16:25:16Z</time>
      </trkpt>
      <trkpt lat="28.235779803538" lon="-14.004504420071">
        <ele>0</ele>
        <time>2016-04-16T16:25:21Z</time>
      </trkpt>
      <trkpt lat="28.235685507163" lon="-14.004326723791">
        <ele>0</ele>
        <time>2016-04-16T16:25:36Z</time>
      </trkpt>
      <trkpt lat="28.235610070063" lon="-14.004195463237">
        <ele>0</ele>
        <time>2016-04-16T16:25:49Z</time>
      </trkpt>
      <trkpt lat="28.23551560605" lon="-14.004013073093">
        <ele>0</ele>
        <time>2016-04-16T16:26:03Z</time>
      </trkpt>
      <trkpt lat="28.235493896929" lon="-14.003955908535">
        <ele>0</ele>
        <time>2016-04-16T16:26:07Z</time>
      </trkpt>
      <trkpt lat="28.235462716261" lon="-14.003901258547">
        <ele>0</ele>
        <time>2016-04-16T16:26:11Z</time>
      </trkpt>
      <trkpt lat="28.235438408751" lon="-14.003846692378">
        <ele>0</ele>
        <time>2016-04-16T16:26:16Z</time>
      </trkpt>
      <trkpt lat="28.235428685747" lon="-14.003810231113">
        <ele>0</ele>
        <time>2016-04-16T16:26:19Z</time>
      </trkpt>
      <trkpt lat="28.235380825098" lon="-14.003651561746">
        <ele>0</ele>
        <time>2016-04-16T16:26:32Z</time>
      </trkpt>
      <trkpt lat="28.235302957247" lon="-14.003466489394">
        <ele>0</ele>
        <time>2016-04-16T16:26:45Z</time>
      </trkpt>
      <trkpt lat="28.235239254807" lon="-14.003272616047">
        <ele>0</ele>
        <time>2016-04-16T16:26:59Z</time>
      </trkpt>
      <trkpt lat="28.235221568998" lon="-14.003220145353">
        <ele>0</ele>
        <time>2016-04-16T16:27:04Z</time>
      </trkpt>
      <trkpt lat="28.235114615954" lon="-14.00303850958">
        <ele>0</ele>
        <time>2016-04-16T16:27:19Z</time>
      </trkpt>
      <trkpt lat="28.235047225478" lon="-14.002920995342">
        <ele>0</ele>
        <time>2016-04-16T16:27:28Z</time>
      </trkpt>
      <trkpt lat="28.234955443673" lon="-14.002740365397">
        <ele>0</ele>
        <time>2016-04-16T16:27:43Z</time>
      </trkpt>
      <trkpt lat="28.23488528717" lon="-14.002569626094">
        <ele>0</ele>
        <time>2016-04-16T16:27:57Z</time>
      </trkpt>
      <trkpt lat="28.234869613017" lon="-14.002519837608">
        <ele>0</ele>
        <time>2016-04-16T16:28:01Z</time>
      </trkpt>
      <trkpt lat="28.234784452913" lon="-14.002330322849">
        <ele>0</ele>
        <time>2016-04-16T16:28:16Z</time>
      </trkpt>
      <trkpt lat="28.234774059357" lon="-14.002307775538">
        <ele>0</ele>
        <time>2016-04-16T16:28:18Z</time>
      </trkpt>
      <trkpt lat="28.234752685512" lon="-14.002226890203">
        <ele>0</ele>
        <time>2016-04-16T16:28:27Z</time>
      </trkpt>
      <trkpt lat="28.234725947251" lon="-14.002164445048">
        <ele>0</ele>
        <time>2016-04-16T16:28:32Z</time>
      </trkpt>
      <trkpt lat="28.234636177102" lon="-14.00198574294">
        <ele>0</ele>
        <time>2016-04-16T16:28:48Z</time>
      </trkpt>
      <trkpt lat="28.234579599277" lon="-14.001883316122">
        <ele>0</ele>
        <time>2016-04-16T16:28:57Z</time>
      </trkpt>
      <trkpt lat="28.234497037562" lon="-14.001698998141">
        <ele>0</ele>
        <time>2016-04-16T16:29:11Z</time>
      </trkpt>
      <trkpt lat="28.234440795013" lon="-14.001496994351">
        <ele>0</ele>
        <time>2016-04-16T16:29:26Z</time>
      </trkpt>
      <trkpt lat="28.234418080064" lon="-14.001435722662">
        <ele>0</ele>
        <time>2016-04-16T16:29:31Z</time>
      </trkpt>
      <trkpt lat="28.234403998472" lon="-14.001416025197">
        <ele>0</ele>
        <time>2016-04-16T16:29:34Z</time>
      </trkpt>
      <trkpt lat="28.23429436322" lon="-14.001247884283">
        <ele>0</ele>
        <time>2016-04-16T16:29:50Z</time>
      </trkpt>
      <trkpt lat="28.23421054422" lon="-14.001055938773">
        <ele>0</ele>
        <time>2016-04-16T16:30:05Z</time>
      </trkpt>
      <trkpt lat="28.234178273905" lon="-14.000970862488">
        <ele>0</ele>
        <time>2016-04-16T16:30:11Z</time>
      </trkpt>
      <trkpt lat="28.234082887883" lon="-14.00077958753">
        <ele>0</ele>
        <time>2016-04-16T16:30:25Z</time>
      </trkpt>
      <trkpt lat="28.233997392503" lon="-14.000592503522">
        <ele>0</ele>
        <time>2016-04-16T16:30:39Z</time>
      </trkpt>
      <trkpt lat="28.233999236521" lon="-14.000573728066">
        <ele>0</ele>
        <time>2016-04-16T16:30:41Z</time>
      </trkpt>
      <trkpt lat="28.233999655616" lon="-14.000546319253">
        <ele>0</ele>
        <time>2016-04-16T16:30:44Z</time>
      </trkpt>
      <trkpt lat="28.233964870731" lon="-14.000496949862">
        <ele>0</ele>
        <time>2016-04-16T16:30:55Z</time>
      </trkpt>
      <trkpt lat="28.233941149954" lon="-14.000458896036">
        <ele>0</ele>
        <time>2016-04-16T16:30:59Z</time>
      </trkpt>
      <trkpt lat="28.233912819132" lon="-14.000255970237">
        <ele>0</ele>
        <time>2016-04-16T16:31:15Z</time>
      </trkpt>
      <trkpt lat="28.233890104183" lon="-14.000143904234">
        <ele>0</ele>
        <time>2016-04-16T16:31:28Z</time>
      </trkpt>
      <trkpt lat="28.233870658175" lon="-14.000137366352">
        <ele>0</ele>
        <time>2016-04-16T16:31:30Z</time>
      </trkpt>
      <trkpt lat="28.233838806955" lon="-14.000079028328">
        <ele>0</ele>
        <time>2016-04-16T16:31:36Z</time>
      </trkpt>
      <trkpt lat="28.233751886652" lon="-13.999982049745">
        <ele>0</ele>
        <time>2016-04-16T16:31:44Z</time>
      </trkpt>
      <trkpt lat="28.233661948865" lon="-13.999814076469">
        <ele>0</ele>
        <time>2016-04-16T16:31:58Z</time>
      </trkpt>
      <trkpt lat="28.233627499256" lon="-13.999737046808">
        <ele>0</ele>
        <time>2016-04-16T16:32:03Z</time>
      </trkpt>
      <trkpt lat="28.23360788561" lon="-13.99968826415">
        <ele>0</ele>
        <time>2016-04-16T16:32:06Z</time>
      </trkpt>
      <trkpt lat="28.233546446283" lon="-13.99952314072">
        <ele>0</ele>
        <time>2016-04-16T16:32:23Z</time>
      </trkpt>
      <trkpt lat="28.23355256507" lon="-13.999505203454">
        <ele>0</ele>
        <time>2016-04-16T16:32:25Z</time>
      </trkpt>
      <trkpt lat="28.233517528728" lon="-13.999468155456">
        <ele>0</ele>
        <time>2016-04-16T16:32:30Z</time>
      </trkpt>
      <trkpt lat="28.233449802976" lon="-13.999310659555">
        <ele>0</ele>
        <time>2016-04-16T16:32:42Z</time>
      </trkpt>
      <trkpt lat="28.233404708354" lon="-13.999221559958">
        <ele>0</ele>
        <time>2016-04-16T16:32:50Z</time>
      </trkpt>
      <trkpt lat="28.23335139947" lon="-13.999093400707">
        <ele>0</ele>
        <time>2016-04-16T16:32:59Z</time>
      </trkpt>
      <trkpt lat="28.233301191889" lon="-13.998995583934">
        <ele>0</ele>
        <time>2016-04-16T16:33:06Z</time>
      </trkpt>
      <trkpt lat="28.233247044815" lon="-13.998883350293">
        <ele>0</ele>
        <time>2016-04-16T16:33:14Z</time>
      </trkpt>
      <trkpt lat="28.233214187767" lon="-13.998769943186">
        <ele>0</ele>
        <time>2016-04-16T16:33:22Z</time>
      </trkpt>
      <trkpt lat="28.23317957052" lon="-13.998714538827">
        <ele>0</ele>
        <time>2016-04-16T16:33:28Z</time>
      </trkpt>
      <trkpt lat="28.233147635481" lon="-13.998562155885">
        <ele>0</ele>
        <time>2016-04-16T16:33:40Z</time>
      </trkpt>
      <trkpt lat="28.233137241925" lon="-13.998552600519">
        <ele>0</ele>
        <time>2016-04-16T16:33:42Z</time>
      </trkpt>
      <trkpt lat="28.23312089722" lon="-13.998515049607">
        <ele>0</ele>
        <time>2016-04-16T16:33:45Z</time>
      </trkpt>
      <trkpt lat="28.233073539485" lon="-13.998435756833">
        <ele>0</ele>
        <time>2016-04-16T16:33:50Z</time>
      </trkpt>
      <trkpt lat="28.232975303617" lon="-13.998268286471">
        <ele>0</ele>
        <time>2016-04-16T16:34:01Z</time>
      </trkpt>
      <trkpt lat="28.232929035529" lon="-13.998178851598">
        <ele>0</ele>
        <time>2016-04-16T16:34:08Z</time>
      </trkpt>
      <trkpt lat="28.232850413307" lon="-13.99798506207">
        <ele>0</ele>
        <time>2016-04-16T16:34:24Z</time>
      </trkpt>
      <trkpt lat="28.232758547683" lon="-13.997802252831">
        <ele>0</ele>
        <time>2016-04-16T16:34:39Z</time>
      </trkpt>
      <trkpt lat="28.232718063106" lon="-13.997706028619">
        <ele>0</ele>
        <time>2016-04-16T16:34:46Z</time>
      </trkpt>
      <trkpt lat="28.232638183599" lon="-13.997521040086">
        <ele>0</ele>
        <time>2016-04-16T16:35:00Z</time>
      </trkpt>
      <trkpt lat="28.232632986821" lon="-13.997507964322">
        <ele>0</ele>
        <time>2016-04-16T16:35:01Z</time>
      </trkpt>
      <trkpt lat="28.232549754554" lon="-13.997316521726">
        <ele>0</ele>
        <time>2016-04-16T16:35:18Z</time>
      </trkpt>
      <trkpt lat="28.232500468982" lon="-13.997033464963">
        <ele>0</ele>
        <time>2016-04-16T16:35:46Z</time>
      </trkpt>
      <trkpt lat="28.232338614493" lon="-13.99691636982">
        <ele>0</ele>
        <time>2016-04-16T16:36:01Z</time>
      </trkpt>
      <trkpt lat="28.232308774929" lon="-13.996852248285">
        <ele>0</ele>
        <time>2016-04-16T16:36:06Z</time>
      </trkpt>
      <trkpt lat="28.232240378625" lon="-13.99666323644">
        <ele>0</ele>
        <time>2016-04-16T16:36:21Z</time>
      </trkpt>
      <trkpt lat="28.232174915986" lon="-13.996464920686">
        <ele>0</ele>
        <time>2016-04-16T16:36:35Z</time>
      </trkpt>
      <trkpt lat="28.232108782795" lon="-13.99626509619">
        <ele>0</ele>
        <time>2016-04-16T16:36:49Z</time>
      </trkpt>
      <trkpt lat="28.232072740625" lon="-13.996193598583">
        <ele>0</ele>
        <time>2016-04-16T16:36:55Z</time>
      </trkpt>
      <trkpt lat="28.231986071779" lon="-13.996000563426">
        <ele>0</ele>
        <time>2016-04-16T16:37:10Z</time>
      </trkpt>
      <trkpt lat="28.231981042639" lon="-13.995985559825">
        <ele>0</ele>
        <time>2016-04-16T16:37:11Z</time>
      </trkpt>
      <trkpt lat="28.231886075712" lon="-13.995806354803">
        <ele>0</ele>
        <time>2016-04-16T16:37:26Z</time>
      </trkpt>
      <trkpt lat="28.231868222265" lon="-13.995772659565">
        <ele>0</ele>
        <time>2016-04-16T16:37:29Z</time>
      </trkpt>
      <trkpt lat="28.231818433779" lon="-13.995666796168">
        <ele>0</ele>
        <time>2016-04-16T16:37:39Z</time>
      </trkpt>
      <trkpt lat="28.231759844298" lon="-13.995570655775">
        <ele>0</ele>
        <time>2016-04-16T16:37:47Z</time>
      </trkpt>
      <trkpt lat="28.231734866236" lon="-13.995477868142">
        <ele>0</ele>
        <time>2016-04-16T16:37:55Z</time>
      </trkpt>
      <trkpt lat="28.231691280356" lon="-13.995261615122">
        <ele>0</ele>
        <time>2016-04-16T16:38:13Z</time>
      </trkpt>
      <trkpt lat="28.231556750861" lon="-13.995107220524">
        <ele>0</ele>
        <time>2016-04-16T16:38:27Z</time>
      </trkpt>
      <trkpt lat="28.231472680404" lon="-13.994917035213">
        <ele>0</ele>
        <time>2016-04-16T16:38:42Z</time>
      </trkpt>
      <trkpt lat="28.231450636007" lon="-13.994858529551">
        <ele>0</ele>
        <time>2016-04-16T16:38:45Z</time>
      </trkpt>
      <trkpt lat="28.231347706275" lon="-13.994688041705">
        <ele>0</ele>
        <time>2016-04-16T16:38:59Z</time>
      </trkpt>
      <trkpt lat="28.231256175927" lon="-13.994502298801">
        <ele>0</ele>
        <time>2016-04-16T16:39:14Z</time>
      </trkpt>
      <trkpt lat="28.231209069649" lon="-13.99438922697">
        <ele>0</ele>
        <time>2016-04-16T16:39:23Z</time>
      </trkpt>
      <trkpt lat="28.231121059699" lon="-13.99420063422">
        <ele>0</ele>
        <time>2016-04-16T16:39:39Z</time>
      </trkpt>
      <trkpt lat="28.231040928735" lon="-13.994034504962">
        <ele>0</ele>
        <time>2016-04-16T16:39:52Z</time>
      </trkpt>
      <trkpt lat="28.230968006205" lon="-13.993843816737">
        <ele>0</ele>
        <time>2016-04-16T16:40:07Z</time>
      </trkpt>
      <trkpt lat="28.230902292109" lon="-13.993654050521">
        <ele>0</ele>
        <time>2016-04-16T16:40:21Z</time>
      </trkpt>
      <trkpt lat="28.230897262969" lon="-13.993622031663">
        <ele>0</ele>
        <time>2016-04-16T16:40:23Z</time>
      </trkpt>
      <trkpt lat="28.230839679316" lon="-13.993426230479">
        <ele>0</ele>
        <time>2016-04-16T16:40:37Z</time>
      </trkpt>
      <trkpt lat="28.230744963846" lon="-13.993235626073">
        <ele>0</ele>
        <time>2016-04-16T16:40:52Z</time>
      </trkpt>
      <trkpt lat="28.230733313005" lon="-13.993193046021">
        <ele>0</ele>
        <time>2016-04-16T16:40:55Z</time>
      </trkpt>
      <trkpt lat="28.230724847286" lon="-13.993104365519">
        <ele>0</ele>
        <time>2016-04-16T16:41:02Z</time>
      </trkpt>
      <trkpt lat="28.230707580572" lon="-13.993009482411">
        <ele>0</ele>
        <time>2016-04-16T16:41:09Z</time>
      </trkpt>
      <trkpt lat="28.23069601355" lon="-13.992884256825">
        <ele>0</ele>
        <time>2016-04-16T16:41:17Z</time>
      </trkpt>
      <trkpt lat="28.230682015777" lon="-13.992678564999">
        <ele>0</ele>
        <time>2016-04-16T16:41:31Z</time>
      </trkpt>
      <trkpt lat="28.230652930584" lon="-13.992492989733">
        <ele>0</ele>
        <time>2016-04-16T16:41:43Z</time>
      </trkpt>
      <trkpt lat="28.230634993318" lon="-13.99228369369">
        <ele>0</ele>
        <time>2016-04-16T16:41:58Z</time>
      </trkpt>
      <trkpt lat="28.230668018004" lon="-13.992075068199">
        <ele>0</ele>
        <time>2016-04-16T16:42:15Z</time>
      </trkpt>
      <trkpt lat="28.230703808717" lon="-13.991868622002">
        <ele>0</ele>
        <time>2016-04-16T16:42:29Z</time>
      </trkpt>
      <trkpt lat="28.230746640226" lon="-13.991654129181">
        <ele>0</ele>
        <time>2016-04-16T16:42:44Z</time>
      </trkpt>
      <trkpt lat="28.230747310778" lon="-13.991573662941">
        <ele>0</ele>
        <time>2016-04-16T16:42:50Z</time>
      </trkpt>
      <trkpt lat="28.230790142287" lon="-13.991361181776">
        <ele>0</ele>
        <time>2016-04-16T16:43:07Z</time>
      </trkpt>
      <trkpt lat="28.230811516132" lon="-13.991266298668">
        <ele>0</ele>
        <time>2016-04-16T16:43:14Z</time>
      </trkpt>
      <trkpt lat="28.230855353469" lon="-13.991062953774">
        <ele>0</ele>
        <time>2016-04-16T16:43:29Z</time>
      </trkpt>
      <trkpt lat="28.230792656857" lon="-13.990865895305">
        <ele>0</ele>
        <time>2016-04-16T16:43:43Z</time>
      </trkpt>
      <trkpt lat="28.230674136791" lon="-13.990709153775">
        <ele>0</ele>
        <time>2016-04-16T16:43:57Z</time>
      </trkpt>
      <trkpt lat="28.230585121013" lon="-13.990568840769">
        <ele>0</ele>
        <time>2016-04-16T16:44:10Z</time>
      </trkpt>
      <trkpt lat="28.230554610897" lon="-13.990548724209">
        <ele>0</ele>
        <time>2016-04-16T16:44:13Z</time>
      </trkpt>
      <trkpt lat="28.230422260696" lon="-13.990448811961">
        <ele>0</ele>
        <time>2016-04-16T16:44:28Z</time>
      </trkpt>
      <trkpt lat="28.230410526036" lon="-13.990407237737">
        <ele>0</ele>
        <time>2016-04-16T16:44:33Z</time>
      </trkpt>
      <trkpt lat="28.230420081402" lon="-13.990387037358">
        <ele>0</ele>
        <time>2016-04-16T16:44:35Z</time>
      </trkpt>
      <trkpt lat="28.230461404169" lon="-13.990335572492">
        <ele>0</ele>
        <time>2016-04-16T16:44:40Z</time>
      </trkpt>
      <trkpt lat="28.230496691968" lon="-13.990301206702">
        <ele>0</ele>
        <time>2016-04-16T16:44:44Z</time>
      </trkpt>
      <trkpt lat="28.230550922861" lon="-13.990241359936">
        <ele>0</ele>
        <time>2016-04-16T16:44:50Z</time>
      </trkpt>
      <trkpt lat="28.23056777048" lon="-13.990192912554">
        <ele>0</ele>
        <time>2016-04-16T16:44:54Z</time>
      </trkpt>
      <trkpt lat="28.230534661975" lon="-13.989979341742">
        <ele>0</ele>
        <time>2016-04-16T16:45:10Z</time>
      </trkpt>
      <trkpt lat="28.230535248708" lon="-13.989771219165">
        <ele>0</ele>
        <time>2016-04-16T16:45:26Z</time>
      </trkpt>
      <trkpt lat="28.230524855152" lon="-13.989680694645">
        <ele>0</ele>
        <time>2016-04-16T16:45:34Z</time>
      </trkpt>
      <trkpt lat="28.230526280075" lon="-13.989634929471">
        <ele>0</ele>
        <time>2016-04-16T16:45:38Z</time>
      </trkpt>
      <trkpt lat="28.230561484055" lon="-13.98953023954">
        <ele>0</ele>
        <time>2016-04-16T16:45:46Z</time>
      </trkpt>
      <trkpt lat="28.230602555365" lon="-13.98943552407">
        <ele>0</ele>
        <time>2016-04-16T16:45:53Z</time>
      </trkpt>
      <trkpt lat="28.230595514569" lon="-13.989236621583">
        <ele>0</ele>
        <time>2016-04-16T16:46:08Z</time>
      </trkpt>
      <trkpt lat="28.230548743567" lon="-13.989195717911">
        <ele>0</ele>
        <time>2016-04-16T16:46:13Z</time>
      </trkpt>
      <trkpt lat="28.230535332527" lon="-13.98918490526">
        <ele>0</ele>
        <time>2016-04-16T16:46:15Z</time>
      </trkpt>
      <trkpt lat="28.230504822411" lon="-13.98912623196">
        <ele>0</ele>
        <time>2016-04-16T16:46:20Z</time>
      </trkpt>
      <trkpt lat="28.230440952333" lon="-13.989098487871">
        <ele>0</ele>
        <time>2016-04-16T16:46:26Z</time>
      </trkpt>
      <trkpt lat="28.230390409476" lon="-13.989088261953">
        <ele>0</ele>
        <time>2016-04-16T16:46:32Z</time>
      </trkpt>
      <trkpt lat="28.230406838" lon="-13.989063619167">
        <ele>0</ele>
        <time>2016-04-16T16:46:37Z</time>
      </trkpt>
      <trkpt lat="28.230441874342" lon="-13.989018021631">
        <ele>0</ele>
        <time>2016-04-16T16:46:41Z</time>
      </trkpt>
      <trkpt lat="28.230459895427" lon="-13.989001257831">
        <ele>0</ele>
        <time>2016-04-16T16:46:43Z</time>
      </trkpt>
      <trkpt lat="28.230471294811" lon="-13.988982230918">
        <ele>0</ele>
        <time>2016-04-16T16:46:45Z</time>
      </trkpt>
      <trkpt lat="28.23058537247" lon="-13.988824651198">
        <ele>0</ele>
        <time>2016-04-16T16:46:59Z</time>
      </trkpt>
      <trkpt lat="28.230617307509" lon="-13.988760278206">
        <ele>0</ele>
        <time>2016-04-16T16:47:05Z</time>
      </trkpt>
      <trkpt lat="28.230630467092" lon="-13.988725325683">
        <ele>0</ele>
        <time>2016-04-16T16:47:08Z</time>
      </trkpt>
      <trkpt lat="28.230664329968" lon="-13.988625748711">
        <ele>0</ele>
        <time>2016-04-16T16:47:16Z</time>
      </trkpt>
      <trkpt lat="28.230693834256" lon="-13.988530865603">
        <ele>0</ele>
        <time>2016-04-16T16:47:25Z</time>
      </trkpt>
      <trkpt lat="28.23072199744" lon="-13.988452997752">
        <ele>0</ele>
        <time>2016-04-16T16:47:31Z</time>
      </trkpt>
      <trkpt lat="28.230704227812" lon="-13.988428438785">
        <ele>0</ele>
        <time>2016-04-16T16:47:33Z</time>
      </trkpt>
      <trkpt lat="28.230690900591" lon="-13.988406310569">
        <ele>0</ele>
        <time>2016-04-16T16:47:35Z</time>
      </trkpt>
      <trkpt lat="28.230633819852" lon="-13.988368843476">
        <ele>0</ele>
        <time>2016-04-16T16:47:40Z</time>
      </trkpt>
      <trkpt lat="28.230611104903" lon="-13.988357276454">
        <ele>0</ele>
        <time>2016-04-16T16:47:42Z</time>
      </trkpt>
      <trkpt lat="28.230469366974" lon="-13.988226351176">
        <ele>0</ele>
        <time>2016-04-16T16:47:55Z</time>
      </trkpt>
      <trkpt lat="28.230423685619" lon="-13.988205396426">
        <ele>0</ele>
        <time>2016-04-16T16:47:58Z</time>
      </trkpt>
      <trkpt lat="28.230332658185" lon="-13.988196092517">
        <ele>0</ele>
        <time>2016-04-16T16:48:04Z</time>
      </trkpt>
      <trkpt lat="28.230182454537" lon="-13.988158373967">
        <ele>0</ele>
        <time>2016-04-16T16:48:17Z</time>
      </trkpt>
      <trkpt lat="28.230021102962" lon="-13.988028119241">
        <ele>0</ele>
        <time>2016-04-16T16:48:34Z</time>
      </trkpt>
      <trkpt lat="28.230013140157" lon="-13.988016049305">
        <ele>0</ele>
        <time>2016-04-16T16:48:35Z</time>
      </trkpt>
      <trkpt lat="28.229999142384" lon="-13.98799467546">
        <ele>0</ele>
        <time>2016-04-16T16:48:37Z</time>
      </trkpt>
      <trkpt lat="28.22993158427" lon="-13.987911191736">
        <ele>0</ele>
        <time>2016-04-16T16:48:46Z</time>
      </trkpt>
      <trkpt lat="28.229835360058" lon="-13.987876993584">
        <ele>0</ele>
        <time>2016-04-16T16:48:54Z</time>
      </trkpt>
      <trkpt lat="28.229799569345" lon="-13.987788564539">
        <ele>0</ele>
        <time>2016-04-16T16:49:05Z</time>
      </trkpt>
      <trkpt lat="28.229808789435" lon="-13.987772806567">
        <ele>0</ele>
        <time>2016-04-16T16:49:07Z</time>
      </trkpt>
      <trkpt lat="28.229908617864" lon="-13.987809184013">
        <ele>0</ele>
        <time>2016-04-16T16:49:21Z</time>
      </trkpt>
      <trkpt lat="28.229937200143" lon="-13.987803400502">
        <ele>0</ele>
        <time>2016-04-16T16:49:27Z</time>
      </trkpt>
      <trkpt lat="28.229944660034" lon="-13.98770885267">
        <ele>0</ele>
        <time>2016-04-16T16:49:32Z</time>
      </trkpt>
      <trkpt lat="28.229949521536" lon="-13.987700638408">
        <ele>0</ele>
        <time>2016-04-16T16:49:33Z</time>
      </trkpt>
      <trkpt lat="28.229973326132" lon="-13.987700303132">
        <ele>0</ele>
        <time>2016-04-16T16:49:37Z</time>
      </trkpt>
      <trkpt lat="28.229973326132" lon="-13.987696866553">
        <ele>0</ele>
        <time>2016-04-16T16:49:38Z</time>
      </trkpt>
      <trkpt lat="28.229978858186" lon="-13.987699548761">
        <ele>0</ele>
        <time>2016-04-16T16:49:40Z</time>
      </trkpt>
      <trkpt lat="28.229960334187" lon="-13.987720838787">
        <ele>0</ele>
        <time>2016-04-16T16:49:44Z</time>
      </trkpt>
      <trkpt lat="28.229945330586" lon="-13.987749756342">
        <ele>0</ele>
        <time>2016-04-16T16:49:48Z</time>
      </trkpt>
      <trkpt lat="28.229968799906" lon="-13.987739614243">
        <ele>0</ele>
        <time>2016-04-16T16:49:53Z</time>
      </trkpt>
      <trkpt lat="28.230036022744" lon="-13.987571808605">
        <ele>0</ele>
        <time>2016-04-16T16:50:08Z</time>
      </trkpt>
      <trkpt lat="28.230050942526" lon="-13.987556218271">
        <ele>0</ele>
        <time>2016-04-16T16:50:10Z</time>
      </trkpt>
      <trkpt lat="28.230067287231" lon="-13.987530485838">
        <ele>0</ele>
        <time>2016-04-16T16:50:13Z</time>
      </trkpt>
      <trkpt lat="28.230076172045" lon="-13.987399812017">
        <ele>0</ele>
        <time>2016-04-16T16:50:24Z</time>
      </trkpt>
      <trkpt lat="28.230075669131" lon="-13.987315573922">
        <ele>0</ele>
        <time>2016-04-16T16:50:34Z</time>
      </trkpt>
      <trkpt lat="28.23009000218" lon="-13.987276095173">
        <ele>0</ele>
        <time>2016-04-16T16:50:39Z</time>
      </trkpt>
      <trkpt lat="28.230101233926" lon="-13.987270563119">
        <ele>0</ele>
        <time>2016-04-16T16:50:41Z</time>
      </trkpt>
      <trkpt lat="28.230128139825" lon="-13.987290344403">
        <ele>0</ele>
        <time>2016-04-16T16:50:43Z</time>
      </trkpt>
      <trkpt lat="28.230125876712" lon="-13.987291517869">
        <ele>0</ele>
        <time>2016-04-16T16:50:48Z</time>
      </trkpt>
      <trkpt lat="28.230131492585" lon="-13.987281794865">
        <ele>0</ele>
        <time>2016-04-16T16:50:50Z</time>
      </trkpt>
      <trkpt lat="28.230136270268" lon="-13.987260756296">
        <ele>0</ele>
        <time>2016-04-16T16:50:52Z</time>
      </trkpt>
      <trkpt lat="28.230185136745" lon="-13.987251871482">
        <ele>0</ele>
        <time>2016-04-16T16:50:55Z</time>
      </trkpt>
      <trkpt lat="28.230188740962" lon="-13.987220774633">
        <ele>0</ele>
        <time>2016-04-16T16:50:57Z</time>
      </trkpt>
      <trkpt lat="28.230175162284" lon="-13.987288332747">
        <ele>0</ele>
        <time>2016-04-16T16:51:00Z</time>
      </trkpt>
      <trkpt lat="28.230159069036" lon="-13.987259415192">
        <ele>0</ele>
        <time>2016-04-16T16:51:07Z</time>
      </trkpt>
      <trkpt lat="28.230022024971" lon="-13.987143242058">
        <ele>0</ele>
        <time>2016-04-16T16:51:20Z</time>
      </trkpt>
      <trkpt lat="28.23005898915" lon="-13.987170315595">
        <ele>0</ele>
        <time>2016-04-16T16:51:33Z</time>
      </trkpt>
      <trkpt lat="28.230063515376" lon="-13.987151540139">
        <ele>0</ele>
        <time>2016-04-16T16:51:35Z</time>
      </trkpt>
    </trkseg>
  </trk>
</gpx>